<?xml version="1.0" encoding="UTF-8" standalone="no" ?>
<gpx xmlns="http://www.topografix.com/GPX/1/1" xmlns:xsi="http://www.w3.org/2001/XMLSchema-instance" xsi:schemaLocation="http://www.topografix.com/GPX/1/1 http://www.topografix.com/GPX/1/1/gpx.xsd" version="1.1" creator="VisuGPX - https://www.visugpx.com">
  <metadata>
    <name>2018-05-12 Bike ride VTT-Mondial Relay AR</name>
    <desc><![CDATA[2018-05-12 Bike ride VTT-Mondial Relay AR]]></desc>
  </metadata>
  <wpt lat="45.92464" lon="4.73637">
    <ele>174</ele>
    <name><![CDATA[2018-05-12 10:35 (Start)]]></name>
  </wpt>
  <wpt lat="45.92453" lon="4.73711">
    <ele>174</ele>
    <name><![CDATA[2018-05-12 10:35 (End)]]></name>
  </wpt>
  <trk>
    <name><![CDATA[2018-05-12 10:35]]></name>
    <trkseg>
      <trkpt lat="45.92464" lon="4.73637">
        <ele>174</ele>
        <time>2018-05-12T08:35:38.06Z</time>
      </trkpt>
      <trkpt lat="45.92464" lon="4.73637">
        <ele>174</ele>
        <time>2018-05-12T08:35:40.725Z</time>
      </trkpt>
      <trkpt lat="45.92461" lon="4.73632">
        <ele>174</ele>
        <time>2018-05-12T08:35:42.695Z</time>
      </trkpt>
      <trkpt lat="45.9246" lon="4.73632">
        <ele>174</ele>
        <time>2018-05-12T08:35:43.693Z</time>
      </trkpt>
      <trkpt lat="45.92461" lon="4.73633">
        <ele>174</ele>
        <time>2018-05-12T08:35:47Z</time>
      </trkpt>
      <trkpt lat="45.92461" lon="4.73633">
        <ele>174</ele>
        <time>2018-05-12T08:35:48Z</time>
      </trkpt>
      <trkpt lat="45.92462" lon="4.73634">
        <ele>174</ele>
        <time>2018-05-12T08:35:49Z</time>
      </trkpt>
      <trkpt lat="45.92464" lon="4.73623">
        <ele>174</ele>
        <time>2018-05-12T08:36:06Z</time>
      </trkpt>
      <trkpt lat="45.92464" lon="4.7362">
        <ele>174</ele>
        <time>2018-05-12T08:36:07Z</time>
      </trkpt>
      <trkpt lat="45.92465" lon="4.7361">
        <ele>174</ele>
        <time>2018-05-12T08:36:10Z</time>
      </trkpt>
      <trkpt lat="45.92465" lon="4.73606">
        <ele>174</ele>
        <time>2018-05-12T08:36:11Z</time>
      </trkpt>
      <trkpt lat="45.92465" lon="4.73595">
        <ele>174</ele>
        <time>2018-05-12T08:36:14Z</time>
      </trkpt>
      <trkpt lat="45.92466" lon="4.73591">
        <ele>174</ele>
        <time>2018-05-12T08:36:15Z</time>
      </trkpt>
      <trkpt lat="45.92467" lon="4.73578">
        <ele>173</ele>
        <time>2018-05-12T08:36:18Z</time>
      </trkpt>
      <trkpt lat="45.92467" lon="4.73574">
        <ele>173</ele>
        <time>2018-05-12T08:36:19Z</time>
      </trkpt>
      <trkpt lat="45.92466" lon="4.73562">
        <ele>173</ele>
        <time>2018-05-12T08:36:22Z</time>
      </trkpt>
      <trkpt lat="45.92467" lon="4.73559">
        <ele>173</ele>
        <time>2018-05-12T08:36:23Z</time>
      </trkpt>
      <trkpt lat="45.92467" lon="4.73548">
        <ele>173</ele>
        <time>2018-05-12T08:36:26Z</time>
      </trkpt>
      <trkpt lat="45.92467" lon="4.73544">
        <ele>173</ele>
        <time>2018-05-12T08:36:27Z</time>
      </trkpt>
      <trkpt lat="45.92467" lon="4.73532">
        <ele>174</ele>
        <time>2018-05-12T08:36:28Z</time>
      </trkpt>
      <trkpt lat="45.92467" lon="4.73527">
        <ele>174</ele>
        <time>2018-05-12T08:36:29Z</time>
      </trkpt>
      <trkpt lat="45.92467" lon="4.73515">
        <ele>174</ele>
        <time>2018-05-12T08:36:31Z</time>
      </trkpt>
      <trkpt lat="45.92467" lon="4.73509">
        <ele>174</ele>
        <time>2018-05-12T08:36:32Z</time>
      </trkpt>
      <trkpt lat="45.92467" lon="4.73497">
        <ele>173</ele>
        <time>2018-05-12T08:36:34Z</time>
      </trkpt>
      <trkpt lat="45.92467" lon="4.73492">
        <ele>173</ele>
        <time>2018-05-12T08:36:35Z</time>
      </trkpt>
      <trkpt lat="45.92467" lon="4.7348">
        <ele>173</ele>
        <time>2018-05-12T08:36:37Z</time>
      </trkpt>
      <trkpt lat="45.92467" lon="4.73474">
        <ele>173</ele>
        <time>2018-05-12T08:36:38Z</time>
      </trkpt>
      <trkpt lat="45.92467" lon="4.73468">
        <ele>173</ele>
        <time>2018-05-12T08:36:39Z</time>
      </trkpt>
      <trkpt lat="45.92467" lon="4.73461">
        <ele>173</ele>
        <time>2018-05-12T08:36:40Z</time>
      </trkpt>
      <trkpt lat="45.92467" lon="4.73455">
        <ele>173</ele>
        <time>2018-05-12T08:36:41Z</time>
      </trkpt>
      <trkpt lat="45.92465" lon="4.73448">
        <ele>173</ele>
        <time>2018-05-12T08:36:42Z</time>
      </trkpt>
      <trkpt lat="45.92465" lon="4.73441">
        <ele>173</ele>
        <time>2018-05-12T08:36:43Z</time>
      </trkpt>
      <trkpt lat="45.92462" lon="4.73435">
        <ele>173</ele>
        <time>2018-05-12T08:36:44Z</time>
      </trkpt>
      <trkpt lat="45.92459" lon="4.7343">
        <ele>173</ele>
        <time>2018-05-12T08:36:45Z</time>
      </trkpt>
      <trkpt lat="45.92455" lon="4.73426">
        <ele>173</ele>
        <time>2018-05-12T08:36:46Z</time>
      </trkpt>
      <trkpt lat="45.92452" lon="4.73423">
        <ele>173</ele>
        <time>2018-05-12T08:36:47Z</time>
      </trkpt>
      <trkpt lat="45.92447" lon="4.7342">
        <ele>173</ele>
        <time>2018-05-12T08:36:48Z</time>
      </trkpt>
      <trkpt lat="45.92439" lon="4.73414">
        <ele>172</ele>
        <time>2018-05-12T08:36:50Z</time>
      </trkpt>
      <trkpt lat="45.92435" lon="4.7341">
        <ele>172</ele>
        <time>2018-05-12T08:36:51Z</time>
      </trkpt>
      <trkpt lat="45.92431" lon="4.73405">
        <ele>172</ele>
        <time>2018-05-12T08:36:52Z</time>
      </trkpt>
      <trkpt lat="45.92428" lon="4.734">
        <ele>172</ele>
        <time>2018-05-12T08:36:53Z</time>
      </trkpt>
      <trkpt lat="45.92425" lon="4.73388">
        <ele>172</ele>
        <time>2018-05-12T08:36:55Z</time>
      </trkpt>
      <trkpt lat="45.92423" lon="4.73382">
        <ele>172</ele>
        <time>2018-05-12T08:36:56Z</time>
      </trkpt>
      <trkpt lat="45.92422" lon="4.73376">
        <ele>172</ele>
        <time>2018-05-12T08:36:57Z</time>
      </trkpt>
      <trkpt lat="45.92421" lon="4.73369">
        <ele>172</ele>
        <time>2018-05-12T08:36:58Z</time>
      </trkpt>
      <trkpt lat="45.9242" lon="4.73362">
        <ele>172</ele>
        <time>2018-05-12T08:36:59Z</time>
      </trkpt>
      <trkpt lat="45.92418" lon="4.73354">
        <ele>171</ele>
        <time>2018-05-12T08:37:00Z</time>
      </trkpt>
      <trkpt lat="45.92417" lon="4.73347">
        <ele>171</ele>
        <time>2018-05-12T08:37:01Z</time>
      </trkpt>
      <trkpt lat="45.92416" lon="4.73341">
        <ele>171</ele>
        <time>2018-05-12T08:37:02Z</time>
      </trkpt>
      <trkpt lat="45.92415" lon="4.73328">
        <ele>171</ele>
        <time>2018-05-12T08:37:04Z</time>
      </trkpt>
      <trkpt lat="45.92415" lon="4.73323">
        <ele>171</ele>
        <time>2018-05-12T08:37:05Z</time>
      </trkpt>
      <trkpt lat="45.92414" lon="4.73316">
        <ele>171</ele>
        <time>2018-05-12T08:37:06Z</time>
      </trkpt>
      <trkpt lat="45.92414" lon="4.73309">
        <ele>171</ele>
        <time>2018-05-12T08:37:07Z</time>
      </trkpt>
      <trkpt lat="45.92412" lon="4.73297">
        <ele>171</ele>
        <time>2018-05-12T08:37:09Z</time>
      </trkpt>
      <trkpt lat="45.92412" lon="4.73291">
        <ele>171</ele>
        <time>2018-05-12T08:37:10Z</time>
      </trkpt>
      <trkpt lat="45.92411" lon="4.73278">
        <ele>171</ele>
        <time>2018-05-12T08:37:12Z</time>
      </trkpt>
      <trkpt lat="45.92411" lon="4.73271">
        <ele>171</ele>
        <time>2018-05-12T08:37:13Z</time>
      </trkpt>
      <trkpt lat="45.9241" lon="4.73259">
        <ele>171</ele>
        <time>2018-05-12T08:37:15Z</time>
      </trkpt>
      <trkpt lat="45.9241" lon="4.73252">
        <ele>171</ele>
        <time>2018-05-12T08:37:16Z</time>
      </trkpt>
      <trkpt lat="45.92409" lon="4.73245">
        <ele>171</ele>
        <time>2018-05-12T08:37:17Z</time>
      </trkpt>
      <trkpt lat="45.92409" lon="4.73238">
        <ele>171</ele>
        <time>2018-05-12T08:37:18Z</time>
      </trkpt>
      <trkpt lat="45.92408" lon="4.73231">
        <ele>171</ele>
        <time>2018-05-12T08:37:19Z</time>
      </trkpt>
      <trkpt lat="45.92408" lon="4.73224">
        <ele>171</ele>
        <time>2018-05-12T08:37:20Z</time>
      </trkpt>
      <trkpt lat="45.92408" lon="4.73217">
        <ele>171</ele>
        <time>2018-05-12T08:37:21Z</time>
      </trkpt>
      <trkpt lat="45.92407" lon="4.7321">
        <ele>171</ele>
        <time>2018-05-12T08:37:22Z</time>
      </trkpt>
      <trkpt lat="45.92407" lon="4.73202">
        <ele>171</ele>
        <time>2018-05-12T08:37:23Z</time>
      </trkpt>
      <trkpt lat="45.92406" lon="4.73195">
        <ele>171</ele>
        <time>2018-05-12T08:37:24Z</time>
      </trkpt>
      <trkpt lat="45.92406" lon="4.73188">
        <ele>171</ele>
        <time>2018-05-12T08:37:25Z</time>
      </trkpt>
      <trkpt lat="45.92406" lon="4.7318">
        <ele>171</ele>
        <time>2018-05-12T08:37:26Z</time>
      </trkpt>
      <trkpt lat="45.92406" lon="4.73173">
        <ele>171</ele>
        <time>2018-05-12T08:37:27Z</time>
      </trkpt>
      <trkpt lat="45.92407" lon="4.73166">
        <ele>170</ele>
        <time>2018-05-12T08:37:28Z</time>
      </trkpt>
      <trkpt lat="45.92407" lon="4.73153">
        <ele>171</ele>
        <time>2018-05-12T08:37:30Z</time>
      </trkpt>
      <trkpt lat="45.92408" lon="4.73147">
        <ele>171</ele>
        <time>2018-05-12T08:37:31Z</time>
      </trkpt>
      <trkpt lat="45.92409" lon="4.7314">
        <ele>171</ele>
        <time>2018-05-12T08:37:32Z</time>
      </trkpt>
      <trkpt lat="45.9241" lon="4.73133">
        <ele>171</ele>
        <time>2018-05-12T08:37:33Z</time>
      </trkpt>
      <trkpt lat="45.92412" lon="4.73122">
        <ele>171</ele>
        <time>2018-05-12T08:37:35Z</time>
      </trkpt>
      <trkpt lat="45.92415" lon="4.73117">
        <ele>171</ele>
        <time>2018-05-12T08:37:36Z</time>
      </trkpt>
      <trkpt lat="45.92418" lon="4.73112">
        <ele>170</ele>
        <time>2018-05-12T08:37:37Z</time>
      </trkpt>
      <trkpt lat="45.92423" lon="4.73108">
        <ele>170</ele>
        <time>2018-05-12T08:37:38Z</time>
      </trkpt>
      <trkpt lat="45.92427" lon="4.73104">
        <ele>171</ele>
        <time>2018-05-12T08:37:39Z</time>
      </trkpt>
      <trkpt lat="45.92431" lon="4.731">
        <ele>171</ele>
        <time>2018-05-12T08:37:40Z</time>
      </trkpt>
      <trkpt lat="45.92436" lon="4.73097">
        <ele>171</ele>
        <time>2018-05-12T08:37:41Z</time>
      </trkpt>
      <trkpt lat="45.9244" lon="4.73093">
        <ele>171</ele>
        <time>2018-05-12T08:37:42Z</time>
      </trkpt>
      <trkpt lat="45.92445" lon="4.7309">
        <ele>170</ele>
        <time>2018-05-12T08:37:43Z</time>
      </trkpt>
      <trkpt lat="45.9245" lon="4.73086">
        <ele>170</ele>
        <time>2018-05-12T08:37:44Z</time>
      </trkpt>
      <trkpt lat="45.92454" lon="4.73082">
        <ele>170</ele>
        <time>2018-05-12T08:37:45Z</time>
      </trkpt>
      <trkpt lat="45.92458" lon="4.73079">
        <ele>170</ele>
        <time>2018-05-12T08:37:46Z</time>
      </trkpt>
      <trkpt lat="45.92463" lon="4.73074">
        <ele>170</ele>
        <time>2018-05-12T08:37:47Z</time>
      </trkpt>
      <trkpt lat="45.92467" lon="4.73071">
        <ele>170</ele>
        <time>2018-05-12T08:37:48Z</time>
      </trkpt>
      <trkpt lat="45.92472" lon="4.73067">
        <ele>170</ele>
        <time>2018-05-12T08:37:49Z</time>
      </trkpt>
      <trkpt lat="45.92477" lon="4.73064">
        <ele>170</ele>
        <time>2018-05-12T08:37:50Z</time>
      </trkpt>
      <trkpt lat="45.92481" lon="4.73061">
        <ele>170</ele>
        <time>2018-05-12T08:37:51Z</time>
      </trkpt>
      <trkpt lat="45.92485" lon="4.73056">
        <ele>170</ele>
        <time>2018-05-12T08:37:52Z</time>
      </trkpt>
      <trkpt lat="45.92489" lon="4.73053">
        <ele>170</ele>
        <time>2018-05-12T08:37:53Z</time>
      </trkpt>
      <trkpt lat="45.92494" lon="4.73049">
        <ele>170</ele>
        <time>2018-05-12T08:37:54Z</time>
      </trkpt>
      <trkpt lat="45.92498" lon="4.73045">
        <ele>170</ele>
        <time>2018-05-12T08:37:55Z</time>
      </trkpt>
      <trkpt lat="45.92502" lon="4.73041">
        <ele>169</ele>
        <time>2018-05-12T08:37:56Z</time>
      </trkpt>
      <trkpt lat="45.92507" lon="4.73037">
        <ele>169</ele>
        <time>2018-05-12T08:37:57Z</time>
      </trkpt>
      <trkpt lat="45.92512" lon="4.73033">
        <ele>169</ele>
        <time>2018-05-12T08:37:58Z</time>
      </trkpt>
      <trkpt lat="45.92516" lon="4.73028">
        <ele>169</ele>
        <time>2018-05-12T08:37:59Z</time>
      </trkpt>
      <trkpt lat="45.92521" lon="4.73024">
        <ele>169</ele>
        <time>2018-05-12T08:38:00Z</time>
      </trkpt>
      <trkpt lat="45.92525" lon="4.7302">
        <ele>169</ele>
        <time>2018-05-12T08:38:01Z</time>
      </trkpt>
      <trkpt lat="45.9253" lon="4.73015">
        <ele>169</ele>
        <time>2018-05-12T08:38:02Z</time>
      </trkpt>
      <trkpt lat="45.92534" lon="4.73011">
        <ele>169</ele>
        <time>2018-05-12T08:38:03Z</time>
      </trkpt>
      <trkpt lat="45.92539" lon="4.73008">
        <ele>169</ele>
        <time>2018-05-12T08:38:04Z</time>
      </trkpt>
      <trkpt lat="45.92543" lon="4.73003">
        <ele>169</ele>
        <time>2018-05-12T08:38:05Z</time>
      </trkpt>
      <trkpt lat="45.92547" lon="4.72999">
        <ele>169</ele>
        <time>2018-05-12T08:38:06Z</time>
      </trkpt>
      <trkpt lat="45.92552" lon="4.72994">
        <ele>169</ele>
        <time>2018-05-12T08:38:07Z</time>
      </trkpt>
      <trkpt lat="45.92556" lon="4.7299">
        <ele>169</ele>
        <time>2018-05-12T08:38:08Z</time>
      </trkpt>
      <trkpt lat="45.9256" lon="4.72985">
        <ele>169</ele>
        <time>2018-05-12T08:38:09Z</time>
      </trkpt>
      <trkpt lat="45.92564" lon="4.7298">
        <ele>169</ele>
        <time>2018-05-12T08:38:10Z</time>
      </trkpt>
      <trkpt lat="45.92569" lon="4.72974">
        <ele>169</ele>
        <time>2018-05-12T08:38:11Z</time>
      </trkpt>
      <trkpt lat="45.92573" lon="4.7297">
        <ele>169</ele>
        <time>2018-05-12T08:38:12Z</time>
      </trkpt>
      <trkpt lat="45.92577" lon="4.72965">
        <ele>169</ele>
        <time>2018-05-12T08:38:13Z</time>
      </trkpt>
      <trkpt lat="45.92582" lon="4.7296">
        <ele>169</ele>
        <time>2018-05-12T08:38:14Z</time>
      </trkpt>
      <trkpt lat="45.92587" lon="4.72954">
        <ele>169</ele>
        <time>2018-05-12T08:38:15Z</time>
      </trkpt>
      <trkpt lat="45.92591" lon="4.72949">
        <ele>169</ele>
        <time>2018-05-12T08:38:16Z</time>
      </trkpt>
      <trkpt lat="45.92596" lon="4.72945">
        <ele>169</ele>
        <time>2018-05-12T08:38:17Z</time>
      </trkpt>
      <trkpt lat="45.926" lon="4.72941">
        <ele>169</ele>
        <time>2018-05-12T08:38:18Z</time>
      </trkpt>
      <trkpt lat="45.92604" lon="4.72937">
        <ele>169</ele>
        <time>2018-05-12T08:38:19Z</time>
      </trkpt>
      <trkpt lat="45.92608" lon="4.72932">
        <ele>169</ele>
        <time>2018-05-12T08:38:20Z</time>
      </trkpt>
      <trkpt lat="45.92612" lon="4.72928">
        <ele>169</ele>
        <time>2018-05-12T08:38:21Z</time>
      </trkpt>
      <trkpt lat="45.92616" lon="4.72924">
        <ele>169</ele>
        <time>2018-05-12T08:38:22Z</time>
      </trkpt>
      <trkpt lat="45.92621" lon="4.72921">
        <ele>169</ele>
        <time>2018-05-12T08:38:23Z</time>
      </trkpt>
      <trkpt lat="45.92625" lon="4.72918">
        <ele>169</ele>
        <time>2018-05-12T08:38:24Z</time>
      </trkpt>
      <trkpt lat="45.92632" lon="4.72912">
        <ele>169</ele>
        <time>2018-05-12T08:38:26Z</time>
      </trkpt>
      <trkpt lat="45.92636" lon="4.72908">
        <ele>169</ele>
        <time>2018-05-12T08:38:27Z</time>
      </trkpt>
      <trkpt lat="45.92643" lon="4.72904">
        <ele>169</ele>
        <time>2018-05-12T08:38:29Z</time>
      </trkpt>
      <trkpt lat="45.92646" lon="4.72901">
        <ele>169</ele>
        <time>2018-05-12T08:38:30Z</time>
      </trkpt>
      <trkpt lat="45.92652" lon="4.72894">
        <ele>169</ele>
        <time>2018-05-12T08:38:32Z</time>
      </trkpt>
      <trkpt lat="45.92654" lon="4.72893">
        <ele>169</ele>
        <time>2018-05-12T08:38:33Z</time>
      </trkpt>
      <trkpt lat="45.92661" lon="4.72887">
        <ele>169</ele>
        <time>2018-05-12T08:38:36Z</time>
      </trkpt>
      <trkpt lat="45.92663" lon="4.72885">
        <ele>169</ele>
        <time>2018-05-12T08:38:37Z</time>
      </trkpt>
      <trkpt lat="45.9267" lon="4.7288">
        <ele>170</ele>
        <time>2018-05-12T08:38:40Z</time>
      </trkpt>
      <trkpt lat="45.92672" lon="4.72879">
        <ele>170</ele>
        <time>2018-05-12T08:38:41Z</time>
      </trkpt>
      <trkpt lat="45.9268" lon="4.72876">
        <ele>170</ele>
        <time>2018-05-12T08:38:49Z</time>
      </trkpt>
      <trkpt lat="45.92681" lon="4.72875">
        <ele>170</ele>
        <time>2018-05-12T08:38:50Z</time>
      </trkpt>
      <trkpt lat="45.92687" lon="4.7287">
        <ele>169</ele>
        <time>2018-05-12T08:38:58Z</time>
      </trkpt>
      <trkpt lat="45.92688" lon="4.72869">
        <ele>169</ele>
        <time>2018-05-12T08:38:59Z</time>
      </trkpt>
      <trkpt lat="45.92695" lon="4.72862">
        <ele>169</ele>
        <time>2018-05-12T08:39:03Z</time>
      </trkpt>
      <trkpt lat="45.92697" lon="4.7286">
        <ele>169</ele>
        <time>2018-05-12T08:39:04Z</time>
      </trkpt>
      <trkpt lat="45.92704" lon="4.72855">
        <ele>169</ele>
        <time>2018-05-12T08:39:07Z</time>
      </trkpt>
      <trkpt lat="45.92707" lon="4.72853">
        <ele>169</ele>
        <time>2018-05-12T08:39:08Z</time>
      </trkpt>
      <trkpt lat="45.92712" lon="4.72849">
        <ele>169</ele>
        <time>2018-05-12T08:39:10Z</time>
      </trkpt>
      <trkpt lat="45.9272" lon="4.72843">
        <ele>169</ele>
        <time>2018-05-12T08:39:11Z</time>
      </trkpt>
      <trkpt lat="45.92727" lon="4.72839">
        <ele>169</ele>
        <time>2018-05-12T08:39:13Z</time>
      </trkpt>
      <trkpt lat="45.9273" lon="4.72836">
        <ele>169</ele>
        <time>2018-05-12T08:39:14Z</time>
      </trkpt>
      <trkpt lat="45.92734" lon="4.72833">
        <ele>169</ele>
        <time>2018-05-12T08:39:15Z</time>
      </trkpt>
      <trkpt lat="45.92739" lon="4.7283">
        <ele>169</ele>
        <time>2018-05-12T08:39:16Z</time>
      </trkpt>
      <trkpt lat="45.92743" lon="4.72826">
        <ele>169</ele>
        <time>2018-05-12T08:39:17Z</time>
      </trkpt>
      <trkpt lat="45.92747" lon="4.72822">
        <ele>169</ele>
        <time>2018-05-12T08:39:18Z</time>
      </trkpt>
      <trkpt lat="45.92753" lon="4.72819">
        <ele>170</ele>
        <time>2018-05-12T08:39:19Z</time>
      </trkpt>
      <trkpt lat="45.92757" lon="4.72815">
        <ele>170</ele>
        <time>2018-05-12T08:39:20Z</time>
      </trkpt>
      <trkpt lat="45.92761" lon="4.7281">
        <ele>170</ele>
        <time>2018-05-12T08:39:21Z</time>
      </trkpt>
      <trkpt lat="45.92766" lon="4.72807">
        <ele>170</ele>
        <time>2018-05-12T08:39:22Z</time>
      </trkpt>
      <trkpt lat="45.9277" lon="4.72803">
        <ele>170</ele>
        <time>2018-05-12T08:39:23Z</time>
      </trkpt>
      <trkpt lat="45.92775" lon="4.72801">
        <ele>170</ele>
        <time>2018-05-12T08:39:24Z</time>
      </trkpt>
      <trkpt lat="45.92783" lon="4.72795">
        <ele>170</ele>
        <time>2018-05-12T08:39:26Z</time>
      </trkpt>
      <trkpt lat="45.92787" lon="4.72792">
        <ele>170</ele>
        <time>2018-05-12T08:39:27Z</time>
      </trkpt>
      <trkpt lat="45.92795" lon="4.72789">
        <ele>171</ele>
        <time>2018-05-12T08:39:29Z</time>
      </trkpt>
      <trkpt lat="45.92799" lon="4.72789">
        <ele>171</ele>
        <time>2018-05-12T08:39:30Z</time>
      </trkpt>
      <trkpt lat="45.92801" lon="4.72802">
        <ele>171</ele>
        <time>2018-05-12T08:39:32Z</time>
      </trkpt>
      <trkpt lat="45.92803" lon="4.72807">
        <ele>171</ele>
        <time>2018-05-12T08:39:33Z</time>
      </trkpt>
      <trkpt lat="45.92805" lon="4.72813">
        <ele>171</ele>
        <time>2018-05-12T08:39:34Z</time>
      </trkpt>
      <trkpt lat="45.92805" lon="4.7282">
        <ele>171</ele>
        <time>2018-05-12T08:39:35Z</time>
      </trkpt>
      <trkpt lat="45.92805" lon="4.72827">
        <ele>171</ele>
        <time>2018-05-12T08:39:36Z</time>
      </trkpt>
      <trkpt lat="45.92807" lon="4.72833">
        <ele>170</ele>
        <time>2018-05-12T08:39:37Z</time>
      </trkpt>
      <trkpt lat="45.92808" lon="4.72841">
        <ele>170</ele>
        <time>2018-05-12T08:39:38Z</time>
      </trkpt>
      <trkpt lat="45.9281" lon="4.72848">
        <ele>170</ele>
        <time>2018-05-12T08:39:39Z</time>
      </trkpt>
      <trkpt lat="45.92811" lon="4.72856">
        <ele>170</ele>
        <time>2018-05-12T08:39:40Z</time>
      </trkpt>
      <trkpt lat="45.92812" lon="4.72863">
        <ele>170</ele>
        <time>2018-05-12T08:39:41Z</time>
      </trkpt>
      <trkpt lat="45.92814" lon="4.7287">
        <ele>170</ele>
        <time>2018-05-12T08:39:42Z</time>
      </trkpt>
      <trkpt lat="45.92817" lon="4.72877">
        <ele>170</ele>
        <time>2018-05-12T08:39:43Z</time>
      </trkpt>
      <trkpt lat="45.92818" lon="4.72884">
        <ele>170</ele>
        <time>2018-05-12T08:39:44Z</time>
      </trkpt>
      <trkpt lat="45.92819" lon="4.72891">
        <ele>170</ele>
        <time>2018-05-12T08:39:45Z</time>
      </trkpt>
      <trkpt lat="45.92821" lon="4.729">
        <ele>170</ele>
        <time>2018-05-12T08:39:46Z</time>
      </trkpt>
      <trkpt lat="45.92821" lon="4.72908">
        <ele>170</ele>
        <time>2018-05-12T08:39:47Z</time>
      </trkpt>
      <trkpt lat="45.92822" lon="4.72915">
        <ele>170</ele>
        <time>2018-05-12T08:39:48Z</time>
      </trkpt>
      <trkpt lat="45.92823" lon="4.72922">
        <ele>170</ele>
        <time>2018-05-12T08:39:49Z</time>
      </trkpt>
      <trkpt lat="45.92824" lon="4.72929">
        <ele>170</ele>
        <time>2018-05-12T08:39:50Z</time>
      </trkpt>
      <trkpt lat="45.92824" lon="4.72935">
        <ele>170</ele>
        <time>2018-05-12T08:39:51Z</time>
      </trkpt>
      <trkpt lat="45.92825" lon="4.72942">
        <ele>170</ele>
        <time>2018-05-12T08:39:52Z</time>
      </trkpt>
      <trkpt lat="45.92825" lon="4.7295">
        <ele>170</ele>
        <time>2018-05-12T08:39:53Z</time>
      </trkpt>
      <trkpt lat="45.92825" lon="4.72957">
        <ele>170</ele>
        <time>2018-05-12T08:39:54Z</time>
      </trkpt>
      <trkpt lat="45.92825" lon="4.72965">
        <ele>170</ele>
        <time>2018-05-12T08:39:55Z</time>
      </trkpt>
      <trkpt lat="45.92826" lon="4.72973">
        <ele>170</ele>
        <time>2018-05-12T08:39:56Z</time>
      </trkpt>
      <trkpt lat="45.92827" lon="4.72981">
        <ele>170</ele>
        <time>2018-05-12T08:39:57Z</time>
      </trkpt>
      <trkpt lat="45.92827" lon="4.72988">
        <ele>170</ele>
        <time>2018-05-12T08:39:58Z</time>
      </trkpt>
      <trkpt lat="45.92828" lon="4.72997">
        <ele>170</ele>
        <time>2018-05-12T08:39:59Z</time>
      </trkpt>
      <trkpt lat="45.92829" lon="4.73004">
        <ele>170</ele>
        <time>2018-05-12T08:40:00Z</time>
      </trkpt>
      <trkpt lat="45.9283" lon="4.73012">
        <ele>170</ele>
        <time>2018-05-12T08:40:01Z</time>
      </trkpt>
      <trkpt lat="45.92831" lon="4.73018">
        <ele>170</ele>
        <time>2018-05-12T08:40:02Z</time>
      </trkpt>
      <trkpt lat="45.92832" lon="4.73025">
        <ele>170</ele>
        <time>2018-05-12T08:40:03Z</time>
      </trkpt>
      <trkpt lat="45.92834" lon="4.73032">
        <ele>171</ele>
        <time>2018-05-12T08:40:04Z</time>
      </trkpt>
      <trkpt lat="45.92836" lon="4.73039">
        <ele>171</ele>
        <time>2018-05-12T08:40:05Z</time>
      </trkpt>
      <trkpt lat="45.92837" lon="4.73045">
        <ele>171</ele>
        <time>2018-05-12T08:40:06Z</time>
      </trkpt>
      <trkpt lat="45.92838" lon="4.73052">
        <ele>171</ele>
        <time>2018-05-12T08:40:07Z</time>
      </trkpt>
      <trkpt lat="45.92839" lon="4.73059">
        <ele>171</ele>
        <time>2018-05-12T08:40:08Z</time>
      </trkpt>
      <trkpt lat="45.92841" lon="4.73066">
        <ele>171</ele>
        <time>2018-05-12T08:40:09Z</time>
      </trkpt>
      <trkpt lat="45.92842" lon="4.73072">
        <ele>171</ele>
        <time>2018-05-12T08:40:10Z</time>
      </trkpt>
      <trkpt lat="45.92843" lon="4.73079">
        <ele>171</ele>
        <time>2018-05-12T08:40:11Z</time>
      </trkpt>
      <trkpt lat="45.92845" lon="4.73091">
        <ele>171</ele>
        <time>2018-05-12T08:40:13Z</time>
      </trkpt>
      <trkpt lat="45.92846" lon="4.73097">
        <ele>171</ele>
        <time>2018-05-12T08:40:14Z</time>
      </trkpt>
      <trkpt lat="45.92854" lon="4.73103">
        <ele>171</ele>
        <time>2018-05-12T08:40:17Z</time>
      </trkpt>
      <trkpt lat="45.92859" lon="4.73101">
        <ele>171</ele>
        <time>2018-05-12T08:40:18Z</time>
      </trkpt>
      <trkpt lat="45.92863" lon="4.73099">
        <ele>171</ele>
        <time>2018-05-12T08:40:19Z</time>
      </trkpt>
      <trkpt lat="45.92867" lon="4.73094">
        <ele>172</ele>
        <time>2018-05-12T08:40:20Z</time>
      </trkpt>
      <trkpt lat="45.92873" lon="4.73087">
        <ele>172</ele>
        <time>2018-05-12T08:40:23Z</time>
      </trkpt>
      <trkpt lat="45.92879" lon="4.73082">
        <ele>172</ele>
        <time>2018-05-12T08:40:24Z</time>
      </trkpt>
      <trkpt lat="45.92886" lon="4.73074">
        <ele>172</ele>
        <time>2018-05-12T08:40:26Z</time>
      </trkpt>
      <trkpt lat="45.92889" lon="4.7307">
        <ele>172</ele>
        <time>2018-05-12T08:40:27Z</time>
      </trkpt>
      <trkpt lat="45.92893" lon="4.73066">
        <ele>172</ele>
        <time>2018-05-12T08:40:28Z</time>
      </trkpt>
      <trkpt lat="45.92897" lon="4.7306">
        <ele>172</ele>
        <time>2018-05-12T08:40:29Z</time>
      </trkpt>
      <trkpt lat="45.929" lon="4.73053">
        <ele>172</ele>
        <time>2018-05-12T08:40:30Z</time>
      </trkpt>
      <trkpt lat="45.92904" lon="4.73048">
        <ele>172</ele>
        <time>2018-05-12T08:40:31Z</time>
      </trkpt>
      <trkpt lat="45.92907" lon="4.73043">
        <ele>172</ele>
        <time>2018-05-12T08:40:32Z</time>
      </trkpt>
      <trkpt lat="45.9291" lon="4.73039">
        <ele>172</ele>
        <time>2018-05-12T08:40:33Z</time>
      </trkpt>
      <trkpt lat="45.92913" lon="4.73034">
        <ele>172</ele>
        <time>2018-05-12T08:40:34Z</time>
      </trkpt>
      <trkpt lat="45.92917" lon="4.7303">
        <ele>172</ele>
        <time>2018-05-12T08:40:35Z</time>
      </trkpt>
      <trkpt lat="45.92921" lon="4.73025">
        <ele>172</ele>
        <time>2018-05-12T08:40:36Z</time>
      </trkpt>
      <trkpt lat="45.92924" lon="4.73021">
        <ele>171</ele>
        <time>2018-05-12T08:40:37Z</time>
      </trkpt>
      <trkpt lat="45.92928" lon="4.73015">
        <ele>171</ele>
        <time>2018-05-12T08:40:38Z</time>
      </trkpt>
      <trkpt lat="45.92932" lon="4.73011">
        <ele>171</ele>
        <time>2018-05-12T08:40:39Z</time>
      </trkpt>
      <trkpt lat="45.92936" lon="4.73006">
        <ele>171</ele>
        <time>2018-05-12T08:40:40Z</time>
      </trkpt>
      <trkpt lat="45.92941" lon="4.73001">
        <ele>171</ele>
        <time>2018-05-12T08:40:41Z</time>
      </trkpt>
      <trkpt lat="45.92944" lon="4.72996">
        <ele>171</ele>
        <time>2018-05-12T08:40:42Z</time>
      </trkpt>
      <trkpt lat="45.92949" lon="4.72991">
        <ele>171</ele>
        <time>2018-05-12T08:40:43Z</time>
      </trkpt>
      <trkpt lat="45.92953" lon="4.72988">
        <ele>171</ele>
        <time>2018-05-12T08:40:44Z</time>
      </trkpt>
      <trkpt lat="45.92957" lon="4.72984">
        <ele>171</ele>
        <time>2018-05-12T08:40:45Z</time>
      </trkpt>
      <trkpt lat="45.92962" lon="4.72978">
        <ele>171</ele>
        <time>2018-05-12T08:40:46Z</time>
      </trkpt>
      <trkpt lat="45.92966" lon="4.72973">
        <ele>171</ele>
        <time>2018-05-12T08:40:47Z</time>
      </trkpt>
      <trkpt lat="45.9297" lon="4.72967">
        <ele>171</ele>
        <time>2018-05-12T08:40:48Z</time>
      </trkpt>
      <trkpt lat="45.92974" lon="4.72962">
        <ele>171</ele>
        <time>2018-05-12T08:40:49Z</time>
      </trkpt>
      <trkpt lat="45.92978" lon="4.72957">
        <ele>171</ele>
        <time>2018-05-12T08:40:50Z</time>
      </trkpt>
      <trkpt lat="45.92981" lon="4.72951">
        <ele>171</ele>
        <time>2018-05-12T08:40:51Z</time>
      </trkpt>
      <trkpt lat="45.92986" lon="4.72946">
        <ele>171</ele>
        <time>2018-05-12T08:40:52Z</time>
      </trkpt>
      <trkpt lat="45.9299" lon="4.7294">
        <ele>171</ele>
        <time>2018-05-12T08:40:53Z</time>
      </trkpt>
      <trkpt lat="45.92994" lon="4.72936">
        <ele>171</ele>
        <time>2018-05-12T08:40:54Z</time>
      </trkpt>
      <trkpt lat="45.92998" lon="4.72931">
        <ele>171</ele>
        <time>2018-05-12T08:40:55Z</time>
      </trkpt>
      <trkpt lat="45.93002" lon="4.72927">
        <ele>170</ele>
        <time>2018-05-12T08:40:56Z</time>
      </trkpt>
      <trkpt lat="45.93006" lon="4.72922">
        <ele>170</ele>
        <time>2018-05-12T08:40:57Z</time>
      </trkpt>
      <trkpt lat="45.9301" lon="4.72917">
        <ele>171</ele>
        <time>2018-05-12T08:40:58Z</time>
      </trkpt>
      <trkpt lat="45.93014" lon="4.72911">
        <ele>171</ele>
        <time>2018-05-12T08:40:59Z</time>
      </trkpt>
      <trkpt lat="45.93019" lon="4.72906">
        <ele>172</ele>
        <time>2018-05-12T08:41:00Z</time>
      </trkpt>
      <trkpt lat="45.93023" lon="4.72901">
        <ele>172</ele>
        <time>2018-05-12T08:41:01Z</time>
      </trkpt>
      <trkpt lat="45.93028" lon="4.72896">
        <ele>172</ele>
        <time>2018-05-12T08:41:02Z</time>
      </trkpt>
      <trkpt lat="45.93033" lon="4.72891">
        <ele>172</ele>
        <time>2018-05-12T08:41:03Z</time>
      </trkpt>
      <trkpt lat="45.93038" lon="4.72886">
        <ele>172</ele>
        <time>2018-05-12T08:41:04Z</time>
      </trkpt>
      <trkpt lat="45.93042" lon="4.72882">
        <ele>172</ele>
        <time>2018-05-12T08:41:05Z</time>
      </trkpt>
      <trkpt lat="45.93046" lon="4.72878">
        <ele>172</ele>
        <time>2018-05-12T08:41:06Z</time>
      </trkpt>
      <trkpt lat="45.9305" lon="4.72873">
        <ele>172</ele>
        <time>2018-05-12T08:41:07Z</time>
      </trkpt>
      <trkpt lat="45.93054" lon="4.72867">
        <ele>172</ele>
        <time>2018-05-12T08:41:08Z</time>
      </trkpt>
      <trkpt lat="45.93058" lon="4.72861">
        <ele>172</ele>
        <time>2018-05-12T08:41:09Z</time>
      </trkpt>
      <trkpt lat="45.93063" lon="4.72856">
        <ele>172</ele>
        <time>2018-05-12T08:41:10Z</time>
      </trkpt>
      <trkpt lat="45.93068" lon="4.72851">
        <ele>172</ele>
        <time>2018-05-12T08:41:11Z</time>
      </trkpt>
      <trkpt lat="45.93087" lon="4.72824">
        <ele>172</ele>
        <time>2018-05-12T08:41:18Z</time>
      </trkpt>
      <trkpt lat="45.93096" lon="4.72811">
        <ele>172</ele>
        <time>2018-05-12T08:41:19Z</time>
      </trkpt>
      <trkpt lat="45.93101" lon="4.72806">
        <ele>171</ele>
        <time>2018-05-12T08:41:20Z</time>
      </trkpt>
      <trkpt lat="45.93107" lon="4.728">
        <ele>171</ele>
        <time>2018-05-12T08:41:21Z</time>
      </trkpt>
      <trkpt lat="45.93111" lon="4.72795">
        <ele>171</ele>
        <time>2018-05-12T08:41:22Z</time>
      </trkpt>
      <trkpt lat="45.93116" lon="4.7279">
        <ele>171</ele>
        <time>2018-05-12T08:41:23Z</time>
      </trkpt>
      <trkpt lat="45.93121" lon="4.72784">
        <ele>171</ele>
        <time>2018-05-12T08:41:24Z</time>
      </trkpt>
      <trkpt lat="45.93126" lon="4.72779">
        <ele>171</ele>
        <time>2018-05-12T08:41:25Z</time>
      </trkpt>
      <trkpt lat="45.93131" lon="4.72774">
        <ele>171</ele>
        <time>2018-05-12T08:41:26Z</time>
      </trkpt>
      <trkpt lat="45.93136" lon="4.72768">
        <ele>171</ele>
        <time>2018-05-12T08:41:27Z</time>
      </trkpt>
      <trkpt lat="45.93141" lon="4.72763">
        <ele>171</ele>
        <time>2018-05-12T08:41:28Z</time>
      </trkpt>
      <trkpt lat="45.93147" lon="4.72757">
        <ele>171</ele>
        <time>2018-05-12T08:41:29Z</time>
      </trkpt>
      <trkpt lat="45.93152" lon="4.72751">
        <ele>170</ele>
        <time>2018-05-12T08:41:30Z</time>
      </trkpt>
      <trkpt lat="45.93157" lon="4.72746">
        <ele>170</ele>
        <time>2018-05-12T08:41:31Z</time>
      </trkpt>
      <trkpt lat="45.93161" lon="4.7274">
        <ele>170</ele>
        <time>2018-05-12T08:41:32Z</time>
      </trkpt>
      <trkpt lat="45.93166" lon="4.72735">
        <ele>170</ele>
        <time>2018-05-12T08:41:33Z</time>
      </trkpt>
      <trkpt lat="45.9317" lon="4.72729">
        <ele>170</ele>
        <time>2018-05-12T08:41:34Z</time>
      </trkpt>
      <trkpt lat="45.93175" lon="4.72723">
        <ele>170</ele>
        <time>2018-05-12T08:41:35Z</time>
      </trkpt>
      <trkpt lat="45.93181" lon="4.72717">
        <ele>169</ele>
        <time>2018-05-12T08:41:36Z</time>
      </trkpt>
      <trkpt lat="45.93184" lon="4.72712">
        <ele>169</ele>
        <time>2018-05-12T08:41:37Z</time>
      </trkpt>
      <trkpt lat="45.93189" lon="4.72706">
        <ele>169</ele>
        <time>2018-05-12T08:41:38Z</time>
      </trkpt>
      <trkpt lat="45.93193" lon="4.72701">
        <ele>169</ele>
        <time>2018-05-12T08:41:39Z</time>
      </trkpt>
      <trkpt lat="45.93198" lon="4.72696">
        <ele>169</ele>
        <time>2018-05-12T08:41:40Z</time>
      </trkpt>
      <trkpt lat="45.93203" lon="4.72689">
        <ele>169</ele>
        <time>2018-05-12T08:41:41Z</time>
      </trkpt>
      <trkpt lat="45.93208" lon="4.72684">
        <ele>169</ele>
        <time>2018-05-12T08:41:42Z</time>
      </trkpt>
      <trkpt lat="45.93213" lon="4.72679">
        <ele>169</ele>
        <time>2018-05-12T08:41:43Z</time>
      </trkpt>
      <trkpt lat="45.93217" lon="4.72674">
        <ele>169</ele>
        <time>2018-05-12T08:41:44Z</time>
      </trkpt>
      <trkpt lat="45.93221" lon="4.72669">
        <ele>169</ele>
        <time>2018-05-12T08:41:45Z</time>
      </trkpt>
      <trkpt lat="45.93225" lon="4.72663">
        <ele>170</ele>
        <time>2018-05-12T08:41:46Z</time>
      </trkpt>
      <trkpt lat="45.9323" lon="4.72659">
        <ele>169</ele>
        <time>2018-05-12T08:41:47Z</time>
      </trkpt>
      <trkpt lat="45.93234" lon="4.72655">
        <ele>169</ele>
        <time>2018-05-12T08:41:48Z</time>
      </trkpt>
      <trkpt lat="45.93238" lon="4.72651">
        <ele>169</ele>
        <time>2018-05-12T08:41:49Z</time>
      </trkpt>
      <trkpt lat="45.93242" lon="4.72646">
        <ele>170</ele>
        <time>2018-05-12T08:41:50Z</time>
      </trkpt>
      <trkpt lat="45.93246" lon="4.72642">
        <ele>170</ele>
        <time>2018-05-12T08:41:51Z</time>
      </trkpt>
      <trkpt lat="45.93251" lon="4.72637">
        <ele>169</ele>
        <time>2018-05-12T08:41:52Z</time>
      </trkpt>
      <trkpt lat="45.93255" lon="4.72631">
        <ele>170</ele>
        <time>2018-05-12T08:41:53Z</time>
      </trkpt>
      <trkpt lat="45.93258" lon="4.72626">
        <ele>170</ele>
        <time>2018-05-12T08:41:54Z</time>
      </trkpt>
      <trkpt lat="45.93263" lon="4.7262">
        <ele>170</ele>
        <time>2018-05-12T08:41:55Z</time>
      </trkpt>
      <trkpt lat="45.93267" lon="4.72616">
        <ele>170</ele>
        <time>2018-05-12T08:41:56Z</time>
      </trkpt>
      <trkpt lat="45.93272" lon="4.72611">
        <ele>170</ele>
        <time>2018-05-12T08:41:57Z</time>
      </trkpt>
      <trkpt lat="45.93276" lon="4.72606">
        <ele>170</ele>
        <time>2018-05-12T08:41:58Z</time>
      </trkpt>
      <trkpt lat="45.93281" lon="4.72601">
        <ele>170</ele>
        <time>2018-05-12T08:41:59Z</time>
      </trkpt>
      <trkpt lat="45.93285" lon="4.72597">
        <ele>170</ele>
        <time>2018-05-12T08:42:00Z</time>
      </trkpt>
      <trkpt lat="45.93289" lon="4.72592">
        <ele>170</ele>
        <time>2018-05-12T08:42:01Z</time>
      </trkpt>
      <trkpt lat="45.93294" lon="4.72588">
        <ele>170</ele>
        <time>2018-05-12T08:42:02Z</time>
      </trkpt>
      <trkpt lat="45.93298" lon="4.72583">
        <ele>171</ele>
        <time>2018-05-12T08:42:03Z</time>
      </trkpt>
      <trkpt lat="45.93303" lon="4.72578">
        <ele>171</ele>
        <time>2018-05-12T08:42:04Z</time>
      </trkpt>
      <trkpt lat="45.93307" lon="4.72572">
        <ele>171</ele>
        <time>2018-05-12T08:42:05Z</time>
      </trkpt>
      <trkpt lat="45.93311" lon="4.72566">
        <ele>171</ele>
        <time>2018-05-12T08:42:06Z</time>
      </trkpt>
      <trkpt lat="45.93315" lon="4.7256">
        <ele>171</ele>
        <time>2018-05-12T08:42:07Z</time>
      </trkpt>
      <trkpt lat="45.9332" lon="4.72554">
        <ele>172</ele>
        <time>2018-05-12T08:42:08Z</time>
      </trkpt>
      <trkpt lat="45.93324" lon="4.7255">
        <ele>172</ele>
        <time>2018-05-12T08:42:09Z</time>
      </trkpt>
      <trkpt lat="45.93329" lon="4.72546">
        <ele>172</ele>
        <time>2018-05-12T08:42:10Z</time>
      </trkpt>
      <trkpt lat="45.93333" lon="4.7254">
        <ele>172</ele>
        <time>2018-05-12T08:42:11Z</time>
      </trkpt>
      <trkpt lat="45.93337" lon="4.72535">
        <ele>172</ele>
        <time>2018-05-12T08:42:12Z</time>
      </trkpt>
      <trkpt lat="45.93341" lon="4.72531">
        <ele>172</ele>
        <time>2018-05-12T08:42:13Z</time>
      </trkpt>
      <trkpt lat="45.93346" lon="4.72526">
        <ele>172</ele>
        <time>2018-05-12T08:42:14Z</time>
      </trkpt>
      <trkpt lat="45.93349" lon="4.72522">
        <ele>172</ele>
        <time>2018-05-12T08:42:15Z</time>
      </trkpt>
      <trkpt lat="45.93353" lon="4.72517">
        <ele>172</ele>
        <time>2018-05-12T08:42:16Z</time>
      </trkpt>
      <trkpt lat="45.93357" lon="4.72512">
        <ele>172</ele>
        <time>2018-05-12T08:42:17Z</time>
      </trkpt>
      <trkpt lat="45.93362" lon="4.72508">
        <ele>172</ele>
        <time>2018-05-12T08:42:18Z</time>
      </trkpt>
      <trkpt lat="45.93365" lon="4.72503">
        <ele>172</ele>
        <time>2018-05-12T08:42:19Z</time>
      </trkpt>
      <trkpt lat="45.93369" lon="4.72498">
        <ele>173</ele>
        <time>2018-05-12T08:42:20Z</time>
      </trkpt>
      <trkpt lat="45.93373" lon="4.72493">
        <ele>173</ele>
        <time>2018-05-12T08:42:21Z</time>
      </trkpt>
      <trkpt lat="45.93377" lon="4.72488">
        <ele>173</ele>
        <time>2018-05-12T08:42:22Z</time>
      </trkpt>
      <trkpt lat="45.93381" lon="4.72483">
        <ele>173</ele>
        <time>2018-05-12T08:42:23Z</time>
      </trkpt>
      <trkpt lat="45.93385" lon="4.72479">
        <ele>173</ele>
        <time>2018-05-12T08:42:24Z</time>
      </trkpt>
      <trkpt lat="45.93388" lon="4.72474">
        <ele>173</ele>
        <time>2018-05-12T08:42:25Z</time>
      </trkpt>
      <trkpt lat="45.93391" lon="4.72469">
        <ele>173</ele>
        <time>2018-05-12T08:42:26Z</time>
      </trkpt>
      <trkpt lat="45.93394" lon="4.72464">
        <ele>173</ele>
        <time>2018-05-12T08:42:27Z</time>
      </trkpt>
      <trkpt lat="45.93397" lon="4.72453">
        <ele>173</ele>
        <time>2018-05-12T08:42:29Z</time>
      </trkpt>
      <trkpt lat="45.93398" lon="4.72447">
        <ele>173</ele>
        <time>2018-05-12T08:42:30Z</time>
      </trkpt>
      <trkpt lat="45.93401" lon="4.72437">
        <ele>173</ele>
        <time>2018-05-12T08:42:32Z</time>
      </trkpt>
      <trkpt lat="45.93404" lon="4.72431">
        <ele>173</ele>
        <time>2018-05-12T08:42:33Z</time>
      </trkpt>
      <trkpt lat="45.9341" lon="4.72423">
        <ele>174</ele>
        <time>2018-05-12T08:42:35Z</time>
      </trkpt>
      <trkpt lat="45.93413" lon="4.72419">
        <ele>174</ele>
        <time>2018-05-12T08:42:36Z</time>
      </trkpt>
      <trkpt lat="45.93418" lon="4.72416">
        <ele>174</ele>
        <time>2018-05-12T08:42:37Z</time>
      </trkpt>
      <trkpt lat="45.93423" lon="4.72414">
        <ele>174</ele>
        <time>2018-05-12T08:42:38Z</time>
      </trkpt>
      <trkpt lat="45.93427" lon="4.72412">
        <ele>174</ele>
        <time>2018-05-12T08:42:39Z</time>
      </trkpt>
      <trkpt lat="45.93432" lon="4.72408">
        <ele>174</ele>
        <time>2018-05-12T08:42:40Z</time>
      </trkpt>
      <trkpt lat="45.93437" lon="4.72404">
        <ele>174</ele>
        <time>2018-05-12T08:42:41Z</time>
      </trkpt>
      <trkpt lat="45.93442" lon="4.72401">
        <ele>173</ele>
        <time>2018-05-12T08:42:42Z</time>
      </trkpt>
      <trkpt lat="45.93447" lon="4.72398">
        <ele>173</ele>
        <time>2018-05-12T08:42:43Z</time>
      </trkpt>
      <trkpt lat="45.93452" lon="4.72393">
        <ele>173</ele>
        <time>2018-05-12T08:42:44Z</time>
      </trkpt>
      <trkpt lat="45.93456" lon="4.72389">
        <ele>173</ele>
        <time>2018-05-12T08:42:45Z</time>
      </trkpt>
      <trkpt lat="45.93461" lon="4.72385">
        <ele>173</ele>
        <time>2018-05-12T08:42:46Z</time>
      </trkpt>
      <trkpt lat="45.93465" lon="4.72379">
        <ele>173</ele>
        <time>2018-05-12T08:42:47Z</time>
      </trkpt>
      <trkpt lat="45.93469" lon="4.72374">
        <ele>173</ele>
        <time>2018-05-12T08:42:48Z</time>
      </trkpt>
      <trkpt lat="45.93473" lon="4.72369">
        <ele>173</ele>
        <time>2018-05-12T08:42:49Z</time>
      </trkpt>
      <trkpt lat="45.93477" lon="4.72364">
        <ele>173</ele>
        <time>2018-05-12T08:42:50Z</time>
      </trkpt>
      <trkpt lat="45.93481" lon="4.72359">
        <ele>173</ele>
        <time>2018-05-12T08:42:51Z</time>
      </trkpt>
      <trkpt lat="45.93485" lon="4.72354">
        <ele>173</ele>
        <time>2018-05-12T08:42:52Z</time>
      </trkpt>
      <trkpt lat="45.93489" lon="4.72349">
        <ele>173</ele>
        <time>2018-05-12T08:42:53Z</time>
      </trkpt>
      <trkpt lat="45.93493" lon="4.72343">
        <ele>173</ele>
        <time>2018-05-12T08:42:54Z</time>
      </trkpt>
      <trkpt lat="45.93498" lon="4.72338">
        <ele>173</ele>
        <time>2018-05-12T08:42:55Z</time>
      </trkpt>
      <trkpt lat="45.93502" lon="4.72333">
        <ele>173</ele>
        <time>2018-05-12T08:42:56Z</time>
      </trkpt>
      <trkpt lat="45.93505" lon="4.72328">
        <ele>173</ele>
        <time>2018-05-12T08:42:57Z</time>
      </trkpt>
      <trkpt lat="45.93508" lon="4.72323">
        <ele>173</ele>
        <time>2018-05-12T08:42:58Z</time>
      </trkpt>
      <trkpt lat="45.93511" lon="4.72318">
        <ele>173</ele>
        <time>2018-05-12T08:42:59Z</time>
      </trkpt>
      <trkpt lat="45.93514" lon="4.72312">
        <ele>173</ele>
        <time>2018-05-12T08:43:00Z</time>
      </trkpt>
      <trkpt lat="45.93517" lon="4.72306">
        <ele>173</ele>
        <time>2018-05-12T08:43:01Z</time>
      </trkpt>
      <trkpt lat="45.9352" lon="4.72301">
        <ele>172</ele>
        <time>2018-05-12T08:43:02Z</time>
      </trkpt>
      <trkpt lat="45.93523" lon="4.72295">
        <ele>172</ele>
        <time>2018-05-12T08:43:03Z</time>
      </trkpt>
      <trkpt lat="45.93525" lon="4.72289">
        <ele>172</ele>
        <time>2018-05-12T08:43:04Z</time>
      </trkpt>
      <trkpt lat="45.93528" lon="4.72283">
        <ele>172</ele>
        <time>2018-05-12T08:43:05Z</time>
      </trkpt>
      <trkpt lat="45.9353" lon="4.72278">
        <ele>172</ele>
        <time>2018-05-12T08:43:06Z</time>
      </trkpt>
      <trkpt lat="45.93532" lon="4.72271">
        <ele>172</ele>
        <time>2018-05-12T08:43:07Z</time>
      </trkpt>
      <trkpt lat="45.93534" lon="4.72266">
        <ele>172</ele>
        <time>2018-05-12T08:43:08Z</time>
      </trkpt>
      <trkpt lat="45.93537" lon="4.7226">
        <ele>172</ele>
        <time>2018-05-12T08:43:09Z</time>
      </trkpt>
      <trkpt lat="45.9354" lon="4.72254">
        <ele>172</ele>
        <time>2018-05-12T08:43:10Z</time>
      </trkpt>
      <trkpt lat="45.93543" lon="4.72248">
        <ele>172</ele>
        <time>2018-05-12T08:43:11Z</time>
      </trkpt>
      <trkpt lat="45.93545" lon="4.72241">
        <ele>172</ele>
        <time>2018-05-12T08:43:12Z</time>
      </trkpt>
      <trkpt lat="45.93547" lon="4.72235">
        <ele>172</ele>
        <time>2018-05-12T08:43:13Z</time>
      </trkpt>
      <trkpt lat="45.9355" lon="4.7223">
        <ele>172</ele>
        <time>2018-05-12T08:43:14Z</time>
      </trkpt>
      <trkpt lat="45.93553" lon="4.72224">
        <ele>173</ele>
        <time>2018-05-12T08:43:15Z</time>
      </trkpt>
      <trkpt lat="45.93557" lon="4.72218">
        <ele>173</ele>
        <time>2018-05-12T08:43:16Z</time>
      </trkpt>
      <trkpt lat="45.93561" lon="4.72211">
        <ele>173</ele>
        <time>2018-05-12T08:43:17Z</time>
      </trkpt>
      <trkpt lat="45.93566" lon="4.72206">
        <ele>173</ele>
        <time>2018-05-12T08:43:18Z</time>
      </trkpt>
      <trkpt lat="45.93571" lon="4.72201">
        <ele>173</ele>
        <time>2018-05-12T08:43:19Z</time>
      </trkpt>
      <trkpt lat="45.93576" lon="4.72196">
        <ele>173</ele>
        <time>2018-05-12T08:43:20Z</time>
      </trkpt>
      <trkpt lat="45.93582" lon="4.72191">
        <ele>173</ele>
        <time>2018-05-12T08:43:21Z</time>
      </trkpt>
      <trkpt lat="45.93586" lon="4.72187">
        <ele>173</ele>
        <time>2018-05-12T08:43:22Z</time>
      </trkpt>
      <trkpt lat="45.93592" lon="4.72183">
        <ele>173</ele>
        <time>2018-05-12T08:43:23Z</time>
      </trkpt>
      <trkpt lat="45.93597" lon="4.72179">
        <ele>173</ele>
        <time>2018-05-12T08:43:24Z</time>
      </trkpt>
      <trkpt lat="45.93602" lon="4.72176">
        <ele>173</ele>
        <time>2018-05-12T08:43:25Z</time>
      </trkpt>
      <trkpt lat="45.93607" lon="4.72171">
        <ele>173</ele>
        <time>2018-05-12T08:43:26Z</time>
      </trkpt>
      <trkpt lat="45.93611" lon="4.72167">
        <ele>173</ele>
        <time>2018-05-12T08:43:27Z</time>
      </trkpt>
      <trkpt lat="45.93615" lon="4.72163">
        <ele>173</ele>
        <time>2018-05-12T08:43:28Z</time>
      </trkpt>
      <trkpt lat="45.93619" lon="4.72159">
        <ele>173</ele>
        <time>2018-05-12T08:43:29Z</time>
      </trkpt>
      <trkpt lat="45.93623" lon="4.72154">
        <ele>173</ele>
        <time>2018-05-12T08:43:30Z</time>
      </trkpt>
      <trkpt lat="45.93628" lon="4.72148">
        <ele>173</ele>
        <time>2018-05-12T08:43:31Z</time>
      </trkpt>
      <trkpt lat="45.93633" lon="4.72142">
        <ele>173</ele>
        <time>2018-05-12T08:43:32Z</time>
      </trkpt>
      <trkpt lat="45.93636" lon="4.72137">
        <ele>173</ele>
        <time>2018-05-12T08:43:33Z</time>
      </trkpt>
      <trkpt lat="45.9364" lon="4.72131">
        <ele>173</ele>
        <time>2018-05-12T08:43:34Z</time>
      </trkpt>
      <trkpt lat="45.93643" lon="4.72126">
        <ele>173</ele>
        <time>2018-05-12T08:43:35Z</time>
      </trkpt>
      <trkpt lat="45.93646" lon="4.7212">
        <ele>173</ele>
        <time>2018-05-12T08:43:36Z</time>
      </trkpt>
      <trkpt lat="45.93649" lon="4.72115">
        <ele>173</ele>
        <time>2018-05-12T08:43:37Z</time>
      </trkpt>
      <trkpt lat="45.93652" lon="4.7211">
        <ele>173</ele>
        <time>2018-05-12T08:43:38Z</time>
      </trkpt>
      <trkpt lat="45.93655" lon="4.72104">
        <ele>173</ele>
        <time>2018-05-12T08:43:39Z</time>
      </trkpt>
      <trkpt lat="45.93661" lon="4.72099">
        <ele>173</ele>
        <time>2018-05-12T08:43:40Z</time>
      </trkpt>
      <trkpt lat="45.93665" lon="4.72092">
        <ele>172</ele>
        <time>2018-05-12T08:43:41Z</time>
      </trkpt>
      <trkpt lat="45.93668" lon="4.72087">
        <ele>172</ele>
        <time>2018-05-12T08:43:42Z</time>
      </trkpt>
      <trkpt lat="45.93672" lon="4.72081">
        <ele>172</ele>
        <time>2018-05-12T08:43:43Z</time>
      </trkpt>
      <trkpt lat="45.93675" lon="4.72077">
        <ele>172</ele>
        <time>2018-05-12T08:43:44Z</time>
      </trkpt>
      <trkpt lat="45.93679" lon="4.72071">
        <ele>172</ele>
        <time>2018-05-12T08:43:45Z</time>
      </trkpt>
      <trkpt lat="45.93683" lon="4.72065">
        <ele>172</ele>
        <time>2018-05-12T08:43:46Z</time>
      </trkpt>
      <trkpt lat="45.93686" lon="4.72059">
        <ele>172</ele>
        <time>2018-05-12T08:43:47Z</time>
      </trkpt>
      <trkpt lat="45.93689" lon="4.72052">
        <ele>172</ele>
        <time>2018-05-12T08:43:48Z</time>
      </trkpt>
      <trkpt lat="45.93692" lon="4.72046">
        <ele>172</ele>
        <time>2018-05-12T08:43:49Z</time>
      </trkpt>
      <trkpt lat="45.93694" lon="4.7204">
        <ele>172</ele>
        <time>2018-05-12T08:43:50Z</time>
      </trkpt>
      <trkpt lat="45.93697" lon="4.72033">
        <ele>172</ele>
        <time>2018-05-12T08:43:51Z</time>
      </trkpt>
      <trkpt lat="45.93701" lon="4.72027">
        <ele>172</ele>
        <time>2018-05-12T08:43:52Z</time>
      </trkpt>
      <trkpt lat="45.93704" lon="4.7202">
        <ele>172</ele>
        <time>2018-05-12T08:43:53Z</time>
      </trkpt>
      <trkpt lat="45.93707" lon="4.72014">
        <ele>172</ele>
        <time>2018-05-12T08:43:54Z</time>
      </trkpt>
      <trkpt lat="45.93711" lon="4.72007">
        <ele>172</ele>
        <time>2018-05-12T08:43:55Z</time>
      </trkpt>
      <trkpt lat="45.93715" lon="4.72001">
        <ele>172</ele>
        <time>2018-05-12T08:43:56Z</time>
      </trkpt>
      <trkpt lat="45.93718" lon="4.71995">
        <ele>172</ele>
        <time>2018-05-12T08:43:57Z</time>
      </trkpt>
      <trkpt lat="45.93722" lon="4.71987">
        <ele>172</ele>
        <time>2018-05-12T08:43:58Z</time>
      </trkpt>
      <trkpt lat="45.93726" lon="4.7198">
        <ele>172</ele>
        <time>2018-05-12T08:43:59Z</time>
      </trkpt>
      <trkpt lat="45.93729" lon="4.71972">
        <ele>172</ele>
        <time>2018-05-12T08:44:00Z</time>
      </trkpt>
      <trkpt lat="45.93733" lon="4.71967">
        <ele>172</ele>
        <time>2018-05-12T08:44:01Z</time>
      </trkpt>
      <trkpt lat="45.93738" lon="4.71962">
        <ele>172</ele>
        <time>2018-05-12T08:44:02Z</time>
      </trkpt>
      <trkpt lat="45.93743" lon="4.71959">
        <ele>172</ele>
        <time>2018-05-12T08:44:03Z</time>
      </trkpt>
      <trkpt lat="45.93747" lon="4.71955">
        <ele>172</ele>
        <time>2018-05-12T08:44:04Z</time>
      </trkpt>
      <trkpt lat="45.93753" lon="4.71951">
        <ele>171</ele>
        <time>2018-05-12T08:44:05Z</time>
      </trkpt>
      <trkpt lat="45.93757" lon="4.71946">
        <ele>171</ele>
        <time>2018-05-12T08:44:06Z</time>
      </trkpt>
      <trkpt lat="45.9376" lon="4.71942">
        <ele>171</ele>
        <time>2018-05-12T08:44:07Z</time>
      </trkpt>
      <trkpt lat="45.93764" lon="4.71937">
        <ele>171</ele>
        <time>2018-05-12T08:44:08Z</time>
      </trkpt>
      <trkpt lat="45.93768" lon="4.71933">
        <ele>171</ele>
        <time>2018-05-12T08:44:09Z</time>
      </trkpt>
      <trkpt lat="45.93773" lon="4.71931">
        <ele>171</ele>
        <time>2018-05-12T08:44:10Z</time>
      </trkpt>
      <trkpt lat="45.9378" lon="4.71938">
        <ele>171</ele>
        <time>2018-05-12T08:44:12Z</time>
      </trkpt>
      <trkpt lat="45.93784" lon="4.71942">
        <ele>171</ele>
        <time>2018-05-12T08:44:13Z</time>
      </trkpt>
      <trkpt lat="45.93786" lon="4.71947">
        <ele>171</ele>
        <time>2018-05-12T08:44:14Z</time>
      </trkpt>
      <trkpt lat="45.93791" lon="4.71952">
        <ele>171</ele>
        <time>2018-05-12T08:44:15Z</time>
      </trkpt>
      <trkpt lat="45.93799" lon="4.71956">
        <ele>170</ele>
        <time>2018-05-12T08:44:17Z</time>
      </trkpt>
      <trkpt lat="45.93803" lon="4.71956">
        <ele>170</ele>
        <time>2018-05-12T08:44:18Z</time>
      </trkpt>
      <trkpt lat="45.93808" lon="4.71957">
        <ele>170</ele>
        <time>2018-05-12T08:44:19Z</time>
      </trkpt>
      <trkpt lat="45.93815" lon="4.71957">
        <ele>170</ele>
        <time>2018-05-12T08:44:20Z</time>
      </trkpt>
      <trkpt lat="45.93821" lon="4.71958">
        <ele>170</ele>
        <time>2018-05-12T08:44:21Z</time>
      </trkpt>
      <trkpt lat="45.93825" lon="4.71959">
        <ele>170</ele>
        <time>2018-05-12T08:44:22Z</time>
      </trkpt>
      <trkpt lat="45.9383" lon="4.71959">
        <ele>170</ele>
        <time>2018-05-12T08:44:23Z</time>
      </trkpt>
      <trkpt lat="45.93836" lon="4.7196">
        <ele>170</ele>
        <time>2018-05-12T08:44:24Z</time>
      </trkpt>
      <trkpt lat="45.9384" lon="4.71959">
        <ele>170</ele>
        <time>2018-05-12T08:44:25Z</time>
      </trkpt>
      <trkpt lat="45.93845" lon="4.71957">
        <ele>170</ele>
        <time>2018-05-12T08:44:26Z</time>
      </trkpt>
      <trkpt lat="45.93853" lon="4.71952">
        <ele>170</ele>
        <time>2018-05-12T08:44:28Z</time>
      </trkpt>
      <trkpt lat="45.93858" lon="4.71951">
        <ele>170</ele>
        <time>2018-05-12T08:44:29Z</time>
      </trkpt>
      <trkpt lat="45.93866" lon="4.71947">
        <ele>170</ele>
        <time>2018-05-12T08:44:31Z</time>
      </trkpt>
      <trkpt lat="45.9387" lon="4.71945">
        <ele>170</ele>
        <time>2018-05-12T08:44:32Z</time>
      </trkpt>
      <trkpt lat="45.93878" lon="4.7194">
        <ele>170</ele>
        <time>2018-05-12T08:44:34Z</time>
      </trkpt>
      <trkpt lat="45.93882" lon="4.71936">
        <ele>170</ele>
        <time>2018-05-12T08:44:35Z</time>
      </trkpt>
      <trkpt lat="45.93886" lon="4.71933">
        <ele>171</ele>
        <time>2018-05-12T08:44:36Z</time>
      </trkpt>
      <trkpt lat="45.93889" lon="4.71929">
        <ele>171</ele>
        <time>2018-05-12T08:44:37Z</time>
      </trkpt>
      <trkpt lat="45.93898" lon="4.71927">
        <ele>171</ele>
        <time>2018-05-12T08:44:40Z</time>
      </trkpt>
      <trkpt lat="45.93903" lon="4.71931">
        <ele>171</ele>
        <time>2018-05-12T08:44:41Z</time>
      </trkpt>
      <trkpt lat="45.93909" lon="4.71941">
        <ele>171</ele>
        <time>2018-05-12T08:44:44Z</time>
      </trkpt>
      <trkpt lat="45.9391" lon="4.71943">
        <ele>171</ele>
        <time>2018-05-12T08:44:45Z</time>
      </trkpt>
      <trkpt lat="45.93914" lon="4.71952">
        <ele>171</ele>
        <time>2018-05-12T08:44:48Z</time>
      </trkpt>
      <trkpt lat="45.93916" lon="4.71955">
        <ele>171</ele>
        <time>2018-05-12T08:44:49Z</time>
      </trkpt>
      <trkpt lat="45.93924" lon="4.71959">
        <ele>172</ele>
        <time>2018-05-12T08:44:52Z</time>
      </trkpt>
      <trkpt lat="45.93931" lon="4.71953">
        <ele>172</ele>
        <time>2018-05-12T08:44:53Z</time>
      </trkpt>
      <trkpt lat="45.93934" lon="4.71948">
        <ele>172</ele>
        <time>2018-05-12T08:44:54Z</time>
      </trkpt>
      <trkpt lat="45.93936" lon="4.7194">
        <ele>172</ele>
        <time>2018-05-12T08:44:55Z</time>
      </trkpt>
      <trkpt lat="45.9394" lon="4.71935">
        <ele>172</ele>
        <time>2018-05-12T08:44:56Z</time>
      </trkpt>
      <trkpt lat="45.93943" lon="4.7193">
        <ele>172</ele>
        <time>2018-05-12T08:44:57Z</time>
      </trkpt>
      <trkpt lat="45.93947" lon="4.71925">
        <ele>172</ele>
        <time>2018-05-12T08:44:58Z</time>
      </trkpt>
      <trkpt lat="45.9395" lon="4.7192">
        <ele>172</ele>
        <time>2018-05-12T08:44:59Z</time>
      </trkpt>
      <trkpt lat="45.93954" lon="4.71915">
        <ele>172</ele>
        <time>2018-05-12T08:45:00Z</time>
      </trkpt>
      <trkpt lat="45.93958" lon="4.71909">
        <ele>172</ele>
        <time>2018-05-12T08:45:01Z</time>
      </trkpt>
      <trkpt lat="45.93961" lon="4.71904">
        <ele>172</ele>
        <time>2018-05-12T08:45:02Z</time>
      </trkpt>
      <trkpt lat="45.93964" lon="4.71898">
        <ele>172</ele>
        <time>2018-05-12T08:45:03Z</time>
      </trkpt>
      <trkpt lat="45.93967" lon="4.71892">
        <ele>172</ele>
        <time>2018-05-12T08:45:04Z</time>
      </trkpt>
      <trkpt lat="45.9397" lon="4.71887">
        <ele>172</ele>
        <time>2018-05-12T08:45:05Z</time>
      </trkpt>
      <trkpt lat="45.93974" lon="4.71881">
        <ele>172</ele>
        <time>2018-05-12T08:45:06Z</time>
      </trkpt>
      <trkpt lat="45.93977" lon="4.71874">
        <ele>172</ele>
        <time>2018-05-12T08:45:07Z</time>
      </trkpt>
      <trkpt lat="45.9398" lon="4.71867">
        <ele>172</ele>
        <time>2018-05-12T08:45:08Z</time>
      </trkpt>
      <trkpt lat="45.93983" lon="4.71859">
        <ele>172</ele>
        <time>2018-05-12T08:45:09Z</time>
      </trkpt>
      <trkpt lat="45.93985" lon="4.71852">
        <ele>172</ele>
        <time>2018-05-12T08:45:10Z</time>
      </trkpt>
      <trkpt lat="45.93988" lon="4.71844">
        <ele>172</ele>
        <time>2018-05-12T08:45:11Z</time>
      </trkpt>
      <trkpt lat="45.9399" lon="4.71836">
        <ele>172</ele>
        <time>2018-05-12T08:45:12Z</time>
      </trkpt>
      <trkpt lat="45.93992" lon="4.71829">
        <ele>172</ele>
        <time>2018-05-12T08:45:13Z</time>
      </trkpt>
      <trkpt lat="45.93994" lon="4.71821">
        <ele>172</ele>
        <time>2018-05-12T08:45:14Z</time>
      </trkpt>
      <trkpt lat="45.93996" lon="4.71812">
        <ele>172</ele>
        <time>2018-05-12T08:45:15Z</time>
      </trkpt>
      <trkpt lat="45.93998" lon="4.71803">
        <ele>172</ele>
        <time>2018-05-12T08:45:16Z</time>
      </trkpt>
      <trkpt lat="45.93999" lon="4.71795">
        <ele>172</ele>
        <time>2018-05-12T08:45:17Z</time>
      </trkpt>
      <trkpt lat="45.94001" lon="4.71787">
        <ele>173</ele>
        <time>2018-05-12T08:45:18Z</time>
      </trkpt>
      <trkpt lat="45.94001" lon="4.71779">
        <ele>173</ele>
        <time>2018-05-12T08:45:19Z</time>
      </trkpt>
      <trkpt lat="45.94001" lon="4.71771">
        <ele>173</ele>
        <time>2018-05-12T08:45:20Z</time>
      </trkpt>
      <trkpt lat="45.94001" lon="4.71763">
        <ele>174</ele>
        <time>2018-05-12T08:45:21Z</time>
      </trkpt>
      <trkpt lat="45.94001" lon="4.71755">
        <ele>174</ele>
        <time>2018-05-12T08:45:22Z</time>
      </trkpt>
      <trkpt lat="45.94002" lon="4.71746">
        <ele>174</ele>
        <time>2018-05-12T08:45:23Z</time>
      </trkpt>
      <trkpt lat="45.94002" lon="4.7174">
        <ele>174</ele>
        <time>2018-05-12T08:45:24Z</time>
      </trkpt>
      <trkpt lat="45.94005" lon="4.71734">
        <ele>174</ele>
        <time>2018-05-12T08:45:25Z</time>
      </trkpt>
      <trkpt lat="45.94011" lon="4.7173">
        <ele>174</ele>
        <time>2018-05-12T08:45:27Z</time>
      </trkpt>
      <trkpt lat="45.94017" lon="4.71727">
        <ele>174</ele>
        <time>2018-05-12T08:45:28Z</time>
      </trkpt>
      <trkpt lat="45.94023" lon="4.71725">
        <ele>174</ele>
        <time>2018-05-12T08:45:30Z</time>
      </trkpt>
      <trkpt lat="45.94029" lon="4.71726">
        <ele>174</ele>
        <time>2018-05-12T08:45:31Z</time>
      </trkpt>
      <trkpt lat="45.94034" lon="4.71729">
        <ele>174</ele>
        <time>2018-05-12T08:45:32Z</time>
      </trkpt>
      <trkpt lat="45.94036" lon="4.71734">
        <ele>174</ele>
        <time>2018-05-12T08:45:33Z</time>
      </trkpt>
      <trkpt lat="45.94038" lon="4.71741">
        <ele>174</ele>
        <time>2018-05-12T08:45:34Z</time>
      </trkpt>
      <trkpt lat="45.94041" lon="4.71748">
        <ele>174</ele>
        <time>2018-05-12T08:45:35Z</time>
      </trkpt>
      <trkpt lat="45.94044" lon="4.71756">
        <ele>173</ele>
        <time>2018-05-12T08:45:36Z</time>
      </trkpt>
      <trkpt lat="45.94048" lon="4.71764">
        <ele>173</ele>
        <time>2018-05-12T08:45:37Z</time>
      </trkpt>
      <trkpt lat="45.94051" lon="4.71771">
        <ele>173</ele>
        <time>2018-05-12T08:45:38Z</time>
      </trkpt>
      <trkpt lat="45.94053" lon="4.7178">
        <ele>173</ele>
        <time>2018-05-12T08:45:39Z</time>
      </trkpt>
      <trkpt lat="45.94056" lon="4.71788">
        <ele>173</ele>
        <time>2018-05-12T08:45:40Z</time>
      </trkpt>
      <trkpt lat="45.94059" lon="4.71795">
        <ele>173</ele>
        <time>2018-05-12T08:45:41Z</time>
      </trkpt>
      <trkpt lat="45.94063" lon="4.71803">
        <ele>173</ele>
        <time>2018-05-12T08:45:42Z</time>
      </trkpt>
      <trkpt lat="45.94066" lon="4.7181">
        <ele>173</ele>
        <time>2018-05-12T08:45:43Z</time>
      </trkpt>
      <trkpt lat="45.94069" lon="4.71817">
        <ele>173</ele>
        <time>2018-05-12T08:45:44Z</time>
      </trkpt>
      <trkpt lat="45.94073" lon="4.71825">
        <ele>173</ele>
        <time>2018-05-12T08:45:45Z</time>
      </trkpt>
      <trkpt lat="45.94078" lon="4.71833">
        <ele>173</ele>
        <time>2018-05-12T08:45:46Z</time>
      </trkpt>
      <trkpt lat="45.94083" lon="4.7184">
        <ele>173</ele>
        <time>2018-05-12T08:45:47Z</time>
      </trkpt>
      <trkpt lat="45.94086" lon="4.71848">
        <ele>173</ele>
        <time>2018-05-12T08:45:49Z</time>
      </trkpt>
      <trkpt lat="45.94089" lon="4.71862">
        <ele>173</ele>
        <time>2018-05-12T08:45:50Z</time>
      </trkpt>
      <trkpt lat="45.94091" lon="4.71869">
        <ele>173</ele>
        <time>2018-05-12T08:45:51Z</time>
      </trkpt>
      <trkpt lat="45.94094" lon="4.71876">
        <ele>173</ele>
        <time>2018-05-12T08:45:52Z</time>
      </trkpt>
      <trkpt lat="45.94096" lon="4.71882">
        <ele>173</ele>
        <time>2018-05-12T08:45:53Z</time>
      </trkpt>
      <trkpt lat="45.94099" lon="4.71889">
        <ele>173</ele>
        <time>2018-05-12T08:45:54Z</time>
      </trkpt>
      <trkpt lat="45.94102" lon="4.71895">
        <ele>173</ele>
        <time>2018-05-12T08:45:55Z</time>
      </trkpt>
      <trkpt lat="45.94105" lon="4.71902">
        <ele>174</ele>
        <time>2018-05-12T08:45:56Z</time>
      </trkpt>
      <trkpt lat="45.9411" lon="4.71912">
        <ele>173</ele>
        <time>2018-05-12T08:45:58Z</time>
      </trkpt>
      <trkpt lat="45.94113" lon="4.71918">
        <ele>174</ele>
        <time>2018-05-12T08:45:59Z</time>
      </trkpt>
      <trkpt lat="45.94114" lon="4.71928">
        <ele>174</ele>
        <time>2018-05-12T08:46:01Z</time>
      </trkpt>
      <trkpt lat="45.94113" lon="4.71934">
        <ele>174</ele>
        <time>2018-05-12T08:46:02Z</time>
      </trkpt>
      <trkpt lat="45.94112" lon="4.71947">
        <ele>174</ele>
        <time>2018-05-12T08:46:04Z</time>
      </trkpt>
      <trkpt lat="45.9411" lon="4.71952">
        <ele>174</ele>
        <time>2018-05-12T08:46:05Z</time>
      </trkpt>
      <trkpt lat="45.94106" lon="4.7196">
        <ele>174</ele>
        <time>2018-05-12T08:46:07Z</time>
      </trkpt>
      <trkpt lat="45.94104" lon="4.71966">
        <ele>174</ele>
        <time>2018-05-12T08:46:08Z</time>
      </trkpt>
      <trkpt lat="45.94099" lon="4.71975">
        <ele>174</ele>
        <time>2018-05-12T08:46:10Z</time>
      </trkpt>
      <trkpt lat="45.94095" lon="4.71979">
        <ele>174</ele>
        <time>2018-05-12T08:46:11Z</time>
      </trkpt>
      <trkpt lat="45.94092" lon="4.71984">
        <ele>174</ele>
        <time>2018-05-12T08:46:12Z</time>
      </trkpt>
      <trkpt lat="45.94089" lon="4.71988">
        <ele>175</ele>
        <time>2018-05-12T08:46:13Z</time>
      </trkpt>
      <trkpt lat="45.94082" lon="4.71996">
        <ele>175</ele>
        <time>2018-05-12T08:46:15Z</time>
      </trkpt>
      <trkpt lat="45.94079" lon="4.72">
        <ele>175</ele>
        <time>2018-05-12T08:46:16Z</time>
      </trkpt>
      <trkpt lat="45.94072" lon="4.72008">
        <ele>174</ele>
        <time>2018-05-12T08:46:18Z</time>
      </trkpt>
      <trkpt lat="45.94068" lon="4.72012">
        <ele>174</ele>
        <time>2018-05-12T08:46:19Z</time>
      </trkpt>
      <trkpt lat="45.94062" lon="4.72019">
        <ele>174</ele>
        <time>2018-05-12T08:46:21Z</time>
      </trkpt>
      <trkpt lat="45.94059" lon="4.72024">
        <ele>174</ele>
        <time>2018-05-12T08:46:22Z</time>
      </trkpt>
      <trkpt lat="45.94052" lon="4.72032">
        <ele>173</ele>
        <time>2018-05-12T08:46:24Z</time>
      </trkpt>
      <trkpt lat="45.94048" lon="4.72037">
        <ele>173</ele>
        <time>2018-05-12T08:46:25Z</time>
      </trkpt>
      <trkpt lat="45.94045" lon="4.7204">
        <ele>173</ele>
        <time>2018-05-12T08:46:26Z</time>
      </trkpt>
      <trkpt lat="45.94041" lon="4.72044">
        <ele>173</ele>
        <time>2018-05-12T08:46:27Z</time>
      </trkpt>
      <trkpt lat="45.94037" lon="4.72048">
        <ele>173</ele>
        <time>2018-05-12T08:46:28Z</time>
      </trkpt>
      <trkpt lat="45.94033" lon="4.72053">
        <ele>173</ele>
        <time>2018-05-12T08:46:29Z</time>
      </trkpt>
      <trkpt lat="45.94029" lon="4.72058">
        <ele>173</ele>
        <time>2018-05-12T08:46:30Z</time>
      </trkpt>
      <trkpt lat="45.94024" lon="4.72062">
        <ele>173</ele>
        <time>2018-05-12T08:46:31Z</time>
      </trkpt>
      <trkpt lat="45.9402" lon="4.72067">
        <ele>173</ele>
        <time>2018-05-12T08:46:32Z</time>
      </trkpt>
      <trkpt lat="45.94016" lon="4.72071">
        <ele>173</ele>
        <time>2018-05-12T08:46:33Z</time>
      </trkpt>
      <trkpt lat="45.94009" lon="4.72078">
        <ele>172</ele>
        <time>2018-05-12T08:46:35Z</time>
      </trkpt>
      <trkpt lat="45.94007" lon="4.72081">
        <ele>172</ele>
        <time>2018-05-12T08:46:36Z</time>
      </trkpt>
      <trkpt lat="45.94004" lon="4.72085">
        <ele>172</ele>
        <time>2018-05-12T08:46:37Z</time>
      </trkpt>
      <trkpt lat="45.94" lon="4.7209">
        <ele>172</ele>
        <time>2018-05-12T08:46:38Z</time>
      </trkpt>
      <trkpt lat="45.93995" lon="4.72094">
        <ele>172</ele>
        <time>2018-05-12T08:46:39Z</time>
      </trkpt>
      <trkpt lat="45.93992" lon="4.72099">
        <ele>172</ele>
        <time>2018-05-12T08:46:40Z</time>
      </trkpt>
      <trkpt lat="45.93987" lon="4.72108">
        <ele>172</ele>
        <time>2018-05-12T08:46:42Z</time>
      </trkpt>
      <trkpt lat="45.93984" lon="4.72112">
        <ele>172</ele>
        <time>2018-05-12T08:46:43Z</time>
      </trkpt>
      <trkpt lat="45.9398" lon="4.72122">
        <ele>172</ele>
        <time>2018-05-12T08:46:45Z</time>
      </trkpt>
      <trkpt lat="45.9398" lon="4.72125">
        <ele>172</ele>
        <time>2018-05-12T08:46:46Z</time>
      </trkpt>
      <trkpt lat="45.93981" lon="4.72135">
        <ele>172</ele>
        <time>2018-05-12T08:46:49Z</time>
      </trkpt>
      <trkpt lat="45.93985" lon="4.72145">
        <ele>172</ele>
        <time>2018-05-12T08:46:50Z</time>
      </trkpt>
      <trkpt lat="45.9399" lon="4.72154">
        <ele>172</ele>
        <time>2018-05-12T08:46:52Z</time>
      </trkpt>
      <trkpt lat="45.93993" lon="4.72159">
        <ele>172</ele>
        <time>2018-05-12T08:46:53Z</time>
      </trkpt>
      <trkpt lat="45.93996" lon="4.72164">
        <ele>172</ele>
        <time>2018-05-12T08:46:54Z</time>
      </trkpt>
      <trkpt lat="45.94" lon="4.7217">
        <ele>172</ele>
        <time>2018-05-12T08:46:55Z</time>
      </trkpt>
      <trkpt lat="45.94005" lon="4.7218">
        <ele>172</ele>
        <time>2018-05-12T08:46:57Z</time>
      </trkpt>
      <trkpt lat="45.94009" lon="4.72185">
        <ele>172</ele>
        <time>2018-05-12T08:46:58Z</time>
      </trkpt>
      <trkpt lat="45.94012" lon="4.72195">
        <ele>171</ele>
        <time>2018-05-12T08:47:02Z</time>
      </trkpt>
      <trkpt lat="45.94012" lon="4.72197">
        <ele>171</ele>
        <time>2018-05-12T08:47:03Z</time>
      </trkpt>
      <trkpt lat="45.94014" lon="4.72209">
        <ele>171</ele>
        <time>2018-05-12T08:49:22Z</time>
      </trkpt>
      <trkpt lat="45.94014" lon="4.72209">
        <ele>171</ele>
        <time>2018-05-12T08:49:23Z</time>
      </trkpt>
      <trkpt lat="45.94018" lon="4.72211">
        <ele>171</ele>
        <time>2018-05-12T08:51:02Z</time>
      </trkpt>
      <trkpt lat="45.94018" lon="4.7221">
        <ele>171</ele>
        <time>2018-05-12T08:51:03Z</time>
      </trkpt>
      <trkpt lat="45.94016" lon="4.72207">
        <ele>171</ele>
        <time>2018-05-12T08:51:10Z</time>
      </trkpt>
      <trkpt lat="45.94016" lon="4.72206">
        <ele>171</ele>
        <time>2018-05-12T08:51:11Z</time>
      </trkpt>
      <trkpt lat="45.94016" lon="4.72206">
        <ele>171</ele>
        <time>2018-05-12T08:51:12Z</time>
      </trkpt>
      <trkpt lat="45.94016" lon="4.72206">
        <ele>171</ele>
        <time>2018-05-12T08:51:13Z</time>
      </trkpt>
      <trkpt lat="45.9401" lon="4.72196">
        <ele>171</ele>
        <time>2018-05-12T08:51:36Z</time>
      </trkpt>
      <trkpt lat="45.94009" lon="4.72193">
        <ele>171</ele>
        <time>2018-05-12T08:51:37Z</time>
      </trkpt>
      <trkpt lat="45.94004" lon="4.72185">
        <ele>172</ele>
        <time>2018-05-12T08:51:40Z</time>
      </trkpt>
      <trkpt lat="45.94003" lon="4.72182">
        <ele>172</ele>
        <time>2018-05-12T08:51:41Z</time>
      </trkpt>
      <trkpt lat="45.93998" lon="4.72174">
        <ele>172</ele>
        <time>2018-05-12T08:51:44Z</time>
      </trkpt>
      <trkpt lat="45.93996" lon="4.72171">
        <ele>172</ele>
        <time>2018-05-12T08:51:45Z</time>
      </trkpt>
      <trkpt lat="45.93994" lon="4.72167">
        <ele>172</ele>
        <time>2018-05-12T08:51:46Z</time>
      </trkpt>
      <trkpt lat="45.93988" lon="4.72157">
        <ele>172</ele>
        <time>2018-05-12T08:51:47Z</time>
      </trkpt>
      <trkpt lat="45.93985" lon="4.72152">
        <ele>172</ele>
        <time>2018-05-12T08:51:49Z</time>
      </trkpt>
      <trkpt lat="45.93981" lon="4.72144">
        <ele>172</ele>
        <time>2018-05-12T08:51:50Z</time>
      </trkpt>
      <trkpt lat="45.9398" lon="4.72134">
        <ele>172</ele>
        <time>2018-05-12T08:51:52Z</time>
      </trkpt>
      <trkpt lat="45.93984" lon="4.72127">
        <ele>172</ele>
        <time>2018-05-12T08:51:53Z</time>
      </trkpt>
      <trkpt lat="45.9399" lon="4.72119">
        <ele>172</ele>
        <time>2018-05-12T08:51:55Z</time>
      </trkpt>
      <trkpt lat="45.93994" lon="4.72115">
        <ele>172</ele>
        <time>2018-05-12T08:51:56Z</time>
      </trkpt>
      <trkpt lat="45.93999" lon="4.72108">
        <ele>172</ele>
        <time>2018-05-12T08:51:58Z</time>
      </trkpt>
      <trkpt lat="45.94002" lon="4.72103">
        <ele>172</ele>
        <time>2018-05-12T08:51:59Z</time>
      </trkpt>
      <trkpt lat="45.94006" lon="4.72098">
        <ele>172</ele>
        <time>2018-05-12T08:52:00Z</time>
      </trkpt>
      <trkpt lat="45.94009" lon="4.72094">
        <ele>172</ele>
        <time>2018-05-12T08:52:01Z</time>
      </trkpt>
      <trkpt lat="45.94016" lon="4.72086">
        <ele>172</ele>
        <time>2018-05-12T08:52:03Z</time>
      </trkpt>
      <trkpt lat="45.9402" lon="4.72081">
        <ele>173</ele>
        <time>2018-05-12T08:52:04Z</time>
      </trkpt>
      <trkpt lat="45.94024" lon="4.72077">
        <ele>173</ele>
        <time>2018-05-12T08:52:05Z</time>
      </trkpt>
      <trkpt lat="45.94028" lon="4.72073">
        <ele>173</ele>
        <time>2018-05-12T08:52:06Z</time>
      </trkpt>
      <trkpt lat="45.94031" lon="4.72068">
        <ele>173</ele>
        <time>2018-05-12T08:52:07Z</time>
      </trkpt>
      <trkpt lat="45.94035" lon="4.72063">
        <ele>173</ele>
        <time>2018-05-12T08:52:08Z</time>
      </trkpt>
      <trkpt lat="45.9404" lon="4.72058">
        <ele>173</ele>
        <time>2018-05-12T08:52:09Z</time>
      </trkpt>
      <trkpt lat="45.94043" lon="4.72053">
        <ele>173</ele>
        <time>2018-05-12T08:52:10Z</time>
      </trkpt>
      <trkpt lat="45.94047" lon="4.72049">
        <ele>173</ele>
        <time>2018-05-12T08:52:11Z</time>
      </trkpt>
      <trkpt lat="45.9405" lon="4.72044">
        <ele>173</ele>
        <time>2018-05-12T08:52:12Z</time>
      </trkpt>
      <trkpt lat="45.94054" lon="4.7204">
        <ele>173</ele>
        <time>2018-05-12T08:52:13Z</time>
      </trkpt>
      <trkpt lat="45.94058" lon="4.72034">
        <ele>173</ele>
        <time>2018-05-12T08:52:14Z</time>
      </trkpt>
      <trkpt lat="45.94065" lon="4.72027">
        <ele>174</ele>
        <time>2018-05-12T08:52:16Z</time>
      </trkpt>
      <trkpt lat="45.94068" lon="4.72023">
        <ele>174</ele>
        <time>2018-05-12T08:52:17Z</time>
      </trkpt>
      <trkpt lat="45.94073" lon="4.72016">
        <ele>174</ele>
        <time>2018-05-12T08:52:18Z</time>
      </trkpt>
      <trkpt lat="45.94077" lon="4.72011">
        <ele>174</ele>
        <time>2018-05-12T08:52:19Z</time>
      </trkpt>
      <trkpt lat="45.9408" lon="4.72007">
        <ele>175</ele>
        <time>2018-05-12T08:52:20Z</time>
      </trkpt>
      <trkpt lat="45.94084" lon="4.72001">
        <ele>175</ele>
        <time>2018-05-12T08:52:21Z</time>
      </trkpt>
      <trkpt lat="45.94087" lon="4.71994">
        <ele>175</ele>
        <time>2018-05-12T08:52:22Z</time>
      </trkpt>
      <trkpt lat="45.94091" lon="4.71989">
        <ele>174</ele>
        <time>2018-05-12T08:52:23Z</time>
      </trkpt>
      <trkpt lat="45.94096" lon="4.71984">
        <ele>174</ele>
        <time>2018-05-12T08:52:24Z</time>
      </trkpt>
      <trkpt lat="45.94099" lon="4.7198">
        <ele>174</ele>
        <time>2018-05-12T08:52:25Z</time>
      </trkpt>
      <trkpt lat="45.94102" lon="4.71977">
        <ele>174</ele>
        <time>2018-05-12T08:52:26Z</time>
      </trkpt>
      <trkpt lat="45.94108" lon="4.71972">
        <ele>174</ele>
        <time>2018-05-12T08:52:27Z</time>
      </trkpt>
      <trkpt lat="45.94115" lon="4.71968">
        <ele>174</ele>
        <time>2018-05-12T08:52:29Z</time>
      </trkpt>
      <trkpt lat="45.94118" lon="4.71967">
        <ele>174</ele>
        <time>2018-05-12T08:52:30Z</time>
      </trkpt>
      <trkpt lat="45.94123" lon="4.71967">
        <ele>174</ele>
        <time>2018-05-12T08:52:31Z</time>
      </trkpt>
      <trkpt lat="45.94127" lon="4.71969">
        <ele>174</ele>
        <time>2018-05-12T08:52:32Z</time>
      </trkpt>
      <trkpt lat="45.94132" lon="4.7197">
        <ele>174</ele>
        <time>2018-05-12T08:52:33Z</time>
      </trkpt>
      <trkpt lat="45.94137" lon="4.71973">
        <ele>174</ele>
        <time>2018-05-12T08:52:34Z</time>
      </trkpt>
      <trkpt lat="45.94143" lon="4.71981">
        <ele>174</ele>
        <time>2018-05-12T08:52:36Z</time>
      </trkpt>
      <trkpt lat="45.94145" lon="4.71987">
        <ele>173</ele>
        <time>2018-05-12T08:52:37Z</time>
      </trkpt>
      <trkpt lat="45.94149" lon="4.71996">
        <ele>173</ele>
        <time>2018-05-12T08:52:40Z</time>
      </trkpt>
      <trkpt lat="45.9415" lon="4.71998">
        <ele>173</ele>
        <time>2018-05-12T08:52:41Z</time>
      </trkpt>
      <trkpt lat="45.94154" lon="4.72008">
        <ele>173</ele>
        <time>2018-05-12T08:52:44Z</time>
      </trkpt>
      <trkpt lat="45.94155" lon="4.72012">
        <ele>173</ele>
        <time>2018-05-12T08:52:45Z</time>
      </trkpt>
      <trkpt lat="45.9416" lon="4.72022">
        <ele>173</ele>
        <time>2018-05-12T08:52:46Z</time>
      </trkpt>
      <trkpt lat="45.94163" lon="4.72026">
        <ele>173</ele>
        <time>2018-05-12T08:52:47Z</time>
      </trkpt>
      <trkpt lat="45.94167" lon="4.72035">
        <ele>173</ele>
        <time>2018-05-12T08:52:49Z</time>
      </trkpt>
      <trkpt lat="45.94169" lon="4.72039">
        <ele>173</ele>
        <time>2018-05-12T08:52:50Z</time>
      </trkpt>
      <trkpt lat="45.94173" lon="4.72045">
        <ele>173</ele>
        <time>2018-05-12T08:52:52Z</time>
      </trkpt>
      <trkpt lat="45.94176" lon="4.72051">
        <ele>173</ele>
        <time>2018-05-12T08:52:53Z</time>
      </trkpt>
      <trkpt lat="45.9418" lon="4.7206">
        <ele>173</ele>
        <time>2018-05-12T08:52:55Z</time>
      </trkpt>
      <trkpt lat="45.94182" lon="4.72065">
        <ele>173</ele>
        <time>2018-05-12T08:52:56Z</time>
      </trkpt>
      <trkpt lat="45.94185" lon="4.72071">
        <ele>173</ele>
        <time>2018-05-12T08:52:57Z</time>
      </trkpt>
      <trkpt lat="45.94187" lon="4.72077">
        <ele>173</ele>
        <time>2018-05-12T08:52:58Z</time>
      </trkpt>
      <trkpt lat="45.9419" lon="4.72083">
        <ele>173</ele>
        <time>2018-05-12T08:52:59Z</time>
      </trkpt>
      <trkpt lat="45.94192" lon="4.72089">
        <ele>172</ele>
        <time>2018-05-12T08:53:00Z</time>
      </trkpt>
      <trkpt lat="45.94196" lon="4.72097">
        <ele>172</ele>
        <time>2018-05-12T08:53:01Z</time>
      </trkpt>
      <trkpt lat="45.94198" lon="4.72103">
        <ele>172</ele>
        <time>2018-05-12T08:53:02Z</time>
      </trkpt>
      <trkpt lat="45.94201" lon="4.7211">
        <ele>172</ele>
        <time>2018-05-12T08:53:03Z</time>
      </trkpt>
      <trkpt lat="45.94204" lon="4.72117">
        <ele>172</ele>
        <time>2018-05-12T08:53:04Z</time>
      </trkpt>
      <trkpt lat="45.94208" lon="4.72124">
        <ele>173</ele>
        <time>2018-05-12T08:53:05Z</time>
      </trkpt>
      <trkpt lat="45.94212" lon="4.72132">
        <ele>173</ele>
        <time>2018-05-12T08:53:06Z</time>
      </trkpt>
      <trkpt lat="45.94216" lon="4.72139">
        <ele>173</ele>
        <time>2018-05-12T08:53:07Z</time>
      </trkpt>
      <trkpt lat="45.9422" lon="4.72148">
        <ele>173</ele>
        <time>2018-05-12T08:53:08Z</time>
      </trkpt>
      <trkpt lat="45.94224" lon="4.72157">
        <ele>173</ele>
        <time>2018-05-12T08:53:09Z</time>
      </trkpt>
      <trkpt lat="45.94227" lon="4.72167">
        <ele>173</ele>
        <time>2018-05-12T08:53:10Z</time>
      </trkpt>
      <trkpt lat="45.94231" lon="4.72176">
        <ele>172</ele>
        <time>2018-05-12T08:53:11Z</time>
      </trkpt>
      <trkpt lat="45.94236" lon="4.72186">
        <ele>172</ele>
        <time>2018-05-12T08:53:12Z</time>
      </trkpt>
      <trkpt lat="45.9424" lon="4.72196">
        <ele>172</ele>
        <time>2018-05-12T08:53:13Z</time>
      </trkpt>
      <trkpt lat="45.94244" lon="4.72204">
        <ele>172</ele>
        <time>2018-05-12T08:53:14Z</time>
      </trkpt>
      <trkpt lat="45.94249" lon="4.72215">
        <ele>171</ele>
        <time>2018-05-12T08:53:15Z</time>
      </trkpt>
      <trkpt lat="45.94253" lon="4.72224">
        <ele>172</ele>
        <time>2018-05-12T08:53:16Z</time>
      </trkpt>
      <trkpt lat="45.94257" lon="4.72232">
        <ele>171</ele>
        <time>2018-05-12T08:53:17Z</time>
      </trkpt>
      <trkpt lat="45.9426" lon="4.7224">
        <ele>171</ele>
        <time>2018-05-12T08:53:18Z</time>
      </trkpt>
      <trkpt lat="45.94264" lon="4.72248">
        <ele>171</ele>
        <time>2018-05-12T08:53:19Z</time>
      </trkpt>
      <trkpt lat="45.94266" lon="4.72255">
        <ele>171</ele>
        <time>2018-05-12T08:53:20Z</time>
      </trkpt>
      <trkpt lat="45.94266" lon="4.72262">
        <ele>171</ele>
        <time>2018-05-12T08:53:21Z</time>
      </trkpt>
      <trkpt lat="45.94264" lon="4.72268">
        <ele>171</ele>
        <time>2018-05-12T08:53:22Z</time>
      </trkpt>
      <trkpt lat="45.9426" lon="4.72272">
        <ele>171</ele>
        <time>2018-05-12T08:53:23Z</time>
      </trkpt>
      <trkpt lat="45.94257" lon="4.72276">
        <ele>171</ele>
        <time>2018-05-12T08:53:24Z</time>
      </trkpt>
      <trkpt lat="45.94252" lon="4.72278">
        <ele>171</ele>
        <time>2018-05-12T08:53:25Z</time>
      </trkpt>
      <trkpt lat="45.94246" lon="4.72279">
        <ele>171</ele>
        <time>2018-05-12T08:53:26Z</time>
      </trkpt>
      <trkpt lat="45.94238" lon="4.72283">
        <ele>171</ele>
        <time>2018-05-12T08:53:28Z</time>
      </trkpt>
      <trkpt lat="45.94233" lon="4.72285">
        <ele>171</ele>
        <time>2018-05-12T08:53:29Z</time>
      </trkpt>
      <trkpt lat="45.94228" lon="4.72287">
        <ele>171</ele>
        <time>2018-05-12T08:53:30Z</time>
      </trkpt>
      <trkpt lat="45.94222" lon="4.72289">
        <ele>171</ele>
        <time>2018-05-12T08:53:31Z</time>
      </trkpt>
      <trkpt lat="45.94216" lon="4.72289">
        <ele>171</ele>
        <time>2018-05-12T08:53:32Z</time>
      </trkpt>
      <trkpt lat="45.94211" lon="4.7229">
        <ele>171</ele>
        <time>2018-05-12T08:53:33Z</time>
      </trkpt>
      <trkpt lat="45.94206" lon="4.72291">
        <ele>171</ele>
        <time>2018-05-12T08:53:34Z</time>
      </trkpt>
      <trkpt lat="45.94201" lon="4.72292">
        <ele>171</ele>
        <time>2018-05-12T08:53:35Z</time>
      </trkpt>
      <trkpt lat="45.94196" lon="4.72292">
        <ele>171</ele>
        <time>2018-05-12T08:53:36Z</time>
      </trkpt>
      <trkpt lat="45.9419" lon="4.72291">
        <ele>171</ele>
        <time>2018-05-12T08:53:37Z</time>
      </trkpt>
      <trkpt lat="45.94184" lon="4.72289">
        <ele>171</ele>
        <time>2018-05-12T08:53:38Z</time>
      </trkpt>
      <trkpt lat="45.94179" lon="4.72289">
        <ele>171</ele>
        <time>2018-05-12T08:53:39Z</time>
      </trkpt>
      <trkpt lat="45.94173" lon="4.72289">
        <ele>171</ele>
        <time>2018-05-12T08:53:40Z</time>
      </trkpt>
      <trkpt lat="45.94169" lon="4.72288">
        <ele>171</ele>
        <time>2018-05-12T08:53:41Z</time>
      </trkpt>
      <trkpt lat="45.94165" lon="4.72287">
        <ele>171</ele>
        <time>2018-05-12T08:53:42Z</time>
      </trkpt>
      <trkpt lat="45.94159" lon="4.72286">
        <ele>171</ele>
        <time>2018-05-12T08:53:43Z</time>
      </trkpt>
      <trkpt lat="45.94154" lon="4.72284">
        <ele>171</ele>
        <time>2018-05-12T08:53:44Z</time>
      </trkpt>
      <trkpt lat="45.94147" lon="4.72283">
        <ele>171</ele>
        <time>2018-05-12T08:53:45Z</time>
      </trkpt>
      <trkpt lat="45.94142" lon="4.72282">
        <ele>171</ele>
        <time>2018-05-12T08:53:46Z</time>
      </trkpt>
      <trkpt lat="45.94138" lon="4.72279">
        <ele>171</ele>
        <time>2018-05-12T08:53:47Z</time>
      </trkpt>
      <trkpt lat="45.94132" lon="4.72276">
        <ele>171</ele>
        <time>2018-05-12T08:53:48Z</time>
      </trkpt>
      <trkpt lat="45.94127" lon="4.72273">
        <ele>171</ele>
        <time>2018-05-12T08:53:49Z</time>
      </trkpt>
      <trkpt lat="45.94122" lon="4.7227">
        <ele>171</ele>
        <time>2018-05-12T08:53:50Z</time>
      </trkpt>
      <trkpt lat="45.94117" lon="4.72268">
        <ele>171</ele>
        <time>2018-05-12T08:53:51Z</time>
      </trkpt>
      <trkpt lat="45.94108" lon="4.72266">
        <ele>171</ele>
        <time>2018-05-12T08:53:53Z</time>
      </trkpt>
      <trkpt lat="45.94103" lon="4.72265">
        <ele>171</ele>
        <time>2018-05-12T08:53:54Z</time>
      </trkpt>
      <trkpt lat="45.94098" lon="4.72266">
        <ele>171</ele>
        <time>2018-05-12T08:53:55Z</time>
      </trkpt>
      <trkpt lat="45.94092" lon="4.72267">
        <ele>171</ele>
        <time>2018-05-12T08:53:56Z</time>
      </trkpt>
      <trkpt lat="45.94085" lon="4.72269">
        <ele>171</ele>
        <time>2018-05-12T08:53:57Z</time>
      </trkpt>
      <trkpt lat="45.94079" lon="4.72272">
        <ele>171</ele>
        <time>2018-05-12T08:53:58Z</time>
      </trkpt>
      <trkpt lat="45.94074" lon="4.72276">
        <ele>171</ele>
        <time>2018-05-12T08:53:59Z</time>
      </trkpt>
      <trkpt lat="45.94069" lon="4.7228">
        <ele>171</ele>
        <time>2018-05-12T08:54:00Z</time>
      </trkpt>
      <trkpt lat="45.94064" lon="4.72285">
        <ele>171</ele>
        <time>2018-05-12T08:54:01Z</time>
      </trkpt>
      <trkpt lat="45.9406" lon="4.72291">
        <ele>171</ele>
        <time>2018-05-12T08:54:02Z</time>
      </trkpt>
      <trkpt lat="45.94055" lon="4.72298">
        <ele>171</ele>
        <time>2018-05-12T08:54:03Z</time>
      </trkpt>
      <trkpt lat="45.94051" lon="4.72302">
        <ele>171</ele>
        <time>2018-05-12T08:54:04Z</time>
      </trkpt>
      <trkpt lat="45.94046" lon="4.72308">
        <ele>171</ele>
        <time>2018-05-12T08:54:05Z</time>
      </trkpt>
      <trkpt lat="45.94043" lon="4.72314">
        <ele>171</ele>
        <time>2018-05-12T08:54:06Z</time>
      </trkpt>
      <trkpt lat="45.94039" lon="4.72319">
        <ele>171</ele>
        <time>2018-05-12T08:54:07Z</time>
      </trkpt>
      <trkpt lat="45.94034" lon="4.72323">
        <ele>171</ele>
        <time>2018-05-12T08:54:08Z</time>
      </trkpt>
      <trkpt lat="45.9403" lon="4.72328">
        <ele>171</ele>
        <time>2018-05-12T08:54:09Z</time>
      </trkpt>
      <trkpt lat="45.94026" lon="4.72334">
        <ele>171</ele>
        <time>2018-05-12T08:54:10Z</time>
      </trkpt>
      <trkpt lat="45.94022" lon="4.72339">
        <ele>171</ele>
        <time>2018-05-12T08:54:11Z</time>
      </trkpt>
      <trkpt lat="45.94016" lon="4.72344">
        <ele>171</ele>
        <time>2018-05-12T08:54:12Z</time>
      </trkpt>
      <trkpt lat="45.94012" lon="4.72349">
        <ele>171</ele>
        <time>2018-05-12T08:54:13Z</time>
      </trkpt>
      <trkpt lat="45.94006" lon="4.72355">
        <ele>171</ele>
        <time>2018-05-12T08:54:14Z</time>
      </trkpt>
      <trkpt lat="45.94002" lon="4.7236">
        <ele>171</ele>
        <time>2018-05-12T08:54:15Z</time>
      </trkpt>
      <trkpt lat="45.93998" lon="4.72365">
        <ele>171</ele>
        <time>2018-05-12T08:54:16Z</time>
      </trkpt>
      <trkpt lat="45.93993" lon="4.72372">
        <ele>171</ele>
        <time>2018-05-12T08:54:17Z</time>
      </trkpt>
      <trkpt lat="45.93988" lon="4.72377">
        <ele>171</ele>
        <time>2018-05-12T08:54:18Z</time>
      </trkpt>
      <trkpt lat="45.93985" lon="4.72382">
        <ele>171</ele>
        <time>2018-05-12T08:54:19Z</time>
      </trkpt>
      <trkpt lat="45.93981" lon="4.72388">
        <ele>171</ele>
        <time>2018-05-12T08:54:20Z</time>
      </trkpt>
      <trkpt lat="45.93977" lon="4.72392">
        <ele>171</ele>
        <time>2018-05-12T08:54:21Z</time>
      </trkpt>
      <trkpt lat="45.93972" lon="4.72396">
        <ele>171</ele>
        <time>2018-05-12T08:54:22Z</time>
      </trkpt>
      <trkpt lat="45.93968" lon="4.72401">
        <ele>171</ele>
        <time>2018-05-12T08:54:23Z</time>
      </trkpt>
      <trkpt lat="45.93964" lon="4.72405">
        <ele>171</ele>
        <time>2018-05-12T08:54:24Z</time>
      </trkpt>
      <trkpt lat="45.9396" lon="4.7241">
        <ele>171</ele>
        <time>2018-05-12T08:54:25Z</time>
      </trkpt>
      <trkpt lat="45.93956" lon="4.72415">
        <ele>171</ele>
        <time>2018-05-12T08:54:26Z</time>
      </trkpt>
      <trkpt lat="45.93952" lon="4.72419">
        <ele>171</ele>
        <time>2018-05-12T08:54:27Z</time>
      </trkpt>
      <trkpt lat="45.93948" lon="4.72423">
        <ele>171</ele>
        <time>2018-05-12T08:54:28Z</time>
      </trkpt>
      <trkpt lat="45.93942" lon="4.72433">
        <ele>171</ele>
        <time>2018-05-12T08:54:30Z</time>
      </trkpt>
      <trkpt lat="45.93938" lon="4.72437">
        <ele>171</ele>
        <time>2018-05-12T08:54:31Z</time>
      </trkpt>
      <trkpt lat="45.93935" lon="4.72442">
        <ele>171</ele>
        <time>2018-05-12T08:54:32Z</time>
      </trkpt>
      <trkpt lat="45.93931" lon="4.72446">
        <ele>171</ele>
        <time>2018-05-12T08:54:33Z</time>
      </trkpt>
      <trkpt lat="45.93928" lon="4.72451">
        <ele>171</ele>
        <time>2018-05-12T08:54:34Z</time>
      </trkpt>
      <trkpt lat="45.93924" lon="4.72456">
        <ele>171</ele>
        <time>2018-05-12T08:54:35Z</time>
      </trkpt>
      <trkpt lat="45.93921" lon="4.7246">
        <ele>171</ele>
        <time>2018-05-12T08:54:36Z</time>
      </trkpt>
      <trkpt lat="45.93917" lon="4.72465">
        <ele>172</ele>
        <time>2018-05-12T08:54:37Z</time>
      </trkpt>
      <trkpt lat="45.9391" lon="4.72473">
        <ele>172</ele>
        <time>2018-05-12T08:54:39Z</time>
      </trkpt>
      <trkpt lat="45.93907" lon="4.72477">
        <ele>172</ele>
        <time>2018-05-12T08:54:40Z</time>
      </trkpt>
      <trkpt lat="45.93901" lon="4.72485">
        <ele>172</ele>
        <time>2018-05-12T08:54:42Z</time>
      </trkpt>
      <trkpt lat="45.93898" lon="4.72488">
        <ele>172</ele>
        <time>2018-05-12T08:54:43Z</time>
      </trkpt>
      <trkpt lat="45.93891" lon="4.72496">
        <ele>172</ele>
        <time>2018-05-12T08:54:45Z</time>
      </trkpt>
      <trkpt lat="45.93888" lon="4.725">
        <ele>172</ele>
        <time>2018-05-12T08:54:46Z</time>
      </trkpt>
      <trkpt lat="45.93881" lon="4.72507">
        <ele>173</ele>
        <time>2018-05-12T08:54:48Z</time>
      </trkpt>
      <trkpt lat="45.93877" lon="4.72511">
        <ele>173</ele>
        <time>2018-05-12T08:54:49Z</time>
      </trkpt>
      <trkpt lat="45.93869" lon="4.72513">
        <ele>173</ele>
        <time>2018-05-12T08:54:51Z</time>
      </trkpt>
      <trkpt lat="45.93865" lon="4.72511">
        <ele>173</ele>
        <time>2018-05-12T08:54:52Z</time>
      </trkpt>
      <trkpt lat="45.93858" lon="4.72505">
        <ele>173</ele>
        <time>2018-05-12T08:54:54Z</time>
      </trkpt>
      <trkpt lat="45.93856" lon="4.72503">
        <ele>173</ele>
        <time>2018-05-12T08:54:55Z</time>
      </trkpt>
      <trkpt lat="45.93852" lon="4.72498">
        <ele>173</ele>
        <time>2018-05-12T08:54:56Z</time>
      </trkpt>
      <trkpt lat="45.93849" lon="4.72494">
        <ele>173</ele>
        <time>2018-05-12T08:54:57Z</time>
      </trkpt>
      <trkpt lat="45.93844" lon="4.72484">
        <ele>173</ele>
        <time>2018-05-12T08:55:00Z</time>
      </trkpt>
      <trkpt lat="45.93841" lon="4.72476">
        <ele>173</ele>
        <time>2018-05-12T08:55:01Z</time>
      </trkpt>
      <trkpt lat="45.93835" lon="4.72472">
        <ele>173</ele>
        <time>2018-05-12T08:55:02Z</time>
      </trkpt>
      <trkpt lat="45.93829" lon="4.72472">
        <ele>172</ele>
        <time>2018-05-12T08:55:03Z</time>
      </trkpt>
      <trkpt lat="45.93817" lon="4.7247">
        <ele>172</ele>
        <time>2018-05-12T08:55:04Z</time>
      </trkpt>
      <trkpt lat="45.93812" lon="4.72467">
        <ele>172</ele>
        <time>2018-05-12T08:55:05Z</time>
      </trkpt>
      <trkpt lat="45.93807" lon="4.72463">
        <ele>172</ele>
        <time>2018-05-12T08:55:06Z</time>
      </trkpt>
      <trkpt lat="45.93805" lon="4.72458">
        <ele>172</ele>
        <time>2018-05-12T08:55:09Z</time>
      </trkpt>
      <trkpt lat="45.93797" lon="4.72451">
        <ele>172</ele>
        <time>2018-05-12T08:55:10Z</time>
      </trkpt>
      <trkpt lat="45.93792" lon="4.72445">
        <ele>172</ele>
        <time>2018-05-12T08:55:11Z</time>
      </trkpt>
      <trkpt lat="45.93787" lon="4.72441">
        <ele>172</ele>
        <time>2018-05-12T08:55:12Z</time>
      </trkpt>
      <trkpt lat="45.93783" lon="4.72435">
        <ele>172</ele>
        <time>2018-05-12T08:55:13Z</time>
      </trkpt>
      <trkpt lat="45.93778" lon="4.72432">
        <ele>172</ele>
        <time>2018-05-12T08:55:14Z</time>
      </trkpt>
      <trkpt lat="45.93773" lon="4.72422">
        <ele>171</ele>
        <time>2018-05-12T08:55:16Z</time>
      </trkpt>
      <trkpt lat="45.93769" lon="4.72418">
        <ele>171</ele>
        <time>2018-05-12T08:55:17Z</time>
      </trkpt>
      <trkpt lat="45.93765" lon="4.72415">
        <ele>171</ele>
        <time>2018-05-12T08:55:18Z</time>
      </trkpt>
      <trkpt lat="45.9376" lon="4.7241">
        <ele>171</ele>
        <time>2018-05-12T08:55:19Z</time>
      </trkpt>
      <trkpt lat="45.93755" lon="4.72406">
        <ele>171</ele>
        <time>2018-05-12T08:55:20Z</time>
      </trkpt>
      <trkpt lat="45.93751" lon="4.72403">
        <ele>171</ele>
        <time>2018-05-12T08:55:21Z</time>
      </trkpt>
      <trkpt lat="45.93747" lon="4.72399">
        <ele>171</ele>
        <time>2018-05-12T08:55:22Z</time>
      </trkpt>
      <trkpt lat="45.93743" lon="4.72396">
        <ele>171</ele>
        <time>2018-05-12T08:55:23Z</time>
      </trkpt>
      <trkpt lat="45.93739" lon="4.72392">
        <ele>171</ele>
        <time>2018-05-12T08:55:24Z</time>
      </trkpt>
      <trkpt lat="45.93735" lon="4.72388">
        <ele>171</ele>
        <time>2018-05-12T08:55:25Z</time>
      </trkpt>
      <trkpt lat="45.93728" lon="4.72382">
        <ele>171</ele>
        <time>2018-05-12T08:55:27Z</time>
      </trkpt>
      <trkpt lat="45.93722" lon="4.72378">
        <ele>171</ele>
        <time>2018-05-12T08:55:28Z</time>
      </trkpt>
      <trkpt lat="45.93719" lon="4.72373">
        <ele>172</ele>
        <time>2018-05-12T08:55:29Z</time>
      </trkpt>
      <trkpt lat="45.93715" lon="4.72369">
        <ele>172</ele>
        <time>2018-05-12T08:55:30Z</time>
      </trkpt>
      <trkpt lat="45.93711" lon="4.72364">
        <ele>172</ele>
        <time>2018-05-12T08:55:31Z</time>
      </trkpt>
      <trkpt lat="45.93707" lon="4.72361">
        <ele>171</ele>
        <time>2018-05-12T08:55:32Z</time>
      </trkpt>
      <trkpt lat="45.93702" lon="4.72358">
        <ele>171</ele>
        <time>2018-05-12T08:55:33Z</time>
      </trkpt>
      <trkpt lat="45.93698" lon="4.72354">
        <ele>171</ele>
        <time>2018-05-12T08:55:34Z</time>
      </trkpt>
      <trkpt lat="45.93692" lon="4.72346">
        <ele>171</ele>
        <time>2018-05-12T08:55:36Z</time>
      </trkpt>
      <trkpt lat="45.9369" lon="4.72345">
        <ele>171</ele>
        <time>2018-05-12T08:55:37Z</time>
      </trkpt>
      <trkpt lat="45.93684" lon="4.72339">
        <ele>171</ele>
        <time>2018-05-12T08:55:38Z</time>
      </trkpt>
      <trkpt lat="45.93679" lon="4.72336">
        <ele>171</ele>
        <time>2018-05-12T08:55:39Z</time>
      </trkpt>
      <trkpt lat="45.93675" lon="4.72329">
        <ele>171</ele>
        <time>2018-05-12T08:55:41Z</time>
      </trkpt>
      <trkpt lat="45.9367" lon="4.72328">
        <ele>171</ele>
        <time>2018-05-12T08:55:42Z</time>
      </trkpt>
      <trkpt lat="45.93663" lon="4.72321">
        <ele>172</ele>
        <time>2018-05-12T08:55:44Z</time>
      </trkpt>
      <trkpt lat="45.93658" lon="4.72317">
        <ele>172</ele>
        <time>2018-05-12T08:55:45Z</time>
      </trkpt>
      <trkpt lat="45.93655" lon="4.72313">
        <ele>172</ele>
        <time>2018-05-12T08:55:46Z</time>
      </trkpt>
      <trkpt lat="45.9365" lon="4.72307">
        <ele>172</ele>
        <time>2018-05-12T08:55:47Z</time>
      </trkpt>
      <trkpt lat="45.93646" lon="4.72303">
        <ele>172</ele>
        <time>2018-05-12T08:55:48Z</time>
      </trkpt>
      <trkpt lat="45.93642" lon="4.723">
        <ele>172</ele>
        <time>2018-05-12T08:55:49Z</time>
      </trkpt>
      <trkpt lat="45.93634" lon="4.72294">
        <ele>172</ele>
        <time>2018-05-12T08:55:51Z</time>
      </trkpt>
      <trkpt lat="45.9363" lon="4.7229">
        <ele>172</ele>
        <time>2018-05-12T08:55:52Z</time>
      </trkpt>
      <trkpt lat="45.93625" lon="4.72287">
        <ele>172</ele>
        <time>2018-05-12T08:55:53Z</time>
      </trkpt>
      <trkpt lat="45.93622" lon="4.72282">
        <ele>172</ele>
        <time>2018-05-12T08:55:54Z</time>
      </trkpt>
      <trkpt lat="45.93617" lon="4.72276">
        <ele>172</ele>
        <time>2018-05-12T08:55:56Z</time>
      </trkpt>
      <trkpt lat="45.93613" lon="4.72272">
        <ele>172</ele>
        <time>2018-05-12T08:55:57Z</time>
      </trkpt>
      <trkpt lat="45.93608" lon="4.72268">
        <ele>172</ele>
        <time>2018-05-12T08:55:58Z</time>
      </trkpt>
      <trkpt lat="45.93605" lon="4.72264">
        <ele>173</ele>
        <time>2018-05-12T08:55:59Z</time>
      </trkpt>
      <trkpt lat="45.93601" lon="4.7226">
        <ele>173</ele>
        <time>2018-05-12T08:56:00Z</time>
      </trkpt>
      <trkpt lat="45.93597" lon="4.72256">
        <ele>173</ele>
        <time>2018-05-12T08:56:01Z</time>
      </trkpt>
      <trkpt lat="45.9359" lon="4.72249">
        <ele>173</ele>
        <time>2018-05-12T08:56:04Z</time>
      </trkpt>
      <trkpt lat="45.9359" lon="4.72247">
        <ele>173</ele>
        <time>2018-05-12T08:56:05Z</time>
      </trkpt>
      <trkpt lat="45.93583" lon="4.72243">
        <ele>173</ele>
        <time>2018-05-12T08:56:09Z</time>
      </trkpt>
      <trkpt lat="45.9358" lon="4.72241">
        <ele>173</ele>
        <time>2018-05-12T08:56:10Z</time>
      </trkpt>
      <trkpt lat="45.93578" lon="4.72238">
        <ele>173</ele>
        <time>2018-05-12T08:56:11Z</time>
      </trkpt>
      <trkpt lat="45.93569" lon="4.72231">
        <ele>173</ele>
        <time>2018-05-12T08:56:12Z</time>
      </trkpt>
      <trkpt lat="45.93561" lon="4.72229">
        <ele>173</ele>
        <time>2018-05-12T08:56:15Z</time>
      </trkpt>
      <trkpt lat="45.93559" lon="4.72229">
        <ele>173</ele>
        <time>2018-05-12T08:56:16Z</time>
      </trkpt>
      <trkpt lat="45.93552" lon="4.72234">
        <ele>172</ele>
        <time>2018-05-12T08:56:19Z</time>
      </trkpt>
      <trkpt lat="45.93551" lon="4.72237">
        <ele>172</ele>
        <time>2018-05-12T08:56:20Z</time>
      </trkpt>
      <trkpt lat="45.93547" lon="4.72245">
        <ele>172</ele>
        <time>2018-05-12T08:56:22Z</time>
      </trkpt>
      <trkpt lat="45.93542" lon="4.72257">
        <ele>172</ele>
        <time>2018-05-12T08:56:23Z</time>
      </trkpt>
      <trkpt lat="45.93538" lon="4.72267">
        <ele>172</ele>
        <time>2018-05-12T08:56:25Z</time>
      </trkpt>
      <trkpt lat="45.93535" lon="4.72272">
        <ele>172</ele>
        <time>2018-05-12T08:56:26Z</time>
      </trkpt>
      <trkpt lat="45.93531" lon="4.72282">
        <ele>172</ele>
        <time>2018-05-12T08:56:28Z</time>
      </trkpt>
      <trkpt lat="45.93529" lon="4.72287">
        <ele>172</ele>
        <time>2018-05-12T08:56:29Z</time>
      </trkpt>
      <trkpt lat="45.93525" lon="4.72298">
        <ele>172</ele>
        <time>2018-05-12T08:56:31Z</time>
      </trkpt>
      <trkpt lat="45.93522" lon="4.72303">
        <ele>173</ele>
        <time>2018-05-12T08:56:32Z</time>
      </trkpt>
      <trkpt lat="45.93517" lon="4.72313">
        <ele>173</ele>
        <time>2018-05-12T08:56:34Z</time>
      </trkpt>
      <trkpt lat="45.93515" lon="4.72319">
        <ele>173</ele>
        <time>2018-05-12T08:56:35Z</time>
      </trkpt>
      <trkpt lat="45.93514" lon="4.72327">
        <ele>173</ele>
        <time>2018-05-12T08:56:36Z</time>
      </trkpt>
      <trkpt lat="45.93514" lon="4.72334">
        <ele>173</ele>
        <time>2018-05-12T08:56:37Z</time>
      </trkpt>
      <trkpt lat="45.93516" lon="4.72341">
        <ele>173</ele>
        <time>2018-05-12T08:56:38Z</time>
      </trkpt>
      <trkpt lat="45.93519" lon="4.72348">
        <ele>173</ele>
        <time>2018-05-12T08:56:39Z</time>
      </trkpt>
      <trkpt lat="45.93522" lon="4.72354">
        <ele>173</ele>
        <time>2018-05-12T08:56:40Z</time>
      </trkpt>
      <trkpt lat="45.93525" lon="4.72361">
        <ele>173</ele>
        <time>2018-05-12T08:56:41Z</time>
      </trkpt>
      <trkpt lat="45.93528" lon="4.72366">
        <ele>173</ele>
        <time>2018-05-12T08:56:42Z</time>
      </trkpt>
      <trkpt lat="45.93531" lon="4.72372">
        <ele>173</ele>
        <time>2018-05-12T08:56:43Z</time>
      </trkpt>
      <trkpt lat="45.93533" lon="4.72379">
        <ele>173</ele>
        <time>2018-05-12T08:56:44Z</time>
      </trkpt>
      <trkpt lat="45.93535" lon="4.72385">
        <ele>173</ele>
        <time>2018-05-12T08:56:45Z</time>
      </trkpt>
      <trkpt lat="45.93537" lon="4.72391">
        <ele>173</ele>
        <time>2018-05-12T08:56:46Z</time>
      </trkpt>
      <trkpt lat="45.93539" lon="4.72398">
        <ele>173</ele>
        <time>2018-05-12T08:56:47Z</time>
      </trkpt>
      <trkpt lat="45.9354" lon="4.72405">
        <ele>173</ele>
        <time>2018-05-12T08:56:48Z</time>
      </trkpt>
      <trkpt lat="45.93542" lon="4.72413">
        <ele>173</ele>
        <time>2018-05-12T08:56:49Z</time>
      </trkpt>
      <trkpt lat="45.93543" lon="4.72421">
        <ele>172</ele>
        <time>2018-05-12T08:56:50Z</time>
      </trkpt>
      <trkpt lat="45.93543" lon="4.72428">
        <ele>172</ele>
        <time>2018-05-12T08:56:51Z</time>
      </trkpt>
      <trkpt lat="45.9354" lon="4.72434">
        <ele>173</ele>
        <time>2018-05-12T08:56:52Z</time>
      </trkpt>
      <trkpt lat="45.93543" lon="4.72441">
        <ele>172</ele>
        <time>2018-05-12T08:56:53Z</time>
      </trkpt>
      <trkpt lat="45.93542" lon="4.72453">
        <ele>172</ele>
        <time>2018-05-12T08:56:55Z</time>
      </trkpt>
      <trkpt lat="45.93542" lon="4.72456">
        <ele>172</ele>
        <time>2018-05-12T08:56:56Z</time>
      </trkpt>
      <trkpt lat="45.93544" lon="4.72463">
        <ele>172</ele>
        <time>2018-05-12T08:56:57Z</time>
      </trkpt>
      <trkpt lat="45.93545" lon="4.72469">
        <ele>172</ele>
        <time>2018-05-12T08:56:58Z</time>
      </trkpt>
      <trkpt lat="45.93548" lon="4.72479">
        <ele>172</ele>
        <time>2018-05-12T08:57:00Z</time>
      </trkpt>
      <trkpt lat="45.93551" lon="4.72485">
        <ele>172</ele>
        <time>2018-05-12T08:57:01Z</time>
      </trkpt>
      <trkpt lat="45.93554" lon="4.7249">
        <ele>172</ele>
        <time>2018-05-12T08:57:02Z</time>
      </trkpt>
      <trkpt lat="45.93556" lon="4.72496">
        <ele>172</ele>
        <time>2018-05-12T08:57:03Z</time>
      </trkpt>
      <trkpt lat="45.93558" lon="4.72504">
        <ele>172</ele>
        <time>2018-05-12T08:57:04Z</time>
      </trkpt>
      <trkpt lat="45.93562" lon="4.7251">
        <ele>172</ele>
        <time>2018-05-12T08:57:05Z</time>
      </trkpt>
      <trkpt lat="45.93564" lon="4.72517">
        <ele>172</ele>
        <time>2018-05-12T08:57:06Z</time>
      </trkpt>
      <trkpt lat="45.93566" lon="4.72523">
        <ele>172</ele>
        <time>2018-05-12T08:57:07Z</time>
      </trkpt>
      <trkpt lat="45.93569" lon="4.72529">
        <ele>172</ele>
        <time>2018-05-12T08:57:08Z</time>
      </trkpt>
      <trkpt lat="45.93571" lon="4.72534">
        <ele>172</ele>
        <time>2018-05-12T08:57:09Z</time>
      </trkpt>
      <trkpt lat="45.93575" lon="4.72543">
        <ele>173</ele>
        <time>2018-05-12T08:57:11Z</time>
      </trkpt>
      <trkpt lat="45.93578" lon="4.72548">
        <ele>173</ele>
        <time>2018-05-12T08:57:12Z</time>
      </trkpt>
      <trkpt lat="45.93582" lon="4.7255">
        <ele>173</ele>
        <time>2018-05-12T08:57:14Z</time>
      </trkpt>
      <trkpt lat="45.93589" lon="4.72555">
        <ele>172</ele>
        <time>2018-05-12T08:57:15Z</time>
      </trkpt>
      <trkpt lat="45.93596" lon="4.72557">
        <ele>172</ele>
        <time>2018-05-12T08:57:17Z</time>
      </trkpt>
      <trkpt lat="45.93601" lon="4.72554">
        <ele>172</ele>
        <time>2018-05-12T08:57:18Z</time>
      </trkpt>
      <trkpt lat="45.93608" lon="4.72547">
        <ele>172</ele>
        <time>2018-05-12T08:57:20Z</time>
      </trkpt>
      <trkpt lat="45.93611" lon="4.72542">
        <ele>172</ele>
        <time>2018-05-12T08:57:21Z</time>
      </trkpt>
      <trkpt lat="45.93616" lon="4.72533">
        <ele>172</ele>
        <time>2018-05-12T08:57:23Z</time>
      </trkpt>
      <trkpt lat="45.93618" lon="4.72528">
        <ele>172</ele>
        <time>2018-05-12T08:57:24Z</time>
      </trkpt>
      <trkpt lat="45.93623" lon="4.72518">
        <ele>172</ele>
        <time>2018-05-12T08:57:26Z</time>
      </trkpt>
      <trkpt lat="45.93626" lon="4.72512">
        <ele>172</ele>
        <time>2018-05-12T08:57:27Z</time>
      </trkpt>
      <trkpt lat="45.93629" lon="4.72508">
        <ele>172</ele>
        <time>2018-05-12T08:57:28Z</time>
      </trkpt>
      <trkpt lat="45.93631" lon="4.72501">
        <ele>172</ele>
        <time>2018-05-12T08:57:29Z</time>
      </trkpt>
      <trkpt lat="45.93633" lon="4.72494">
        <ele>172</ele>
        <time>2018-05-12T08:57:30Z</time>
      </trkpt>
      <trkpt lat="45.93637" lon="4.72489">
        <ele>172</ele>
        <time>2018-05-12T08:57:31Z</time>
      </trkpt>
      <trkpt lat="45.9364" lon="4.72485">
        <ele>172</ele>
        <time>2018-05-12T08:57:32Z</time>
      </trkpt>
      <trkpt lat="45.93643" lon="4.7248">
        <ele>172</ele>
        <time>2018-05-12T08:57:33Z</time>
      </trkpt>
      <trkpt lat="45.93649" lon="4.72471">
        <ele>172</ele>
        <time>2018-05-12T08:57:35Z</time>
      </trkpt>
      <trkpt lat="45.93652" lon="4.72466">
        <ele>172</ele>
        <time>2018-05-12T08:57:36Z</time>
      </trkpt>
      <trkpt lat="45.93658" lon="4.72459">
        <ele>172</ele>
        <time>2018-05-12T08:57:38Z</time>
      </trkpt>
      <trkpt lat="45.93659" lon="4.72457">
        <ele>172</ele>
        <time>2018-05-12T08:57:39Z</time>
      </trkpt>
      <trkpt lat="45.93666" lon="4.72454">
        <ele>172</ele>
        <time>2018-05-12T08:57:41Z</time>
      </trkpt>
      <trkpt lat="45.93671" lon="4.72457">
        <ele>171</ele>
        <time>2018-05-12T08:57:42Z</time>
      </trkpt>
      <trkpt lat="45.93678" lon="4.72464">
        <ele>171</ele>
        <time>2018-05-12T08:57:44Z</time>
      </trkpt>
      <trkpt lat="45.93682" lon="4.72469">
        <ele>171</ele>
        <time>2018-05-12T08:57:45Z</time>
      </trkpt>
      <trkpt lat="45.93686" lon="4.72472">
        <ele>171</ele>
        <time>2018-05-12T08:57:46Z</time>
      </trkpt>
      <trkpt lat="45.93691" lon="4.72475">
        <ele>171</ele>
        <time>2018-05-12T08:57:47Z</time>
      </trkpt>
      <trkpt lat="45.93695" lon="4.72479">
        <ele>171</ele>
        <time>2018-05-12T08:57:48Z</time>
      </trkpt>
      <trkpt lat="45.93699" lon="4.72483">
        <ele>171</ele>
        <time>2018-05-12T08:57:49Z</time>
      </trkpt>
      <trkpt lat="45.93703" lon="4.72487">
        <ele>171</ele>
        <time>2018-05-12T08:57:50Z</time>
      </trkpt>
      <trkpt lat="45.93708" lon="4.7249">
        <ele>171</ele>
        <time>2018-05-12T08:57:51Z</time>
      </trkpt>
      <trkpt lat="45.93712" lon="4.72494">
        <ele>171</ele>
        <time>2018-05-12T08:57:52Z</time>
      </trkpt>
      <trkpt lat="45.93716" lon="4.72498">
        <ele>171</ele>
        <time>2018-05-12T08:57:53Z</time>
      </trkpt>
      <trkpt lat="45.9372" lon="4.72502">
        <ele>171</ele>
        <time>2018-05-12T08:57:54Z</time>
      </trkpt>
      <trkpt lat="45.93724" lon="4.72505">
        <ele>171</ele>
        <time>2018-05-12T08:57:55Z</time>
      </trkpt>
      <trkpt lat="45.9373" lon="4.72512">
        <ele>171</ele>
        <time>2018-05-12T08:57:57Z</time>
      </trkpt>
      <trkpt lat="45.93734" lon="4.72515">
        <ele>171</ele>
        <time>2018-05-12T08:57:58Z</time>
      </trkpt>
      <trkpt lat="45.93738" lon="4.72518">
        <ele>171</ele>
        <time>2018-05-12T08:57:59Z</time>
      </trkpt>
      <trkpt lat="45.93742" lon="4.72522">
        <ele>172</ele>
        <time>2018-05-12T08:58:00Z</time>
      </trkpt>
      <trkpt lat="45.93747" lon="4.72527">
        <ele>172</ele>
        <time>2018-05-12T08:58:01Z</time>
      </trkpt>
      <trkpt lat="45.93751" lon="4.72531">
        <ele>172</ele>
        <time>2018-05-12T08:58:02Z</time>
      </trkpt>
      <trkpt lat="45.93756" lon="4.72535">
        <ele>173</ele>
        <time>2018-05-12T08:58:03Z</time>
      </trkpt>
      <trkpt lat="45.9376" lon="4.72539">
        <ele>173</ele>
        <time>2018-05-12T08:58:04Z</time>
      </trkpt>
      <trkpt lat="45.93765" lon="4.72543">
        <ele>173</ele>
        <time>2018-05-12T08:58:05Z</time>
      </trkpt>
      <trkpt lat="45.93769" lon="4.72547">
        <ele>173</ele>
        <time>2018-05-12T08:58:06Z</time>
      </trkpt>
      <trkpt lat="45.93778" lon="4.72549">
        <ele>173</ele>
        <time>2018-05-12T08:58:10Z</time>
      </trkpt>
      <trkpt lat="45.93778" lon="4.72549">
        <ele>173</ele>
        <time>2018-05-12T08:58:11Z</time>
      </trkpt>
      <trkpt lat="45.9378" lon="4.72547">
        <ele>173</ele>
        <time>2018-05-12T08:58:14Z</time>
      </trkpt>
      <trkpt lat="45.93794" lon="4.72562">
        <ele>174</ele>
        <time>2018-05-12T08:58:15Z</time>
      </trkpt>
      <trkpt lat="45.938" lon="4.72568">
        <ele>174</ele>
        <time>2018-05-12T08:58:16Z</time>
      </trkpt>
      <trkpt lat="45.93804" lon="4.72573">
        <ele>174</ele>
        <time>2018-05-12T08:58:17Z</time>
      </trkpt>
      <trkpt lat="45.93806" lon="4.72583">
        <ele>174</ele>
        <time>2018-05-12T08:58:18Z</time>
      </trkpt>
      <trkpt lat="45.93808" lon="4.72591">
        <ele>174</ele>
        <time>2018-05-12T08:58:19Z</time>
      </trkpt>
      <trkpt lat="45.93808" lon="4.72602">
        <ele>173</ele>
        <time>2018-05-12T08:58:21Z</time>
      </trkpt>
      <trkpt lat="45.93807" lon="4.72611">
        <ele>173</ele>
        <time>2018-05-12T08:58:22Z</time>
      </trkpt>
      <trkpt lat="45.93802" lon="4.7262">
        <ele>173</ele>
        <time>2018-05-12T08:58:24Z</time>
      </trkpt>
      <trkpt lat="45.93799" lon="4.72625">
        <ele>173</ele>
        <time>2018-05-12T08:58:25Z</time>
      </trkpt>
      <trkpt lat="45.93794" lon="4.72634">
        <ele>173</ele>
        <time>2018-05-12T08:58:27Z</time>
      </trkpt>
      <trkpt lat="45.93792" lon="4.72638">
        <ele>173</ele>
        <time>2018-05-12T08:58:28Z</time>
      </trkpt>
      <trkpt lat="45.93785" lon="4.72646">
        <ele>173</ele>
        <time>2018-05-12T08:58:30Z</time>
      </trkpt>
      <trkpt lat="45.93784" lon="4.7265">
        <ele>173</ele>
        <time>2018-05-12T08:58:31Z</time>
      </trkpt>
      <trkpt lat="45.93777" lon="4.72657">
        <ele>173</ele>
        <time>2018-05-12T08:58:33Z</time>
      </trkpt>
      <trkpt lat="45.93776" lon="4.72659">
        <ele>173</ele>
        <time>2018-05-12T08:58:34Z</time>
      </trkpt>
      <trkpt lat="45.93771" lon="4.72666">
        <ele>173</ele>
        <time>2018-05-12T08:58:35Z</time>
      </trkpt>
      <trkpt lat="45.93767" lon="4.7267">
        <ele>173</ele>
        <time>2018-05-12T08:58:36Z</time>
      </trkpt>
      <trkpt lat="45.93761" lon="4.72678">
        <ele>173</ele>
        <time>2018-05-12T08:58:38Z</time>
      </trkpt>
      <trkpt lat="45.93757" lon="4.72682">
        <ele>173</ele>
        <time>2018-05-12T08:58:39Z</time>
      </trkpt>
      <trkpt lat="45.93753" lon="4.72687">
        <ele>173</ele>
        <time>2018-05-12T08:58:40Z</time>
      </trkpt>
      <trkpt lat="45.9375" lon="4.7269">
        <ele>173</ele>
        <time>2018-05-12T08:58:41Z</time>
      </trkpt>
      <trkpt lat="45.93746" lon="4.72694">
        <ele>173</ele>
        <time>2018-05-12T08:58:42Z</time>
      </trkpt>
      <trkpt lat="45.93742" lon="4.72698">
        <ele>173</ele>
        <time>2018-05-12T08:58:43Z</time>
      </trkpt>
      <trkpt lat="45.93735" lon="4.72706">
        <ele>173</ele>
        <time>2018-05-12T08:58:45Z</time>
      </trkpt>
      <trkpt lat="45.93732" lon="4.72709">
        <ele>173</ele>
        <time>2018-05-12T08:58:46Z</time>
      </trkpt>
      <trkpt lat="45.93728" lon="4.72713">
        <ele>173</ele>
        <time>2018-05-12T08:58:47Z</time>
      </trkpt>
      <trkpt lat="45.93725" lon="4.72718">
        <ele>173</ele>
        <time>2018-05-12T08:58:48Z</time>
      </trkpt>
      <trkpt lat="45.93721" lon="4.72722">
        <ele>173</ele>
        <time>2018-05-12T08:58:49Z</time>
      </trkpt>
      <trkpt lat="45.93717" lon="4.72725">
        <ele>173</ele>
        <time>2018-05-12T08:58:50Z</time>
      </trkpt>
      <trkpt lat="45.93714" lon="4.7273">
        <ele>173</ele>
        <time>2018-05-12T08:58:51Z</time>
      </trkpt>
      <trkpt lat="45.93709" lon="4.72734">
        <ele>173</ele>
        <time>2018-05-12T08:58:52Z</time>
      </trkpt>
      <trkpt lat="45.93705" lon="4.72738">
        <ele>173</ele>
        <time>2018-05-12T08:58:53Z</time>
      </trkpt>
      <trkpt lat="45.93701" lon="4.72742">
        <ele>173</ele>
        <time>2018-05-12T08:58:54Z</time>
      </trkpt>
      <trkpt lat="45.93694" lon="4.72748">
        <ele>173</ele>
        <time>2018-05-12T08:58:56Z</time>
      </trkpt>
      <trkpt lat="45.93692" lon="4.72751">
        <ele>172</ele>
        <time>2018-05-12T08:58:57Z</time>
      </trkpt>
      <trkpt lat="45.93685" lon="4.72757">
        <ele>173</ele>
        <time>2018-05-12T08:58:59Z</time>
      </trkpt>
      <trkpt lat="45.93684" lon="4.72758">
        <ele>173</ele>
        <time>2018-05-12T08:59:00Z</time>
      </trkpt>
      <trkpt lat="45.93677" lon="4.72764">
        <ele>173</ele>
        <time>2018-05-12T08:59:03Z</time>
      </trkpt>
      <trkpt lat="45.93675" lon="4.72766">
        <ele>173</ele>
        <time>2018-05-12T08:59:04Z</time>
      </trkpt>
      <trkpt lat="45.93668" lon="4.72773">
        <ele>173</ele>
        <time>2018-05-12T08:59:05Z</time>
      </trkpt>
      <trkpt lat="45.93666" lon="4.72774">
        <ele>174</ele>
        <time>2018-05-12T08:59:06Z</time>
      </trkpt>
      <trkpt lat="45.93661" lon="4.72777">
        <ele>174</ele>
        <time>2018-05-12T08:59:07Z</time>
      </trkpt>
      <trkpt lat="45.93657" lon="4.7278">
        <ele>174</ele>
        <time>2018-05-12T08:59:08Z</time>
      </trkpt>
      <trkpt lat="45.93653" lon="4.72783">
        <ele>174</ele>
        <time>2018-05-12T08:59:09Z</time>
      </trkpt>
      <trkpt lat="45.93649" lon="4.72786">
        <ele>173</ele>
        <time>2018-05-12T08:59:10Z</time>
      </trkpt>
      <trkpt lat="45.93645" lon="4.72789">
        <ele>173</ele>
        <time>2018-05-12T08:59:11Z</time>
      </trkpt>
      <trkpt lat="45.9364" lon="4.72793">
        <ele>173</ele>
        <time>2018-05-12T08:59:12Z</time>
      </trkpt>
      <trkpt lat="45.93636" lon="4.72795">
        <ele>173</ele>
        <time>2018-05-12T08:59:13Z</time>
      </trkpt>
      <trkpt lat="45.93632" lon="4.72798">
        <ele>173</ele>
        <time>2018-05-12T08:59:14Z</time>
      </trkpt>
      <trkpt lat="45.93625" lon="4.72803">
        <ele>173</ele>
        <time>2018-05-12T08:59:16Z</time>
      </trkpt>
      <trkpt lat="45.93622" lon="4.72805">
        <ele>173</ele>
        <time>2018-05-12T08:59:17Z</time>
      </trkpt>
      <trkpt lat="45.93614" lon="4.7281">
        <ele>173</ele>
        <time>2018-05-12T08:59:19Z</time>
      </trkpt>
      <trkpt lat="45.93611" lon="4.72814">
        <ele>173</ele>
        <time>2018-05-12T08:59:20Z</time>
      </trkpt>
      <trkpt lat="45.93603" lon="4.7282">
        <ele>173</ele>
        <time>2018-05-12T08:59:22Z</time>
      </trkpt>
      <trkpt lat="45.93599" lon="4.72823">
        <ele>173</ele>
        <time>2018-05-12T08:59:23Z</time>
      </trkpt>
      <trkpt lat="45.93595" lon="4.72826">
        <ele>173</ele>
        <time>2018-05-12T08:59:24Z</time>
      </trkpt>
      <trkpt lat="45.9359" lon="4.7283">
        <ele>172</ele>
        <time>2018-05-12T08:59:25Z</time>
      </trkpt>
      <trkpt lat="45.93586" lon="4.72833">
        <ele>172</ele>
        <time>2018-05-12T08:59:26Z</time>
      </trkpt>
      <trkpt lat="45.93582" lon="4.72837">
        <ele>172</ele>
        <time>2018-05-12T08:59:27Z</time>
      </trkpt>
      <trkpt lat="45.93578" lon="4.72841">
        <ele>172</ele>
        <time>2018-05-12T08:59:28Z</time>
      </trkpt>
      <trkpt lat="45.93574" lon="4.72845">
        <ele>172</ele>
        <time>2018-05-12T08:59:29Z</time>
      </trkpt>
      <trkpt lat="45.9357" lon="4.72848">
        <ele>172</ele>
        <time>2018-05-12T08:59:30Z</time>
      </trkpt>
      <trkpt lat="45.93566" lon="4.72852">
        <ele>172</ele>
        <time>2018-05-12T08:59:31Z</time>
      </trkpt>
      <trkpt lat="45.93558" lon="4.72858">
        <ele>172</ele>
        <time>2018-05-12T08:59:33Z</time>
      </trkpt>
      <trkpt lat="45.93556" lon="4.72862">
        <ele>172</ele>
        <time>2018-05-12T08:59:34Z</time>
      </trkpt>
      <trkpt lat="45.93552" lon="4.72866">
        <ele>172</ele>
        <time>2018-05-12T08:59:35Z</time>
      </trkpt>
      <trkpt lat="45.93548" lon="4.7287">
        <ele>172</ele>
        <time>2018-05-12T08:59:36Z</time>
      </trkpt>
      <trkpt lat="45.93542" lon="4.72878">
        <ele>172</ele>
        <time>2018-05-12T08:59:38Z</time>
      </trkpt>
      <trkpt lat="45.93538" lon="4.72881">
        <ele>172</ele>
        <time>2018-05-12T08:59:39Z</time>
      </trkpt>
      <trkpt lat="45.93534" lon="4.72886">
        <ele>172</ele>
        <time>2018-05-12T08:59:40Z</time>
      </trkpt>
      <trkpt lat="45.93531" lon="4.72891">
        <ele>172</ele>
        <time>2018-05-12T08:59:41Z</time>
      </trkpt>
      <trkpt lat="45.93527" lon="4.72895">
        <ele>172</ele>
        <time>2018-05-12T08:59:42Z</time>
      </trkpt>
      <trkpt lat="45.93524" lon="4.729">
        <ele>172</ele>
        <time>2018-05-12T08:59:43Z</time>
      </trkpt>
      <trkpt lat="45.93517" lon="4.72907">
        <ele>172</ele>
        <time>2018-05-12T08:59:45Z</time>
      </trkpt>
      <trkpt lat="45.93513" lon="4.72911">
        <ele>172</ele>
        <time>2018-05-12T08:59:46Z</time>
      </trkpt>
      <trkpt lat="45.93507" lon="4.7292">
        <ele>172</ele>
        <time>2018-05-12T08:59:48Z</time>
      </trkpt>
      <trkpt lat="45.93504" lon="4.72924">
        <ele>171</ele>
        <time>2018-05-12T08:59:49Z</time>
      </trkpt>
      <trkpt lat="45.935" lon="4.72934">
        <ele>172</ele>
        <time>2018-05-12T08:59:51Z</time>
      </trkpt>
      <trkpt lat="45.93499" lon="4.7294">
        <ele>172</ele>
        <time>2018-05-12T08:59:52Z</time>
      </trkpt>
      <trkpt lat="45.93496" lon="4.72952">
        <ele>171</ele>
        <time>2018-05-12T08:59:54Z</time>
      </trkpt>
      <trkpt lat="45.93495" lon="4.72957">
        <ele>171</ele>
        <time>2018-05-12T08:59:55Z</time>
      </trkpt>
      <trkpt lat="45.93493" lon="4.72968">
        <ele>171</ele>
        <time>2018-05-12T08:59:57Z</time>
      </trkpt>
      <trkpt lat="45.93492" lon="4.72974">
        <ele>171</ele>
        <time>2018-05-12T08:59:58Z</time>
      </trkpt>
      <trkpt lat="45.93489" lon="4.72986">
        <ele>170</ele>
        <time>2018-05-12T09:00:00Z</time>
      </trkpt>
      <trkpt lat="45.93487" lon="4.72992">
        <ele>170</ele>
        <time>2018-05-12T09:00:01Z</time>
      </trkpt>
      <trkpt lat="45.93486" lon="4.73">
        <ele>170</ele>
        <time>2018-05-12T09:00:02Z</time>
      </trkpt>
      <trkpt lat="45.93486" lon="4.73007">
        <ele>170</ele>
        <time>2018-05-12T09:00:03Z</time>
      </trkpt>
      <trkpt lat="45.93486" lon="4.73014">
        <ele>170</ele>
        <time>2018-05-12T09:00:04Z</time>
      </trkpt>
      <trkpt lat="45.93485" lon="4.73021">
        <ele>170</ele>
        <time>2018-05-12T09:00:05Z</time>
      </trkpt>
      <trkpt lat="45.93485" lon="4.73027">
        <ele>170</ele>
        <time>2018-05-12T09:00:06Z</time>
      </trkpt>
      <trkpt lat="45.93485" lon="4.73034">
        <ele>170</ele>
        <time>2018-05-12T09:00:07Z</time>
      </trkpt>
      <trkpt lat="45.93485" lon="4.73046">
        <ele>170</ele>
        <time>2018-05-12T09:00:09Z</time>
      </trkpt>
      <trkpt lat="45.93485" lon="4.73052">
        <ele>170</ele>
        <time>2018-05-12T09:00:10Z</time>
      </trkpt>
      <trkpt lat="45.93484" lon="4.7306">
        <ele>170</ele>
        <time>2018-05-12T09:00:11Z</time>
      </trkpt>
      <trkpt lat="45.93484" lon="4.73068">
        <ele>170</ele>
        <time>2018-05-12T09:00:12Z</time>
      </trkpt>
      <trkpt lat="45.93483" lon="4.73076">
        <ele>170</ele>
        <time>2018-05-12T09:00:13Z</time>
      </trkpt>
      <trkpt lat="45.93483" lon="4.73083">
        <ele>170</ele>
        <time>2018-05-12T09:00:14Z</time>
      </trkpt>
      <trkpt lat="45.93481" lon="4.73094">
        <ele>170</ele>
        <time>2018-05-12T09:00:16Z</time>
      </trkpt>
      <trkpt lat="45.93481" lon="4.73101">
        <ele>170</ele>
        <time>2018-05-12T09:00:17Z</time>
      </trkpt>
      <trkpt lat="45.93481" lon="4.73113">
        <ele>170</ele>
        <time>2018-05-12T09:00:19Z</time>
      </trkpt>
      <trkpt lat="45.93482" lon="4.73119">
        <ele>170</ele>
        <time>2018-05-12T09:00:20Z</time>
      </trkpt>
      <trkpt lat="45.93483" lon="4.73131">
        <ele>170</ele>
        <time>2018-05-12T09:00:22Z</time>
      </trkpt>
      <trkpt lat="45.93483" lon="4.73137">
        <ele>170</ele>
        <time>2018-05-12T09:00:23Z</time>
      </trkpt>
      <trkpt lat="45.93484" lon="4.73144">
        <ele>170</ele>
        <time>2018-05-12T09:00:24Z</time>
      </trkpt>
      <trkpt lat="45.93486" lon="4.73152">
        <ele>170</ele>
        <time>2018-05-12T09:00:25Z</time>
      </trkpt>
      <trkpt lat="45.93487" lon="4.73158">
        <ele>170</ele>
        <time>2018-05-12T09:00:26Z</time>
      </trkpt>
      <trkpt lat="45.93488" lon="4.73165">
        <ele>170</ele>
        <time>2018-05-12T09:00:27Z</time>
      </trkpt>
      <trkpt lat="45.93493" lon="4.73175">
        <ele>169</ele>
        <time>2018-05-12T09:00:29Z</time>
      </trkpt>
      <trkpt lat="45.93495" lon="4.73181">
        <ele>169</ele>
        <time>2018-05-12T09:00:30Z</time>
      </trkpt>
      <trkpt lat="45.93497" lon="4.73188">
        <ele>169</ele>
        <time>2018-05-12T09:00:31Z</time>
      </trkpt>
      <trkpt lat="45.93498" lon="4.73195">
        <ele>169</ele>
        <time>2018-05-12T09:00:32Z</time>
      </trkpt>
      <trkpt lat="45.935" lon="4.732">
        <ele>169</ele>
        <time>2018-05-12T09:00:33Z</time>
      </trkpt>
      <trkpt lat="45.93501" lon="4.73207">
        <ele>169</ele>
        <time>2018-05-12T09:00:34Z</time>
      </trkpt>
      <trkpt lat="45.93502" lon="4.73215">
        <ele>169</ele>
        <time>2018-05-12T09:00:35Z</time>
      </trkpt>
      <trkpt lat="45.93504" lon="4.73223">
        <ele>169</ele>
        <time>2018-05-12T09:00:36Z</time>
      </trkpt>
      <trkpt lat="45.93506" lon="4.73235">
        <ele>169</ele>
        <time>2018-05-12T09:00:38Z</time>
      </trkpt>
      <trkpt lat="45.93508" lon="4.73241">
        <ele>169</ele>
        <time>2018-05-12T09:00:39Z</time>
      </trkpt>
      <trkpt lat="45.93509" lon="4.73253">
        <ele>169</ele>
        <time>2018-05-12T09:00:41Z</time>
      </trkpt>
      <trkpt lat="45.9351" lon="4.73259">
        <ele>169</ele>
        <time>2018-05-12T09:00:42Z</time>
      </trkpt>
      <trkpt lat="45.93512" lon="4.73269">
        <ele>169</ele>
        <time>2018-05-12T09:00:44Z</time>
      </trkpt>
      <trkpt lat="45.93512" lon="4.73274">
        <ele>169</ele>
        <time>2018-05-12T09:00:45Z</time>
      </trkpt>
      <trkpt lat="45.93515" lon="4.73285">
        <ele>169</ele>
        <time>2018-05-12T09:00:47Z</time>
      </trkpt>
      <trkpt lat="45.93517" lon="4.7329">
        <ele>169</ele>
        <time>2018-05-12T09:00:48Z</time>
      </trkpt>
      <trkpt lat="45.93519" lon="4.73302">
        <ele>169</ele>
        <time>2018-05-12T09:00:50Z</time>
      </trkpt>
      <trkpt lat="45.9352" lon="4.73308">
        <ele>169</ele>
        <time>2018-05-12T09:00:51Z</time>
      </trkpt>
      <trkpt lat="45.93521" lon="4.7332">
        <ele>169</ele>
        <time>2018-05-12T09:00:53Z</time>
      </trkpt>
      <trkpt lat="45.93523" lon="4.73327">
        <ele>169</ele>
        <time>2018-05-12T09:00:54Z</time>
      </trkpt>
      <trkpt lat="45.93524" lon="4.73334">
        <ele>169</ele>
        <time>2018-05-12T09:00:55Z</time>
      </trkpt>
      <trkpt lat="45.93524" lon="4.73341">
        <ele>169</ele>
        <time>2018-05-12T09:00:56Z</time>
      </trkpt>
      <trkpt lat="45.93526" lon="4.73353">
        <ele>169</ele>
        <time>2018-05-12T09:00:58Z</time>
      </trkpt>
      <trkpt lat="45.93527" lon="4.73359">
        <ele>169</ele>
        <time>2018-05-12T09:00:59Z</time>
      </trkpt>
      <trkpt lat="45.93529" lon="4.73369">
        <ele>169</ele>
        <time>2018-05-12T09:01:01Z</time>
      </trkpt>
      <trkpt lat="45.93531" lon="4.73375">
        <ele>169</ele>
        <time>2018-05-12T09:01:02Z</time>
      </trkpt>
      <trkpt lat="45.93535" lon="4.73394">
        <ele>169</ele>
        <time>2018-05-12T09:01:05Z</time>
      </trkpt>
      <trkpt lat="45.93535" lon="4.73401">
        <ele>169</ele>
        <time>2018-05-12T09:01:06Z</time>
      </trkpt>
      <trkpt lat="45.93536" lon="4.73408">
        <ele>169</ele>
        <time>2018-05-12T09:01:07Z</time>
      </trkpt>
      <trkpt lat="45.93537" lon="4.73415">
        <ele>169</ele>
        <time>2018-05-12T09:01:08Z</time>
      </trkpt>
      <trkpt lat="45.93538" lon="4.73421">
        <ele>169</ele>
        <time>2018-05-12T09:01:09Z</time>
      </trkpt>
      <trkpt lat="45.9354" lon="4.73433">
        <ele>169</ele>
        <time>2018-05-12T09:01:11Z</time>
      </trkpt>
      <trkpt lat="45.93542" lon="4.73438">
        <ele>169</ele>
        <time>2018-05-12T09:01:12Z</time>
      </trkpt>
      <trkpt lat="45.93545" lon="4.73449">
        <ele>169</ele>
        <time>2018-05-12T09:01:14Z</time>
      </trkpt>
      <trkpt lat="45.93547" lon="4.73455">
        <ele>169</ele>
        <time>2018-05-12T09:01:15Z</time>
      </trkpt>
      <trkpt lat="45.93551" lon="4.73467">
        <ele>169</ele>
        <time>2018-05-12T09:01:17Z</time>
      </trkpt>
      <trkpt lat="45.93553" lon="4.73473">
        <ele>169</ele>
        <time>2018-05-12T09:01:18Z</time>
      </trkpt>
      <trkpt lat="45.93555" lon="4.73479">
        <ele>169</ele>
        <time>2018-05-12T09:01:19Z</time>
      </trkpt>
      <trkpt lat="45.93557" lon="4.73485">
        <ele>169</ele>
        <time>2018-05-12T09:01:20Z</time>
      </trkpt>
      <trkpt lat="45.93558" lon="4.73492">
        <ele>169</ele>
        <time>2018-05-12T09:01:22Z</time>
      </trkpt>
      <trkpt lat="45.93559" lon="4.735">
        <ele>169</ele>
        <time>2018-05-12T09:01:23Z</time>
      </trkpt>
      <trkpt lat="45.93561" lon="4.73512">
        <ele>169</ele>
        <time>2018-05-12T09:01:25Z</time>
      </trkpt>
      <trkpt lat="45.93562" lon="4.73517">
        <ele>169</ele>
        <time>2018-05-12T09:01:26Z</time>
      </trkpt>
      <trkpt lat="45.93564" lon="4.73523">
        <ele>169</ele>
        <time>2018-05-12T09:01:27Z</time>
      </trkpt>
      <trkpt lat="45.93565" lon="4.7353">
        <ele>169</ele>
        <time>2018-05-12T09:01:28Z</time>
      </trkpt>
      <trkpt lat="45.93566" lon="4.73537">
        <ele>169</ele>
        <time>2018-05-12T09:01:29Z</time>
      </trkpt>
      <trkpt lat="45.93568" lon="4.73544">
        <ele>169</ele>
        <time>2018-05-12T09:01:30Z</time>
      </trkpt>
      <trkpt lat="45.9357" lon="4.73551">
        <ele>168</ele>
        <time>2018-05-12T09:01:31Z</time>
      </trkpt>
      <trkpt lat="45.93571" lon="4.73559">
        <ele>168</ele>
        <time>2018-05-12T09:01:32Z</time>
      </trkpt>
      <trkpt lat="45.93572" lon="4.73566">
        <ele>168</ele>
        <time>2018-05-12T09:01:33Z</time>
      </trkpt>
      <trkpt lat="45.93573" lon="4.73572">
        <ele>168</ele>
        <time>2018-05-12T09:01:34Z</time>
      </trkpt>
      <trkpt lat="45.93575" lon="4.73584">
        <ele>168</ele>
        <time>2018-05-12T09:01:36Z</time>
      </trkpt>
      <trkpt lat="45.93576" lon="4.7359">
        <ele>168</ele>
        <time>2018-05-12T09:01:37Z</time>
      </trkpt>
      <trkpt lat="45.93577" lon="4.73597">
        <ele>168</ele>
        <time>2018-05-12T09:01:38Z</time>
      </trkpt>
      <trkpt lat="45.93577" lon="4.73604">
        <ele>168</ele>
        <time>2018-05-12T09:01:39Z</time>
      </trkpt>
      <trkpt lat="45.93578" lon="4.7361">
        <ele>168</ele>
        <time>2018-05-12T09:01:40Z</time>
      </trkpt>
      <trkpt lat="45.93579" lon="4.73617">
        <ele>168</ele>
        <time>2018-05-12T09:01:41Z</time>
      </trkpt>
      <trkpt lat="45.93579" lon="4.73624">
        <ele>168</ele>
        <time>2018-05-12T09:01:42Z</time>
      </trkpt>
      <trkpt lat="45.9358" lon="4.7363">
        <ele>168</ele>
        <time>2018-05-12T09:01:43Z</time>
      </trkpt>
      <trkpt lat="45.93581" lon="4.73638">
        <ele>168</ele>
        <time>2018-05-12T09:01:44Z</time>
      </trkpt>
      <trkpt lat="45.93581" lon="4.73645">
        <ele>168</ele>
        <time>2018-05-12T09:01:45Z</time>
      </trkpt>
      <trkpt lat="45.93582" lon="4.73652">
        <ele>168</ele>
        <time>2018-05-12T09:01:46Z</time>
      </trkpt>
      <trkpt lat="45.93583" lon="4.73659">
        <ele>168</ele>
        <time>2018-05-12T09:01:47Z</time>
      </trkpt>
      <trkpt lat="45.93583" lon="4.73665">
        <ele>168</ele>
        <time>2018-05-12T09:01:48Z</time>
      </trkpt>
      <trkpt lat="45.93584" lon="4.73672">
        <ele>168</ele>
        <time>2018-05-12T09:01:49Z</time>
      </trkpt>
      <trkpt lat="45.93584" lon="4.73684">
        <ele>169</ele>
        <time>2018-05-12T09:01:51Z</time>
      </trkpt>
      <trkpt lat="45.93583" lon="4.7369">
        <ele>169</ele>
        <time>2018-05-12T09:01:52Z</time>
      </trkpt>
      <trkpt lat="45.93583" lon="4.73696">
        <ele>169</ele>
        <time>2018-05-12T09:01:53Z</time>
      </trkpt>
      <trkpt lat="45.93582" lon="4.73703">
        <ele>169</ele>
        <time>2018-05-12T09:01:54Z</time>
      </trkpt>
      <trkpt lat="45.93582" lon="4.7371">
        <ele>169</ele>
        <time>2018-05-12T09:01:55Z</time>
      </trkpt>
      <trkpt lat="45.9358" lon="4.73716">
        <ele>169</ele>
        <time>2018-05-12T09:01:56Z</time>
      </trkpt>
      <trkpt lat="45.93577" lon="4.73722">
        <ele>169</ele>
        <time>2018-05-12T09:01:57Z</time>
      </trkpt>
      <trkpt lat="45.93574" lon="4.73727">
        <ele>169</ele>
        <time>2018-05-12T09:01:58Z</time>
      </trkpt>
      <trkpt lat="45.9357" lon="4.7373">
        <ele>169</ele>
        <time>2018-05-12T09:01:59Z</time>
      </trkpt>
      <trkpt lat="45.93566" lon="4.73734">
        <ele>169</ele>
        <time>2018-05-12T09:02:00Z</time>
      </trkpt>
      <trkpt lat="45.93559" lon="4.73741">
        <ele>169</ele>
        <time>2018-05-12T09:02:02Z</time>
      </trkpt>
      <trkpt lat="45.93557" lon="4.73744">
        <ele>169</ele>
        <time>2018-05-12T09:02:03Z</time>
      </trkpt>
      <trkpt lat="45.93551" lon="4.7375">
        <ele>169</ele>
        <time>2018-05-12T09:02:05Z</time>
      </trkpt>
      <trkpt lat="45.93547" lon="4.73754">
        <ele>169</ele>
        <time>2018-05-12T09:02:06Z</time>
      </trkpt>
      <trkpt lat="45.93543" lon="4.73758">
        <ele>169</ele>
        <time>2018-05-12T09:02:07Z</time>
      </trkpt>
      <trkpt lat="45.9354" lon="4.73761">
        <ele>169</ele>
        <time>2018-05-12T09:02:08Z</time>
      </trkpt>
      <trkpt lat="45.93534" lon="4.73769">
        <ele>169</ele>
        <time>2018-05-12T09:02:10Z</time>
      </trkpt>
      <trkpt lat="45.9353" lon="4.73773">
        <ele>169</ele>
        <time>2018-05-12T09:02:11Z</time>
      </trkpt>
      <trkpt lat="45.93524" lon="4.73781">
        <ele>169</ele>
        <time>2018-05-12T09:02:13Z</time>
      </trkpt>
      <trkpt lat="45.93521" lon="4.73785">
        <ele>169</ele>
        <time>2018-05-12T09:02:14Z</time>
      </trkpt>
      <trkpt lat="45.93515" lon="4.73791">
        <ele>169</ele>
        <time>2018-05-12T09:02:16Z</time>
      </trkpt>
      <trkpt lat="45.93511" lon="4.73793">
        <ele>169</ele>
        <time>2018-05-12T09:02:17Z</time>
      </trkpt>
      <trkpt lat="45.93505" lon="4.73799">
        <ele>169</ele>
        <time>2018-05-12T09:02:19Z</time>
      </trkpt>
      <trkpt lat="45.93501" lon="4.73803">
        <ele>169</ele>
        <time>2018-05-12T09:02:20Z</time>
      </trkpt>
      <trkpt lat="45.93495" lon="4.73809">
        <ele>169</ele>
        <time>2018-05-12T09:02:22Z</time>
      </trkpt>
      <trkpt lat="45.93492" lon="4.7381">
        <ele>169</ele>
        <time>2018-05-12T09:02:23Z</time>
      </trkpt>
      <trkpt lat="45.93484" lon="4.73814">
        <ele>169</ele>
        <time>2018-05-12T09:02:25Z</time>
      </trkpt>
      <trkpt lat="45.9348" lon="4.73817">
        <ele>169</ele>
        <time>2018-05-12T09:02:26Z</time>
      </trkpt>
      <trkpt lat="45.93473" lon="4.7382">
        <ele>169</ele>
        <time>2018-05-12T09:02:28Z</time>
      </trkpt>
      <trkpt lat="45.93471" lon="4.73821">
        <ele>169</ele>
        <time>2018-05-12T09:02:29Z</time>
      </trkpt>
      <trkpt lat="45.93465" lon="4.73824">
        <ele>169</ele>
        <time>2018-05-12T09:02:30Z</time>
      </trkpt>
      <trkpt lat="45.93461" lon="4.73826">
        <ele>169</ele>
        <time>2018-05-12T09:02:31Z</time>
      </trkpt>
      <trkpt lat="45.93454" lon="4.7383">
        <ele>169</ele>
        <time>2018-05-12T09:02:33Z</time>
      </trkpt>
      <trkpt lat="45.9345" lon="4.73832">
        <ele>169</ele>
        <time>2018-05-12T09:02:34Z</time>
      </trkpt>
      <trkpt lat="45.93443" lon="4.73835">
        <ele>169</ele>
        <time>2018-05-12T09:02:36Z</time>
      </trkpt>
      <trkpt lat="45.93439" lon="4.73837">
        <ele>169</ele>
        <time>2018-05-12T09:02:37Z</time>
      </trkpt>
      <trkpt lat="45.93432" lon="4.7384">
        <ele>169</ele>
        <time>2018-05-12T09:02:39Z</time>
      </trkpt>
      <trkpt lat="45.93428" lon="4.73841">
        <ele>169</ele>
        <time>2018-05-12T09:02:40Z</time>
      </trkpt>
      <trkpt lat="45.93423" lon="4.73844">
        <ele>169</ele>
        <time>2018-05-12T09:02:42Z</time>
      </trkpt>
      <trkpt lat="45.93418" lon="4.73846">
        <ele>169</ele>
        <time>2018-05-12T09:02:43Z</time>
      </trkpt>
      <trkpt lat="45.93412" lon="4.7385">
        <ele>169</ele>
        <time>2018-05-12T09:02:45Z</time>
      </trkpt>
      <trkpt lat="45.93407" lon="4.73852">
        <ele>169</ele>
        <time>2018-05-12T09:02:46Z</time>
      </trkpt>
      <trkpt lat="45.93401" lon="4.73857">
        <ele>169</ele>
        <time>2018-05-12T09:02:48Z</time>
      </trkpt>
      <trkpt lat="45.93397" lon="4.73859">
        <ele>169</ele>
        <time>2018-05-12T09:02:49Z</time>
      </trkpt>
      <trkpt lat="45.93391" lon="4.73863">
        <ele>169</ele>
        <time>2018-05-12T09:02:51Z</time>
      </trkpt>
      <trkpt lat="45.93387" lon="4.73865">
        <ele>169</ele>
        <time>2018-05-12T09:02:52Z</time>
      </trkpt>
      <trkpt lat="45.93381" lon="4.73869">
        <ele>169</ele>
        <time>2018-05-12T09:02:54Z</time>
      </trkpt>
      <trkpt lat="45.93377" lon="4.73871">
        <ele>169</ele>
        <time>2018-05-12T09:02:55Z</time>
      </trkpt>
      <trkpt lat="45.9337" lon="4.73876">
        <ele>168</ele>
        <time>2018-05-12T09:02:58Z</time>
      </trkpt>
      <trkpt lat="45.93368" lon="4.73879">
        <ele>168</ele>
        <time>2018-05-12T09:02:59Z</time>
      </trkpt>
      <trkpt lat="45.93362" lon="4.73885">
        <ele>168</ele>
        <time>2018-05-12T09:03:00Z</time>
      </trkpt>
      <trkpt lat="45.93359" lon="4.73889">
        <ele>168</ele>
        <time>2018-05-12T09:03:01Z</time>
      </trkpt>
      <trkpt lat="45.93354" lon="4.73896">
        <ele>168</ele>
        <time>2018-05-12T09:03:03Z</time>
      </trkpt>
      <trkpt lat="45.93352" lon="4.739">
        <ele>168</ele>
        <time>2018-05-12T09:03:04Z</time>
      </trkpt>
      <trkpt lat="45.93347" lon="4.73909">
        <ele>168</ele>
        <time>2018-05-12T09:03:06Z</time>
      </trkpt>
      <trkpt lat="45.93344" lon="4.73913">
        <ele>168</ele>
        <time>2018-05-12T09:03:07Z</time>
      </trkpt>
      <trkpt lat="45.9334" lon="4.73921">
        <ele>168</ele>
        <time>2018-05-12T09:03:10Z</time>
      </trkpt>
      <trkpt lat="45.93339" lon="4.73924">
        <ele>168</ele>
        <time>2018-05-12T09:03:11Z</time>
      </trkpt>
      <trkpt lat="45.93333" lon="4.73933">
        <ele>168</ele>
        <time>2018-05-12T09:03:12Z</time>
      </trkpt>
      <trkpt lat="45.93331" lon="4.73937">
        <ele>168</ele>
        <time>2018-05-12T09:03:13Z</time>
      </trkpt>
      <trkpt lat="45.93326" lon="4.73946">
        <ele>168</ele>
        <time>2018-05-12T09:03:15Z</time>
      </trkpt>
      <trkpt lat="45.93324" lon="4.7395">
        <ele>168</ele>
        <time>2018-05-12T09:03:16Z</time>
      </trkpt>
      <trkpt lat="45.93319" lon="4.73959">
        <ele>168</ele>
        <time>2018-05-12T09:03:18Z</time>
      </trkpt>
      <trkpt lat="45.93318" lon="4.73961">
        <ele>168</ele>
        <time>2018-05-12T09:03:19Z</time>
      </trkpt>
      <trkpt lat="45.93313" lon="4.73971">
        <ele>168</ele>
        <time>2018-05-12T09:03:21Z</time>
      </trkpt>
      <trkpt lat="45.9331" lon="4.73976">
        <ele>168</ele>
        <time>2018-05-12T09:03:22Z</time>
      </trkpt>
      <trkpt lat="45.93305" lon="4.73985">
        <ele>168</ele>
        <time>2018-05-12T09:03:24Z</time>
      </trkpt>
      <trkpt lat="45.93304" lon="4.73987">
        <ele>168</ele>
        <time>2018-05-12T09:03:25Z</time>
      </trkpt>
      <trkpt lat="45.93302" lon="4.7399">
        <ele>168</ele>
        <time>2018-05-12T09:03:26Z</time>
      </trkpt>
      <trkpt lat="45.93298" lon="4.73998">
        <ele>168</ele>
        <time>2018-05-12T09:03:27Z</time>
      </trkpt>
      <trkpt lat="45.93293" lon="4.74007">
        <ele>168</ele>
        <time>2018-05-12T09:03:29Z</time>
      </trkpt>
      <trkpt lat="45.93291" lon="4.74012">
        <ele>168</ele>
        <time>2018-05-12T09:03:30Z</time>
      </trkpt>
      <trkpt lat="45.93286" lon="4.74022">
        <ele>168</ele>
        <time>2018-05-12T09:03:32Z</time>
      </trkpt>
      <trkpt lat="45.93283" lon="4.74026">
        <ele>168</ele>
        <time>2018-05-12T09:03:33Z</time>
      </trkpt>
      <trkpt lat="45.93278" lon="4.74035">
        <ele>168</ele>
        <time>2018-05-12T09:03:35Z</time>
      </trkpt>
      <trkpt lat="45.93276" lon="4.7404">
        <ele>168</ele>
        <time>2018-05-12T09:03:36Z</time>
      </trkpt>
      <trkpt lat="45.93272" lon="4.74048">
        <ele>168</ele>
        <time>2018-05-12T09:03:39Z</time>
      </trkpt>
      <trkpt lat="45.93271" lon="4.74051">
        <ele>168</ele>
        <time>2018-05-12T09:03:40Z</time>
      </trkpt>
      <trkpt lat="45.93266" lon="4.74061">
        <ele>168</ele>
        <time>2018-05-12T09:03:41Z</time>
      </trkpt>
      <trkpt lat="45.93264" lon="4.74065">
        <ele>167</ele>
        <time>2018-05-12T09:03:42Z</time>
      </trkpt>
      <trkpt lat="45.93259" lon="4.74075">
        <ele>167</ele>
        <time>2018-05-12T09:03:44Z</time>
      </trkpt>
      <trkpt lat="45.93257" lon="4.74079">
        <ele>167</ele>
        <time>2018-05-12T09:03:45Z</time>
      </trkpt>
      <trkpt lat="45.93252" lon="4.74089">
        <ele>167</ele>
        <time>2018-05-12T09:03:47Z</time>
      </trkpt>
      <trkpt lat="45.9325" lon="4.74094">
        <ele>167</ele>
        <time>2018-05-12T09:03:48Z</time>
      </trkpt>
      <trkpt lat="45.93245" lon="4.74103">
        <ele>167</ele>
        <time>2018-05-12T09:03:51Z</time>
      </trkpt>
      <trkpt lat="45.9324" lon="4.74109">
        <ele>167</ele>
        <time>2018-05-12T09:03:52Z</time>
      </trkpt>
      <trkpt lat="45.93236" lon="4.74113">
        <ele>167</ele>
        <time>2018-05-12T09:03:54Z</time>
      </trkpt>
      <trkpt lat="45.93231" lon="4.74115">
        <ele>167</ele>
        <time>2018-05-12T09:03:55Z</time>
      </trkpt>
      <trkpt lat="45.93222" lon="4.74115">
        <ele>167</ele>
        <time>2018-05-12T09:03:58Z</time>
      </trkpt>
      <trkpt lat="45.9322" lon="4.74115">
        <ele>167</ele>
        <time>2018-05-12T09:03:59Z</time>
      </trkpt>
      <trkpt lat="45.93212" lon="4.7411">
        <ele>167</ele>
        <time>2018-05-12T09:04:02Z</time>
      </trkpt>
      <trkpt lat="45.93209" lon="4.74107">
        <ele>167</ele>
        <time>2018-05-12T09:04:03Z</time>
      </trkpt>
      <trkpt lat="45.93201" lon="4.74099">
        <ele>167</ele>
        <time>2018-05-12T09:04:04Z</time>
      </trkpt>
      <trkpt lat="45.93196" lon="4.74094">
        <ele>167</ele>
        <time>2018-05-12T09:04:06Z</time>
      </trkpt>
      <trkpt lat="45.93192" lon="4.7409">
        <ele>167</ele>
        <time>2018-05-12T09:04:07Z</time>
      </trkpt>
      <trkpt lat="45.93185" lon="4.74084">
        <ele>168</ele>
        <time>2018-05-12T09:04:10Z</time>
      </trkpt>
      <trkpt lat="45.93179" lon="4.74078">
        <ele>168</ele>
        <time>2018-05-12T09:04:11Z</time>
      </trkpt>
      <trkpt lat="45.93173" lon="4.7407">
        <ele>168</ele>
        <time>2018-05-12T09:04:14Z</time>
      </trkpt>
      <trkpt lat="45.93171" lon="4.74068">
        <ele>168</ele>
        <time>2018-05-12T09:04:15Z</time>
      </trkpt>
      <trkpt lat="45.93169" lon="4.74066">
        <ele>168</ele>
        <time>2018-05-12T09:04:16Z</time>
      </trkpt>
      <trkpt lat="45.93162" lon="4.7406">
        <ele>168</ele>
        <time>2018-05-12T09:04:17Z</time>
      </trkpt>
      <trkpt lat="45.93156" lon="4.74054">
        <ele>168</ele>
        <time>2018-05-12T09:04:19Z</time>
      </trkpt>
      <trkpt lat="45.93153" lon="4.74051">
        <ele>168</ele>
        <time>2018-05-12T09:04:20Z</time>
      </trkpt>
      <trkpt lat="45.93147" lon="4.74045">
        <ele>168</ele>
        <time>2018-05-12T09:04:22Z</time>
      </trkpt>
      <trkpt lat="45.93143" lon="4.74042">
        <ele>168</ele>
        <time>2018-05-12T09:04:23Z</time>
      </trkpt>
      <trkpt lat="45.93136" lon="4.74036">
        <ele>168</ele>
        <time>2018-05-12T09:04:25Z</time>
      </trkpt>
      <trkpt lat="45.93132" lon="4.74033">
        <ele>168</ele>
        <time>2018-05-12T09:04:26Z</time>
      </trkpt>
      <trkpt lat="45.93128" lon="4.74031">
        <ele>168</ele>
        <time>2018-05-12T09:04:27Z</time>
      </trkpt>
      <trkpt lat="45.93124" lon="4.74029">
        <ele>168</ele>
        <time>2018-05-12T09:04:28Z</time>
      </trkpt>
      <trkpt lat="45.93119" lon="4.74027">
        <ele>168</ele>
        <time>2018-05-12T09:04:29Z</time>
      </trkpt>
      <trkpt lat="45.93115" lon="4.74026">
        <ele>168</ele>
        <time>2018-05-12T09:04:30Z</time>
      </trkpt>
      <trkpt lat="45.93106" lon="4.74024">
        <ele>168</ele>
        <time>2018-05-12T09:04:32Z</time>
      </trkpt>
      <trkpt lat="45.93102" lon="4.74022">
        <ele>168</ele>
        <time>2018-05-12T09:04:33Z</time>
      </trkpt>
      <trkpt lat="45.93094" lon="4.74019">
        <ele>168</ele>
        <time>2018-05-12T09:04:35Z</time>
      </trkpt>
      <trkpt lat="45.9309" lon="4.74019">
        <ele>168</ele>
        <time>2018-05-12T09:04:36Z</time>
      </trkpt>
      <trkpt lat="45.93082" lon="4.74019">
        <ele>169</ele>
        <time>2018-05-12T09:04:38Z</time>
      </trkpt>
      <trkpt lat="45.93079" lon="4.7402">
        <ele>169</ele>
        <time>2018-05-12T09:04:39Z</time>
      </trkpt>
      <trkpt lat="45.93074" lon="4.7402">
        <ele>169</ele>
        <time>2018-05-12T09:04:41Z</time>
      </trkpt>
      <trkpt lat="45.93069" lon="4.74019">
        <ele>169</ele>
        <time>2018-05-12T09:04:42Z</time>
      </trkpt>
      <trkpt lat="45.93061" lon="4.74015">
        <ele>169</ele>
        <time>2018-05-12T09:04:44Z</time>
      </trkpt>
      <trkpt lat="45.93057" lon="4.74013">
        <ele>169</ele>
        <time>2018-05-12T09:04:45Z</time>
      </trkpt>
      <trkpt lat="45.93049" lon="4.7401">
        <ele>169</ele>
        <time>2018-05-12T09:04:47Z</time>
      </trkpt>
      <trkpt lat="45.93044" lon="4.74009">
        <ele>169</ele>
        <time>2018-05-12T09:04:48Z</time>
      </trkpt>
      <trkpt lat="45.93036" lon="4.74006">
        <ele>169</ele>
        <time>2018-05-12T09:04:50Z</time>
      </trkpt>
      <trkpt lat="45.93032" lon="4.74005">
        <ele>169</ele>
        <time>2018-05-12T09:04:51Z</time>
      </trkpt>
      <trkpt lat="45.93025" lon="4.74002">
        <ele>170</ele>
        <time>2018-05-12T09:04:53Z</time>
      </trkpt>
      <trkpt lat="45.93021" lon="4.74001">
        <ele>170</ele>
        <time>2018-05-12T09:04:54Z</time>
      </trkpt>
      <trkpt lat="45.93015" lon="4.74003">
        <ele>170</ele>
        <time>2018-05-12T09:04:57Z</time>
      </trkpt>
      <trkpt lat="45.93008" lon="4.74008">
        <ele>170</ele>
        <time>2018-05-12T09:04:58Z</time>
      </trkpt>
      <trkpt lat="45.93003" lon="4.74017">
        <ele>170</ele>
        <time>2018-05-12T09:05:00Z</time>
      </trkpt>
      <trkpt lat="45.93001" lon="4.74022">
        <ele>170</ele>
        <time>2018-05-12T09:05:01Z</time>
      </trkpt>
      <trkpt lat="45.92998" lon="4.74033">
        <ele>171</ele>
        <time>2018-05-12T09:05:03Z</time>
      </trkpt>
      <trkpt lat="45.92997" lon="4.74039">
        <ele>171</ele>
        <time>2018-05-12T09:05:04Z</time>
      </trkpt>
      <trkpt lat="45.92995" lon="4.74051">
        <ele>171</ele>
        <time>2018-05-12T09:05:06Z</time>
      </trkpt>
      <trkpt lat="45.92995" lon="4.74057">
        <ele>171</ele>
        <time>2018-05-12T09:05:07Z</time>
      </trkpt>
      <trkpt lat="45.92996" lon="4.7407">
        <ele>171</ele>
        <time>2018-05-12T09:05:09Z</time>
      </trkpt>
      <trkpt lat="45.92997" lon="4.74078">
        <ele>171</ele>
        <time>2018-05-12T09:05:10Z</time>
      </trkpt>
      <trkpt lat="45.92996" lon="4.7409">
        <ele>171</ele>
        <time>2018-05-12T09:05:12Z</time>
      </trkpt>
      <trkpt lat="45.92996" lon="4.74096">
        <ele>171</ele>
        <time>2018-05-12T09:05:13Z</time>
      </trkpt>
      <trkpt lat="45.92995" lon="4.74107">
        <ele>171</ele>
        <time>2018-05-12T09:05:16Z</time>
      </trkpt>
      <trkpt lat="45.92994" lon="4.74111">
        <ele>171</ele>
        <time>2018-05-12T09:05:17Z</time>
      </trkpt>
      <trkpt lat="45.92991" lon="4.74122">
        <ele>171</ele>
        <time>2018-05-12T09:05:20Z</time>
      </trkpt>
      <trkpt lat="45.9299" lon="4.74126">
        <ele>171</ele>
        <time>2018-05-12T09:05:21Z</time>
      </trkpt>
      <trkpt lat="45.92987" lon="4.74137">
        <ele>171</ele>
        <time>2018-05-12T09:05:24Z</time>
      </trkpt>
      <trkpt lat="45.92986" lon="4.74141">
        <ele>171</ele>
        <time>2018-05-12T09:05:25Z</time>
      </trkpt>
      <trkpt lat="45.92983" lon="4.74151">
        <ele>170</ele>
        <time>2018-05-12T09:05:28Z</time>
      </trkpt>
      <trkpt lat="45.92983" lon="4.74155">
        <ele>170</ele>
        <time>2018-05-12T09:05:29Z</time>
      </trkpt>
      <trkpt lat="45.9298" lon="4.74166">
        <ele>170</ele>
        <time>2018-05-12T09:05:32Z</time>
      </trkpt>
      <trkpt lat="45.9298" lon="4.74169">
        <ele>170</ele>
        <time>2018-05-12T09:05:33Z</time>
      </trkpt>
      <trkpt lat="45.92977" lon="4.74178">
        <ele>170</ele>
        <time>2018-05-12T09:05:36Z</time>
      </trkpt>
      <trkpt lat="45.92976" lon="4.74181">
        <ele>170</ele>
        <time>2018-05-12T09:05:37Z</time>
      </trkpt>
      <trkpt lat="45.92972" lon="4.7419">
        <ele>170</ele>
        <time>2018-05-12T09:05:40Z</time>
      </trkpt>
      <trkpt lat="45.92971" lon="4.74193">
        <ele>170</ele>
        <time>2018-05-12T09:05:41Z</time>
      </trkpt>
      <trkpt lat="45.92966" lon="4.74201">
        <ele>170</ele>
        <time>2018-05-12T09:05:44Z</time>
      </trkpt>
      <trkpt lat="45.92964" lon="4.74203">
        <ele>170</ele>
        <time>2018-05-12T09:05:45Z</time>
      </trkpt>
      <trkpt lat="45.92957" lon="4.74207">
        <ele>170</ele>
        <time>2018-05-12T09:05:48Z</time>
      </trkpt>
      <trkpt lat="45.92955" lon="4.74208">
        <ele>170</ele>
        <time>2018-05-12T09:05:49Z</time>
      </trkpt>
      <trkpt lat="45.92947" lon="4.74208">
        <ele>170</ele>
        <time>2018-05-12T09:05:52Z</time>
      </trkpt>
      <trkpt lat="45.92944" lon="4.74207">
        <ele>170</ele>
        <time>2018-05-12T09:05:53Z</time>
      </trkpt>
      <trkpt lat="45.92938" lon="4.74204">
        <ele>170</ele>
        <time>2018-05-12T09:05:55Z</time>
      </trkpt>
      <trkpt lat="45.92935" lon="4.74202">
        <ele>170</ele>
        <time>2018-05-12T09:05:56Z</time>
      </trkpt>
      <trkpt lat="45.92926" lon="4.74195">
        <ele>170</ele>
        <time>2018-05-12T09:05:57Z</time>
      </trkpt>
      <trkpt lat="45.92919" lon="4.74191">
        <ele>171</ele>
        <time>2018-05-12T09:06:00Z</time>
      </trkpt>
      <trkpt lat="45.92917" lon="4.74189">
        <ele>171</ele>
        <time>2018-05-12T09:06:01Z</time>
      </trkpt>
      <trkpt lat="45.92911" lon="4.74185">
        <ele>172</ele>
        <time>2018-05-12T09:06:03Z</time>
      </trkpt>
      <trkpt lat="45.92908" lon="4.74183">
        <ele>172</ele>
        <time>2018-05-12T09:06:04Z</time>
      </trkpt>
      <trkpt lat="45.92901" lon="4.74178">
        <ele>172</ele>
        <time>2018-05-12T09:06:07Z</time>
      </trkpt>
      <trkpt lat="45.92898" lon="4.74176">
        <ele>172</ele>
        <time>2018-05-12T09:06:08Z</time>
      </trkpt>
      <trkpt lat="45.92892" lon="4.74172">
        <ele>171</ele>
        <time>2018-05-12T09:06:10Z</time>
      </trkpt>
      <trkpt lat="45.92889" lon="4.74169">
        <ele>171</ele>
        <time>2018-05-12T09:06:11Z</time>
      </trkpt>
      <trkpt lat="45.92883" lon="4.7416">
        <ele>172</ele>
        <time>2018-05-12T09:06:12Z</time>
      </trkpt>
      <trkpt lat="45.92882" lon="4.74157">
        <ele>172</ele>
        <time>2018-05-12T09:06:13Z</time>
      </trkpt>
      <trkpt lat="45.9288" lon="4.74149">
        <ele>172</ele>
        <time>2018-05-12T09:06:14Z</time>
      </trkpt>
      <trkpt lat="45.9288" lon="4.74143">
        <ele>172</ele>
        <time>2018-05-12T09:06:15Z</time>
      </trkpt>
      <trkpt lat="45.92881" lon="4.74131">
        <ele>172</ele>
        <time>2018-05-12T09:06:17Z</time>
      </trkpt>
      <trkpt lat="45.92887" lon="4.74124">
        <ele>172</ele>
        <time>2018-05-12T09:06:18Z</time>
      </trkpt>
      <trkpt lat="45.9289" lon="4.74118">
        <ele>172</ele>
        <time>2018-05-12T09:06:19Z</time>
      </trkpt>
      <trkpt lat="45.92895" lon="4.74113">
        <ele>172</ele>
        <time>2018-05-12T09:06:20Z</time>
      </trkpt>
      <trkpt lat="45.92898" lon="4.74106">
        <ele>172</ele>
        <time>2018-05-12T09:06:21Z</time>
      </trkpt>
      <trkpt lat="45.92902" lon="4.74101">
        <ele>172</ele>
        <time>2018-05-12T09:06:22Z</time>
      </trkpt>
      <trkpt lat="45.92906" lon="4.74095">
        <ele>172</ele>
        <time>2018-05-12T09:06:23Z</time>
      </trkpt>
      <trkpt lat="45.92909" lon="4.74088">
        <ele>173</ele>
        <time>2018-05-12T09:06:24Z</time>
      </trkpt>
      <trkpt lat="45.9291" lon="4.74078">
        <ele>173</ele>
        <time>2018-05-12T09:06:25Z</time>
      </trkpt>
      <trkpt lat="45.92911" lon="4.74069">
        <ele>173</ele>
        <time>2018-05-12T09:06:26Z</time>
      </trkpt>
      <trkpt lat="45.9291" lon="4.7406">
        <ele>172</ele>
        <time>2018-05-12T09:06:27Z</time>
      </trkpt>
      <trkpt lat="45.92911" lon="4.7405">
        <ele>172</ele>
        <time>2018-05-12T09:06:28Z</time>
      </trkpt>
      <trkpt lat="45.92912" lon="4.74042">
        <ele>172</ele>
        <time>2018-05-12T09:06:29Z</time>
      </trkpt>
      <trkpt lat="45.92914" lon="4.74033">
        <ele>172</ele>
        <time>2018-05-12T09:06:30Z</time>
      </trkpt>
      <trkpt lat="45.92914" lon="4.74026">
        <ele>172</ele>
        <time>2018-05-12T09:06:31Z</time>
      </trkpt>
      <trkpt lat="45.92914" lon="4.74018">
        <ele>172</ele>
        <time>2018-05-12T09:06:32Z</time>
      </trkpt>
      <trkpt lat="45.92914" lon="4.74011">
        <ele>172</ele>
        <time>2018-05-12T09:06:33Z</time>
      </trkpt>
      <trkpt lat="45.92912" lon="4.74003">
        <ele>172</ele>
        <time>2018-05-12T09:06:34Z</time>
      </trkpt>
      <trkpt lat="45.92909" lon="4.73996">
        <ele>172</ele>
        <time>2018-05-12T09:06:35Z</time>
      </trkpt>
      <trkpt lat="45.92906" lon="4.7399">
        <ele>172</ele>
        <time>2018-05-12T09:06:36Z</time>
      </trkpt>
      <trkpt lat="45.929" lon="4.73984">
        <ele>172</ele>
        <time>2018-05-12T09:06:38Z</time>
      </trkpt>
      <trkpt lat="45.92896" lon="4.73981">
        <ele>172</ele>
        <time>2018-05-12T09:06:39Z</time>
      </trkpt>
      <trkpt lat="45.92889" lon="4.73973">
        <ele>172</ele>
        <time>2018-05-12T09:06:41Z</time>
      </trkpt>
      <trkpt lat="45.92888" lon="4.73968">
        <ele>172</ele>
        <time>2018-05-12T09:06:42Z</time>
      </trkpt>
      <trkpt lat="45.92887" lon="4.73961">
        <ele>172</ele>
        <time>2018-05-12T09:06:43Z</time>
      </trkpt>
      <trkpt lat="45.92886" lon="4.73955">
        <ele>172</ele>
        <time>2018-05-12T09:06:44Z</time>
      </trkpt>
      <trkpt lat="45.92886" lon="4.73948">
        <ele>172</ele>
        <time>2018-05-12T09:06:45Z</time>
      </trkpt>
      <trkpt lat="45.92886" lon="4.7394">
        <ele>172</ele>
        <time>2018-05-12T09:06:46Z</time>
      </trkpt>
      <trkpt lat="45.92885" lon="4.73933">
        <ele>172</ele>
        <time>2018-05-12T09:06:47Z</time>
      </trkpt>
      <trkpt lat="45.92884" lon="4.73925">
        <ele>172</ele>
        <time>2018-05-12T09:06:48Z</time>
      </trkpt>
      <trkpt lat="45.92883" lon="4.73917">
        <ele>172</ele>
        <time>2018-05-12T09:06:49Z</time>
      </trkpt>
      <trkpt lat="45.92883" lon="4.73909">
        <ele>173</ele>
        <time>2018-05-12T09:06:50Z</time>
      </trkpt>
      <trkpt lat="45.92882" lon="4.739">
        <ele>173</ele>
        <time>2018-05-12T09:06:51Z</time>
      </trkpt>
      <trkpt lat="45.92881" lon="4.73893">
        <ele>173</ele>
        <time>2018-05-12T09:06:52Z</time>
      </trkpt>
      <trkpt lat="45.9288" lon="4.73887">
        <ele>173</ele>
        <time>2018-05-12T09:06:53Z</time>
      </trkpt>
      <trkpt lat="45.92879" lon="4.7388">
        <ele>173</ele>
        <time>2018-05-12T09:06:54Z</time>
      </trkpt>
      <trkpt lat="45.92877" lon="4.73873">
        <ele>173</ele>
        <time>2018-05-12T09:06:55Z</time>
      </trkpt>
      <trkpt lat="45.92876" lon="4.73865">
        <ele>173</ele>
        <time>2018-05-12T09:06:56Z</time>
      </trkpt>
      <trkpt lat="45.92875" lon="4.73858">
        <ele>173</ele>
        <time>2018-05-12T09:06:57Z</time>
      </trkpt>
      <trkpt lat="45.92873" lon="4.73852">
        <ele>173</ele>
        <time>2018-05-12T09:06:58Z</time>
      </trkpt>
      <trkpt lat="45.92871" lon="4.73846">
        <ele>173</ele>
        <time>2018-05-12T09:06:59Z</time>
      </trkpt>
      <trkpt lat="45.92869" lon="4.7384">
        <ele>173</ele>
        <time>2018-05-12T09:07:00Z</time>
      </trkpt>
      <trkpt lat="45.92868" lon="4.73835">
        <ele>173</ele>
        <time>2018-05-12T09:07:01Z</time>
      </trkpt>
      <trkpt lat="45.92864" lon="4.73829">
        <ele>173</ele>
        <time>2018-05-12T09:07:02Z</time>
      </trkpt>
      <trkpt lat="45.92861" lon="4.73823">
        <ele>173</ele>
        <time>2018-05-12T09:07:03Z</time>
      </trkpt>
      <trkpt lat="45.92859" lon="4.73815">
        <ele>173</ele>
        <time>2018-05-12T09:07:04Z</time>
      </trkpt>
      <trkpt lat="45.92855" lon="4.73808">
        <ele>173</ele>
        <time>2018-05-12T09:07:05Z</time>
      </trkpt>
      <trkpt lat="45.92853" lon="4.73802">
        <ele>173</ele>
        <time>2018-05-12T09:07:06Z</time>
      </trkpt>
      <trkpt lat="45.9285" lon="4.73795">
        <ele>173</ele>
        <time>2018-05-12T09:07:07Z</time>
      </trkpt>
      <trkpt lat="45.92846" lon="4.73792">
        <ele>173</ele>
        <time>2018-05-12T09:07:08Z</time>
      </trkpt>
      <trkpt lat="45.92838" lon="4.73788">
        <ele>173</ele>
        <time>2018-05-12T09:07:10Z</time>
      </trkpt>
      <trkpt lat="45.92834" lon="4.73785">
        <ele>173</ele>
        <time>2018-05-12T09:07:11Z</time>
      </trkpt>
      <trkpt lat="45.92831" lon="4.73782">
        <ele>173</ele>
        <time>2018-05-12T09:07:12Z</time>
      </trkpt>
      <trkpt lat="45.92826" lon="4.73779">
        <ele>173</ele>
        <time>2018-05-12T09:07:13Z</time>
      </trkpt>
      <trkpt lat="45.92818" lon="4.73774">
        <ele>173</ele>
        <time>2018-05-12T09:07:15Z</time>
      </trkpt>
      <trkpt lat="45.92815" lon="4.73772">
        <ele>173</ele>
        <time>2018-05-12T09:07:16Z</time>
      </trkpt>
      <trkpt lat="45.92811" lon="4.73768">
        <ele>173</ele>
        <time>2018-05-12T09:07:17Z</time>
      </trkpt>
      <trkpt lat="45.92807" lon="4.73766">
        <ele>173</ele>
        <time>2018-05-12T09:07:18Z</time>
      </trkpt>
      <trkpt lat="45.92802" lon="4.73763">
        <ele>173</ele>
        <time>2018-05-12T09:07:19Z</time>
      </trkpt>
      <trkpt lat="45.92799" lon="4.7376">
        <ele>173</ele>
        <time>2018-05-12T09:07:20Z</time>
      </trkpt>
      <trkpt lat="45.92791" lon="4.73755">
        <ele>173</ele>
        <time>2018-05-12T09:07:24Z</time>
      </trkpt>
      <trkpt lat="45.92789" lon="4.73753">
        <ele>173</ele>
        <time>2018-05-12T09:07:25Z</time>
      </trkpt>
      <trkpt lat="45.92786" lon="4.73747">
        <ele>172</ele>
        <time>2018-05-12T09:07:27Z</time>
      </trkpt>
      <trkpt lat="45.92779" lon="4.73737">
        <ele>172</ele>
        <time>2018-05-12T09:07:28Z</time>
      </trkpt>
      <trkpt lat="45.92772" lon="4.73731">
        <ele>172</ele>
        <time>2018-05-12T09:07:30Z</time>
      </trkpt>
      <trkpt lat="45.92768" lon="4.73728">
        <ele>172</ele>
        <time>2018-05-12T09:07:31Z</time>
      </trkpt>
      <trkpt lat="45.92762" lon="4.73726">
        <ele>172</ele>
        <time>2018-05-12T09:07:33Z</time>
      </trkpt>
      <trkpt lat="45.92757" lon="4.73724">
        <ele>172</ele>
        <time>2018-05-12T09:07:34Z</time>
      </trkpt>
      <trkpt lat="45.92748" lon="4.73724">
        <ele>173</ele>
        <time>2018-05-12T09:07:36Z</time>
      </trkpt>
      <trkpt lat="45.92743" lon="4.73723">
        <ele>173</ele>
        <time>2018-05-12T09:07:37Z</time>
      </trkpt>
      <trkpt lat="45.92739" lon="4.73722">
        <ele>173</ele>
        <time>2018-05-12T09:07:38Z</time>
      </trkpt>
      <trkpt lat="45.92733" lon="4.7372">
        <ele>173</ele>
        <time>2018-05-12T09:07:39Z</time>
      </trkpt>
      <trkpt lat="45.92724" lon="4.73718">
        <ele>173</ele>
        <time>2018-05-12T09:07:41Z</time>
      </trkpt>
      <trkpt lat="45.92719" lon="4.73716">
        <ele>173</ele>
        <time>2018-05-12T09:07:42Z</time>
      </trkpt>
      <trkpt lat="45.92711" lon="4.73716">
        <ele>173</ele>
        <time>2018-05-12T09:07:44Z</time>
      </trkpt>
      <trkpt lat="45.92706" lon="4.73714">
        <ele>173</ele>
        <time>2018-05-12T09:07:45Z</time>
      </trkpt>
      <trkpt lat="45.92698" lon="4.73711">
        <ele>173</ele>
        <time>2018-05-12T09:07:47Z</time>
      </trkpt>
      <trkpt lat="45.92693" lon="4.7371">
        <ele>173</ele>
        <time>2018-05-12T09:07:48Z</time>
      </trkpt>
      <trkpt lat="45.92689" lon="4.7371">
        <ele>173</ele>
        <time>2018-05-12T09:07:49Z</time>
      </trkpt>
      <trkpt lat="45.92684" lon="4.73709">
        <ele>173</ele>
        <time>2018-05-12T09:07:50Z</time>
      </trkpt>
      <trkpt lat="45.92679" lon="4.73708">
        <ele>173</ele>
        <time>2018-05-12T09:07:51Z</time>
      </trkpt>
      <trkpt lat="45.92674" lon="4.73706">
        <ele>174</ele>
        <time>2018-05-12T09:07:52Z</time>
      </trkpt>
      <trkpt lat="45.92669" lon="4.73704">
        <ele>174</ele>
        <time>2018-05-12T09:07:53Z</time>
      </trkpt>
      <trkpt lat="45.92665" lon="4.73701">
        <ele>173</ele>
        <time>2018-05-12T09:07:54Z</time>
      </trkpt>
      <trkpt lat="45.92659" lon="4.73697">
        <ele>173</ele>
        <time>2018-05-12T09:07:56Z</time>
      </trkpt>
      <trkpt lat="45.92655" lon="4.73693">
        <ele>173</ele>
        <time>2018-05-12T09:07:57Z</time>
      </trkpt>
      <trkpt lat="45.92649" lon="4.73687">
        <ele>173</ele>
        <time>2018-05-12T09:07:59Z</time>
      </trkpt>
      <trkpt lat="45.92645" lon="4.73684">
        <ele>173</ele>
        <time>2018-05-12T09:08:00Z</time>
      </trkpt>
      <trkpt lat="45.92638" lon="4.73676">
        <ele>173</ele>
        <time>2018-05-12T09:08:02Z</time>
      </trkpt>
      <trkpt lat="45.92635" lon="4.7367">
        <ele>173</ele>
        <time>2018-05-12T09:08:03Z</time>
      </trkpt>
      <trkpt lat="45.92633" lon="4.73665">
        <ele>173</ele>
        <time>2018-05-12T09:08:04Z</time>
      </trkpt>
      <trkpt lat="45.92631" lon="4.73659">
        <ele>173</ele>
        <time>2018-05-12T09:08:05Z</time>
      </trkpt>
      <trkpt lat="45.92628" lon="4.73652">
        <ele>173</ele>
        <time>2018-05-12T09:08:06Z</time>
      </trkpt>
      <trkpt lat="45.92625" lon="4.73645">
        <ele>173</ele>
        <time>2018-05-12T09:08:07Z</time>
      </trkpt>
      <trkpt lat="45.92622" lon="4.7364">
        <ele>173</ele>
        <time>2018-05-12T09:08:08Z</time>
      </trkpt>
      <trkpt lat="45.9262" lon="4.73633">
        <ele>173</ele>
        <time>2018-05-12T09:08:09Z</time>
      </trkpt>
      <trkpt lat="45.92613" lon="4.73625">
        <ele>173</ele>
        <time>2018-05-12T09:08:11Z</time>
      </trkpt>
      <trkpt lat="45.92609" lon="4.73624">
        <ele>173</ele>
        <time>2018-05-12T09:08:12Z</time>
      </trkpt>
      <trkpt lat="45.92604" lon="4.73622">
        <ele>173</ele>
        <time>2018-05-12T09:08:13Z</time>
      </trkpt>
      <trkpt lat="45.92599" lon="4.73621">
        <ele>173</ele>
        <time>2018-05-12T09:08:14Z</time>
      </trkpt>
      <trkpt lat="45.92594" lon="4.73622">
        <ele>173</ele>
        <time>2018-05-12T09:08:15Z</time>
      </trkpt>
      <trkpt lat="45.9259" lon="4.73622">
        <ele>173</ele>
        <time>2018-05-12T09:08:16Z</time>
      </trkpt>
      <trkpt lat="45.92582" lon="4.73624">
        <ele>173</ele>
        <time>2018-05-12T09:08:18Z</time>
      </trkpt>
      <trkpt lat="45.92578" lon="4.73625">
        <ele>173</ele>
        <time>2018-05-12T09:08:19Z</time>
      </trkpt>
      <trkpt lat="45.92569" lon="4.73627">
        <ele>173</ele>
        <time>2018-05-12T09:08:21Z</time>
      </trkpt>
      <trkpt lat="45.92565" lon="4.73627">
        <ele>173</ele>
        <time>2018-05-12T09:08:22Z</time>
      </trkpt>
      <trkpt lat="45.92557" lon="4.73629">
        <ele>173</ele>
        <time>2018-05-12T09:08:24Z</time>
      </trkpt>
      <trkpt lat="45.92552" lon="4.7363">
        <ele>173</ele>
        <time>2018-05-12T09:08:25Z</time>
      </trkpt>
      <trkpt lat="45.92547" lon="4.7363">
        <ele>173</ele>
        <time>2018-05-12T09:08:26Z</time>
      </trkpt>
      <trkpt lat="45.92543" lon="4.73632">
        <ele>173</ele>
        <time>2018-05-12T09:08:27Z</time>
      </trkpt>
      <trkpt lat="45.92534" lon="4.73634">
        <ele>173</ele>
        <time>2018-05-12T09:08:29Z</time>
      </trkpt>
      <trkpt lat="45.92531" lon="4.73635">
        <ele>173</ele>
        <time>2018-05-12T09:08:30Z</time>
      </trkpt>
      <trkpt lat="45.92525" lon="4.73636">
        <ele>173</ele>
        <time>2018-05-12T09:08:32Z</time>
      </trkpt>
      <trkpt lat="45.9252" lon="4.73637">
        <ele>173</ele>
        <time>2018-05-12T09:08:33Z</time>
      </trkpt>
      <trkpt lat="45.92511" lon="4.73639">
        <ele>174</ele>
        <time>2018-05-12T09:08:35Z</time>
      </trkpt>
      <trkpt lat="45.92509" lon="4.73639">
        <ele>174</ele>
        <time>2018-05-12T09:08:36Z</time>
      </trkpt>
      <trkpt lat="45.92503" lon="4.73639">
        <ele>174</ele>
        <time>2018-05-12T09:08:37Z</time>
      </trkpt>
      <trkpt lat="45.92498" lon="4.73639">
        <ele>174</ele>
        <time>2018-05-12T09:08:38Z</time>
      </trkpt>
      <trkpt lat="45.9249" lon="4.73639">
        <ele>174</ele>
        <time>2018-05-12T09:08:40Z</time>
      </trkpt>
      <trkpt lat="45.92485" lon="4.73639">
        <ele>174</ele>
        <time>2018-05-12T09:08:41Z</time>
      </trkpt>
      <trkpt lat="45.92481" lon="4.73639">
        <ele>174</ele>
        <time>2018-05-12T09:08:43Z</time>
      </trkpt>
      <trkpt lat="45.92474" lon="4.73639">
        <ele>174</ele>
        <time>2018-05-12T09:08:44Z</time>
      </trkpt>
      <trkpt lat="45.92468" lon="4.73645">
        <ele>174</ele>
        <time>2018-05-12T09:08:47Z</time>
      </trkpt>
      <trkpt lat="45.92466" lon="4.73653">
        <ele>174</ele>
        <time>2018-05-12T09:08:48Z</time>
      </trkpt>
      <trkpt lat="45.92466" lon="4.73665">
        <ele>174</ele>
        <time>2018-05-12T09:08:50Z</time>
      </trkpt>
      <trkpt lat="45.92466" lon="4.73672">
        <ele>174</ele>
        <time>2018-05-12T09:08:51Z</time>
      </trkpt>
      <trkpt lat="45.92466" lon="4.73684">
        <ele>174</ele>
        <time>2018-05-12T09:08:53Z</time>
      </trkpt>
      <trkpt lat="45.92466" lon="4.7369">
        <ele>174</ele>
        <time>2018-05-12T09:08:54Z</time>
      </trkpt>
      <trkpt lat="45.92464" lon="4.73701">
        <ele>174</ele>
        <time>2018-05-12T09:08:57Z</time>
      </trkpt>
      <trkpt lat="45.92463" lon="4.73704">
        <ele>174</ele>
        <time>2018-05-12T09:08:58Z</time>
      </trkpt>
      <trkpt lat="45.92459" lon="4.73714">
        <ele>174</ele>
        <time>2018-05-12T09:09:11Z</time>
      </trkpt>
      <trkpt lat="45.92459" lon="4.73714">
        <ele>174</ele>
        <time>2018-05-12T09:09:12Z</time>
      </trkpt>
      <trkpt lat="45.92458" lon="4.73714">
        <ele>174</ele>
        <time>2018-05-12T09:09:13Z</time>
      </trkpt>
      <trkpt lat="45.92453" lon="4.73711">
        <ele>174</ele>
        <time>2018-05-12T09:10:21.523Z</time>
      </trkpt>
    </trkseg>
  </trk>
</gpx>